
Distance (Route):
Temperature : 0.7°C
Humidity : 71.2%
Pressure : 662.1hPa| Receiver | Frames | First received | Last received |
|---|---|---|---|
| SQ9EZE-13 | 369 | 2026-08-31 11:18:09 | 2026-08-31 13:03:25 |
| SP9SOS | 150 | 2026-08-31 11:47:35 | 2026-08-31 13:03:08 |
| SQ9EZE-15 | 100 | 2026-08-31 11:19:00 | 2026-08-31 13:02:48 |
| HA6NAB-11 | 90 | 2026-08-31 11:34:28 | 2026-08-31 12:47:43 |
| GYPAP8-17 | 87 | 2026-08-31 11:17:37 | 2026-08-31 13:02:14 |
| S52SK | 86 | 2026-08-31 12:18:58 | 2026-08-31 12:49:49 |
| SQ9EZE-14 | 73 | 2026-08-31 11:18:23 | 2026-08-31 13:02:43 |
| OM5KV | 23 | 2026-08-31 11:31:32 | 2026-08-31 11:34:44 |
| PG1ADW-2 | 23 | 2026-08-31 12:22:30 | 2026-08-31 12:49:09 |
| SQ9PSP-11 | 23 | 2026-08-31 12:54:09 | 2026-08-31 13:01:24 |
| OE5DXL-15 | 22 | 2026-08-31 12:37:33 | 2026-08-31 12:49:38 |
| OE5DRO-10 | 15 | 2026-08-31 12:40:04 | 2026-08-31 12:48:37 |
| LZ4TU-5 | 13 | 2026-08-31 12:34:01 | 2026-08-31 12:48:51 |
| OE3JTB-15 | 7 | 2026-08-31 11:28:16 | 2026-08-31 11:40:45 |
| ATIDSZ-14 | 4 | 2026-08-31 11:47:03 | 2026-08-31 11:48:44 |
| Receiver | Date | Latitude | Longitude | Direction | Speed | Altitude | Climb | Temperature | Humidity | Pressure | Voltage | Killtimer | Uptime | BKT | XDATA |
|---|---|---|---|---|---|---|---|---|---|---|---|---|---|---|---|
| SQ9EZE-13 | 2026-08-31 13:03:25 | 49.23317 | 21.20642 | 75° | 29km/h | 3651m | -16.8m/s | 0.7°C | 71.2% | 662.1hPa | 2.7V | 08:15:00 | 00:00:00 | 00:00:00 | |
| SQ9EZE-13 | 2026-08-31 13:03:09 | 49.23288 | 21.20456 | 79° | 31km/h | 3924m | -17.3m/s | -1.8°C | 71.9% | 639.9hPa | 2.7V | 08:15:00 | 00:00:00 | 00:00:00 | |
| SP9SOS | 2026-08-31 13:03:08 | 49.23284 | 21.20432 | 77° | 31km/h | 3959m | -16.9m/s | -2.1°C | 65.9% | 637.0hPa | 2.7V | 00:00:00 | 00:00:00 | 00:00:00 | |
| SQ9EZE-13 | 2026-08-31 13:02:54 | 49.23250 | 21.20288 | 63° | 27km/h | 4185m | -17.5m/s | -3.9°C | 74.1% | 619.1hPa | 2.7V | 08:16:00 | 00:00:00 | 00:00:00 | |
| SQ9EZE-15 | 2026-08-31 13:02:48 | 49.23232 | 21.20228 | 68° | 29km/h | 4290m | -18.5m/s | -4.8°C | 76.2% | 611.0hPa | 2.7V | 00:00:00 | 00:00:00 | 00:00:00 | |
| SQ9EZE-14 | 2026-08-31 13:02:43 | 49.23215 | 21.20173 | 64° | 24km/h | 4399m | -18.2m/s | -5.9°C | 82.5% | 602.6hPa | 2.7V | 00:00:00 | 00:00:00 | 00:00:00 | |
| SQ9EZE-13 | 2026-08-31 13:02:38 | 49.23206 | 21.20136 | 75° | 29km/h | 4471m | -18.3m/s | -6.3°C | 83.5% | 597.1hPa | 2.7V | 08:16:00 | 00:00:00 | 00:00:00 | |
| SQ9EZE-14 | 2026-08-31 13:02:27 | 49.23177 | 21.20021 | 66° | 27km/h | 4682m | -17.8m/s | -7.5°C | 65.0% | 581.3hPa | 2.7V | 00:00:00 | 00:00:00 | 00:00:00 | |
| SQ9EZE-13 | 2026-08-31 13:02:22 | 49.23164 | 21.19983 | 62° | 29km/h | 4752m | -17.1m/s | -7.7°C | 38.0% | 576.1hPa | 2.7V | 08:16:00 | 00:00:00 | 00:00:00 | |
| GYPAP8-17 | 2026-08-31 13:02:14 | 49.23132 | 21.19892 | 56° | 33km/h | 4892m | -18.1m/s | -6.1°C | 6.8% | 565.8hPa | 2.7V | 08:16:00 | 00:00:00 | 00:00:00 | |
| SQ9EZE-13 | 2026-08-31 13:02:07 | 49.23096 | 21.19815 | 53° | 33km/h | 5018m | -17.8m/s | -6.6°C | 9.3% | 556.7hPa | 2.7V | 08:17:00 | 00:00:00 | 00:00:00 | |
| SQ9EZE-13 | 2026-08-31 13:01:51 | 49.23016 | 21.19641 | 53° | 33km/h | 5304m | -17.6m/s | -7.3°C | 6.8% | 536.4hPa | 2.7V | 08:17:00 | 00:00:00 | 00:00:00 | |
| SQ9EZE-15 | 2026-08-31 13:01:36 | 49.22913 | 21.19473 | 46° | 44km/h | 5572m | -18.5m/s | -8.4°C | 4.7% | 518.1hPa | 2.7V | 08:17:00 | 00:00:00 | 00:00:00 | |
| SQ9EZE-13 | 2026-08-31 13:01:35 | 49.22906 | 21.19461 | 46° | 38km/h | 5590m | -18.1m/s | -8.5°C | 4.8% | 516.8hPa | 2.7V | 08:17:00 | 00:00:00 | 00:00:00 | |
| SQ9PSP-11 | 2026-08-31 13:01:24 | 49.22821 | 21.19337 | 48° | 47km/h | 5783m | -18.2m/s | -9.9°C | 25.9% | 503.8hPa | 2.7V | 00:00:00 | 00:00:00 | 00:00:00 | |
| SQ9EZE-13 | 2026-08-31 13:01:21 | 49.22789 | 21.19284 | 53° | 49km/h | 5852m | -17.8m/s | -10.3°C | 20.6% | 499.2hPa | 2.7V | 08:18:00 | 00:00:00 | 00:00:00 | |
| SQ9EZE-15 | 2026-08-31 13:01:15 | 49.22751 | 21.19209 | 55° | 49km/h | 5936m | -17.3m/s | -11.1°C | 27.0% | 493.6hPa | 2.7V | 00:00:00 | 00:00:00 | 00:00:00 | |
| SQ9EZE-13 | 2026-08-31 13:01:04 | 49.22670 | 21.19024 | 60° | 53km/h | 6121m | -17.4m/s | -12.5°C | 25.3% | 481.1hPa | 2.7V | 08:18:00 | 00:00:00 | 00:00:00 | |
| SQ9PSP-11 | 2026-08-31 13:00:59 | 49.22635 | 21.18933 | 63° | 53km/h | 6204m | -17.3m/s | -12.9°C | 13.2% | 475.7hPa | 2.7V | 00:00:00 | 00:00:00 | 00:00:00 | |
| GYPAP8-17 | 2026-08-31 13:00:58 | 49.22629 | 21.18914 | 63° | 55km/h | 6220m | -17.7m/s | -13.0°C | 10.5% | 474.6hPa | 2.7V | 00:00:00 | 00:00:00 | 00:00:00 | |
| SQ9EZE-13 | 2026-08-31 13:00:48 | 49.22571 | 21.18709 | 68° | 62km/h | 6392m | -18.1m/s | -14.0°C | 5.9% | 463.6hPa | 2.7V | 08:18:00 | 00:00:00 | 00:00:00 | |
| SQ9PSP-11 | 2026-08-31 13:00:38 | 49.22500 | 21.18480 | 65° | 60km/h | 6590m | -18.6m/s | -15.4°C | 26.0% | 451.7hPa | 2.7V | 00:00:00 | 00:00:00 | 00:00:00 | |
| SQ9EZE-13 | 2026-08-31 13:00:33 | 49.22474 | 21.18393 | 67° | 62km/h | 6663m | -19.2m/s | -16.1°C | 45.1% | 447.3hPa | 2.7V | 08:18:00 | 00:00:00 | 00:00:00 | |
| SQ9PSP-11 | 2026-08-31 13:00:18 | 49.22377 | 21.18026 | 71° | 64km/h | 6957m | -19.4m/s | -18.8°C | 49.1% | 430.1hPa | 2.7V | 00:00:00 | 00:00:00 | 00:00:00 | |
| SQ9EZE-14 | 2026-08-31 13:00:15 | 49.22361 | 21.17954 | 74° | 66km/h | 7015m | -20.3m/s | -19.2°C | 24.6% | 426.8hPa | 2.7V | 00:00:00 | 00:00:00 | 00:00:00 | |
| SQ9EZE-15 | 2026-08-31 13:00:03 | 49.22296 | 21.17689 | 69° | 68km/h | 7231m | -20.4m/s | -20.6°C | 44.9% | 414.6hPa | 2.7V | 00:00:00 | 00:00:00 | 00:00:00 | |
| GYPAP8-17 | 2026-08-31 13:00:01 | 49.22283 | 21.17641 | 69° | 69km/h | 7270m | -20.4m/s | -21.0°C | 34.0% | 412.4hPa | 2.7V | 00:00:00 | 00:00:00 | 00:00:00 | |
| SQ9EZE-14 | 2026-08-31 12:59:59 | 49.22270 | 21.17592 | 70° | 69km/h | 7310m | -20.4m/s | -21.3°C | 31.1% | 410.2hPa | 2.7V | 00:00:00 | 00:00:00 | 00:00:00 | |
| SQ9EZE-13 | 2026-08-31 12:59:46 | 49.22186 | 21.17281 | 69° | 66km/h | 7566m | -20.4m/s | -23.7°C | 39.8% | 396.1hPa | 2.7V | 08:19:00 | 00:00:00 | 00:00:00 | |
| SQ9EZE-15 | 2026-08-31 12:59:42 | 49.22161 | 21.17185 | 68° | 66km/h | 7645m | -20.4m/s | -24.4°C | 35.4% | 391.9hPa | 2.7V | 00:00:00 | 00:00:00 | 00:00:00 | |
| SQ9PSP-11 | 2026-08-31 12:59:35 | 49.22116 | 21.17015 | 70° | 69km/h | 7784m | -21.0m/s | -24.7°C | 17.8% | 384.5hPa | 2.7V | 08:20:00 | 00:00:00 | 00:00:00 | |
| SP9SOS | 2026-08-31 12:59:34 | 49.22110 | 21.16990 | 70° | 69km/h | 7804m | -20.7m/s | -24.9°C | 18.1% | 383.4hPa | 2.7V | 00:00:00 | 00:00:00 | 00:00:00 | |
| SQ9EZE-13 | 2026-08-31 12:59:30 | 49.22084 | 21.16892 | 69° | 69km/h | 7883m | -20.5m/s | -25.6°C | 19.0% | 379.2hPa | 2.7V | 08:20:00 | 00:00:00 | 00:00:00 | |
| SQ9PSP-11 | 2026-08-31 12:59:19 | 49.22005 | 21.16606 | 68° | 77km/h | 8106m | -21.2m/s | -27.3°C | 20.1% | 367.7hPa | 2.7V | 08:20:00 | 00:00:00 | 00:00:00 | |
| SQ9EZE-13 | 2026-08-31 12:59:14 | 49.21967 | 21.16468 | 68° | 77km/h | 8211m | -21.3m/s | -28.1°C | 21.8% | 362.5hPa | 2.7V | 08:20:00 | 00:00:00 | 00:00:00 | |
| SP9SOS | 2026-08-31 12:59:06 | 49.21905 | 21.16254 | 66° | 77km/h | 8377m | -21.4m/s | -29.6°C | 23.5% | 354.2hPa | 2.7V | 00:00:00 | 00:00:00 | 00:00:00 | |
| GYPAP8-17 | 2026-08-31 12:59:05 | 49.21897 | 21.16227 | 67° | 77km/h | 8398m | -21.4m/s | -29.7°C | 23.2% | 353.1hPa | 2.7V | 00:00:00 | 00:00:00 | 00:00:00 | |
| SQ9PSP-11 | 2026-08-31 12:59:04 | 49.21889 | 21.16200 | 68° | 78km/h | 8419m | -21.6m/s | -29.9°C | 22.6% | 352.2hPa | 2.7V | 08:20:00 | 00:00:00 | 00:00:00 | |
| SQ9EZE-13 | 2026-08-31 12:58:59 | 49.21850 | 21.16061 | 69° | 78km/h | 8522m | -21.8m/s | -30.3°C | 16.8% | 347.0hPa | 2.7V | 08:20:00 | 00:00:00 | 00:00:00 | |
| SQ9PSP-11 | 2026-08-31 12:58:48 | 49.21779 | 21.15743 | 74° | 77km/h | 8751m | -21.6m/s | -31.9°C | 15.5% | 336.0hPa | 2.7V | 00:00:00 | 00:00:00 | 00:00:00 | |
| SQ9EZE-13 | 2026-08-31 12:58:45 | 49.21758 | 21.15629 | 76° | 77km/h | 8835m | -20.8m/s | -32.6°C | 15.2% | 332.1hPa | 2.7V | 08:21:00 | 00:00:00 | 00:00:00 | |
| SQ9PSP-11 | 2026-08-31 12:58:33 | 49.21708 | 21.15317 | 79° | 77km/h | 9057m | -21.2m/s | -34.5°C | 18.6% | 321.7hPa | 2.7V | 00:00:00 | 00:00:00 | 00:00:00 | |
| SQ9EZE-13 | 2026-08-31 12:58:28 | 49.21689 | 21.15169 | 81° | 78km/h | 9160m | -21.4m/s | -35.4°C | 21.8% | 317.1hPa | 2.7V | 08:21:00 | 00:00:00 | 00:00:00 | |
| SQ9EZE-15 | 2026-08-31 12:58:20 | 49.21660 | 21.14928 | 80° | 78km/h | 9323m | -20.9m/s | -36.6°C | 27.4% | 309.7hPa | 2.7V | 00:00:00 | 00:00:00 | 00:00:00 | |
| SQ9EZE-13 | 2026-08-31 12:58:14 | 49.21632 | 21.14717 | 79° | 80km/h | 9467m | -21.3m/s | -37.7°C | 41.3% | 303.3hPa | 2.7V | 08:21:00 | 00:00:00 | 00:00:00 | |
| GYPAP8-17 | 2026-08-31 12:58:12 | 49.21627 | 21.14686 | 79° | 80km/h | 9487m | -21.3m/s | -37.9°C | 41.3% | 302.4hPa | 2.7V | 00:00:00 | 00:00:00 | 00:00:00 | |
| SQ9EZE-15 | 2026-08-31 12:57:59 | 49.21577 | 21.14298 | 81° | 77km/h | 9757m | -21.1m/s | -40.2°C | 48.5% | 290.8hPa | 2.7V | 00:00:00 | 00:00:00 | 00:00:00 | |
| SQ9EZE-13 | 2026-08-31 12:57:58 | 49.21570 | 21.14240 | 81° | 77km/h | 9799m | -21.1m/s | -40.6°C | 49.6% | 289.0hPa | 2.7V | 08:21:00 | 00:00:00 | 00:00:00 | |
| SP9SOS | 2026-08-31 12:57:49 | 49.21544 | 21.14008 | 82° | 77km/h | 9965m | -21.6m/s | -42.0°C | 44.8% | 282.0hPa | 2.7V | 00:00:00 | 00:00:00 | 00:00:00 | |
| SQ9PSP-11 | 2026-08-31 12:57:43 | 49.21525 | 21.13831 | 82° | 78km/h | 10090m | -21.5m/s | -42.9°C | 37.4% | 276.8hPa | 2.7V | 08:21:00 | 00:00:00 | 00:00:00 | |
| SQ9EZE-13 | 2026-08-31 12:57:42 | 49.21522 | 21.13801 | 82° | 80km/h | 10111m | -21.6m/s | -43.0°C | 36.3% | 275.9hPa | 2.7V | 08:21:00 | 00:00:00 | 00:00:00 | |
| SQ9EZE-14 | 2026-08-31 12:57:34 | 49.21494 | 21.13511 | 83° | 88km/h | 10302m | -22.1m/s | -44.3°C | 34.3% | 268.2hPa | 2.7V | 00:00:00 | 00:00:00 | 00:00:00 | |
| SQ9EZE-13 | 2026-08-31 12:57:26 | 49.21474 | 21.13272 | 84° | 89km/h | 10453m | -22.0m/s | -45.7°C | 38.1% | 262.2hPa | 2.7V | 08:21:00 | 00:00:00 | 00:00:00 | |
| SP9SOS | 2026-08-31 12:57:24 | 49.21469 | 21.13204 | 84° | 89km/h | 10496m | -22.0m/s | -46.0°C | 38.4% | 260.5hPa | 2.7V | 00:00:00 | 00:00:00 | 00:00:00 | |
| SQ9PSP-11 | 2026-08-31 12:57:16 | 49.21451 | 21.12925 | 87° | 95km/h | 10673m | -22.6m/s | -47.4°C | 38.7% | 253.7hPa | 2.7V | 08:21:00 | 00:00:00 | 00:00:00 | |
| SQ9EZE-13 | 2026-08-31 12:57:11 | 49.21443 | 21.12697 | 89° | 102km/h | 10809m | -23.0m/s | -48.3°C | 38.8% | 248.5hPa | 2.7V | 08:21:00 | 00:00:00 | 00:00:00 | |
| GYPAP8-17 | 2026-08-31 12:57:10 | 49.21442 | 21.12658 | 88° | 102km/h | 10831m | -23.1m/s | -48.4°C | 38.8% | 247.7hPa | 2.7V | 08:21:00 | 00:00:00 | 00:00:00 | |
| SQ9PSP-11 | 2026-08-31 12:57:00 | 49.21430 | 21.12305 | 88° | 104km/h | 11038m | -23.5m/s | -49.6°C | 38.0% | 240.1hPa | 2.7V | 08:22:00 | 00:00:00 | 00:00:00 | |
| SP9SOS | 2026-08-31 12:56:59 | 49.21429 | 21.12265 | 88° | 102km/h | 11062m | -23.4m/s | -49.7°C | 37.8% | 239.2hPa | 2.7V | 08:22:00 | 00:00:00 | 00:00:00 | |
| SQ9EZE-13 | 2026-08-31 12:56:55 | 49.21421 | 21.12106 | 87° | 102km/h | 11154m | -23.6m/s | -50.3°C | 37.4% | 235.8hPa | 2.7V | 08:22:00 | 00:00:00 | 00:00:00 | |
| SQ9PSP-11 | 2026-08-31 12:56:44 | 49.21396 | 21.11662 | 87° | 108km/h | 11410m | -23.8m/s | -52.2°C | 34.6% | 226.7hPa | 2.7V | 08:22:00 | 00:00:00 | 00:00:00 | |
| SQ9EZE-13 | 2026-08-31 12:56:39 | 49.21386 | 21.11450 | 88° | 113km/h | 11529m | -24.0m/s | -53.0°C | 30.2% | 222.7hPa | 2.7V | 08:22:00 | 00:00:00 | 00:00:00 | |
| SQ9PSP-11 | 2026-08-31 12:56:30 | 49.21369 | 21.11013 | 88° | 113km/h | 11767m | -24.0m/s | -53.5°C | 21.9% | 214.5hPa | 2.7V | 08:22:00 | 00:00:00 | 00:00:00 | |
| SQ9EZE-15 | 2026-08-31 12:56:26 | 49.21364 | 21.10882 | 88° | 115km/h | 11838m | -24.0m/s | -54.0°C | 21.1% | 212.2hPa | 2.7V | 00:00:00 | 00:00:00 | 00:00:00 | |
| SQ9EZE-13 | 2026-08-31 12:56:25 | 49.21362 | 21.10792 | 88° | 115km/h | 11886m | -23.9m/s | -54.2°C | 20.6% | 210.7hPa | 2.7V | 08:22:00 | 00:00:00 | 00:00:00 | |
| SQ9PSP-11 | 2026-08-31 12:56:13 | 49.21338 | 21.10295 | 87° | 120km/h | 12149m | -24.5m/s | -55.4°C | 16.7% | 202.1hPa | 2.7V | 08:23:00 | 00:00:00 | 00:00:00 | |
| SQ9EZE-13 | 2026-08-31 12:56:09 | 49.21330 | 21.10111 | 87° | 117km/h | 12245m | -24.2m/s | -55.8°C | 15.4% | 199.1hPa | 2.7V | 08:23:00 | 00:00:00 | 00:00:00 | |
| GYPAP8-17 | 2026-08-31 12:56:06 | 49.21323 | 21.09930 | 87° | 117km/h | 12342m | -24.6m/s | -56.0°C | 14.2% | 196.1hPa | 2.7V | 00:00:00 | 00:00:00 | 00:00:00 | |
| SQ9PSP-11 | 2026-08-31 12:55:58 | 49.21311 | 21.09614 | 88° | 117km/h | 12514m | -25.2m/s | -56.1°C | 12.0% | 190.9hPa | 2.7V | 08:23:00 | 00:00:00 | 00:00:00 | |
| SQ9EZE-13 | 2026-08-31 12:55:54 | 49.21304 | 21.09435 | 88° | 117km/h | 12615m | -25.7m/s | -56.3°C | 10.9% | 187.9hPa | 2.7V | 08:23:00 | 00:00:00 | 00:00:00 | |
| SQ9PSP-11 | 2026-08-31 12:55:43 | 49.21299 | 21.08936 | 92° | 119km/h | 12895m | -26.0m/s | -57.2°C | 8.8% | 179.8hPa | 2.7V | 08:23:00 | 00:00:00 | 00:00:00 | |
| SP9SOS | 2026-08-31 12:55:41 | 49.21300 | 21.08845 | 93° | 115km/h | 12947m | -26.4m/s | -57.3°C | 8.4% | 178.3hPa | 2.7V | 08:23:00 | 00:00:00 | 00:00:00 | |
| SQ9EZE-13 | 2026-08-31 12:55:39 | 49.21301 | 21.08756 | 91° | 113km/h | 13000m | -25.9m/s | -57.5°C | 8.1% | 176.8hPa | 2.7V | 08:23:00 | 00:00:00 | 00:00:00 | |
| SQ9PSP-11 | 2026-08-31 12:55:28 | 49.21297 | 21.08255 | 92° | 102km/h | 13319m | -27.7m/s | -57.9°C | 6.0% | 168.1hPa | 2.7V | 08:23:00 | 00:00:00 | 00:00:00 | |
| SQ9EZE-13 | 2026-08-31 12:55:24 | 49.21304 | 21.08100 | 99° | 99km/h | 13429m | -27.5m/s | -56.8°C | 4.8% | 165.2hPa | 2.7V | 08:24:00 | 00:00:00 | 00:00:00 | |
| SP9SOS | 2026-08-31 12:55:15 | 49.21340 | 21.07834 | 105° | 75km/h | 13647m | -27.9m/s | -56.2°C | 3.7% | 159.8hPa | 2.7V | 08:24:00 | 00:00:00 | 00:00:00 | |
| SQ9PSP-11 | 2026-08-31 12:55:12 | 49.21351 | 21.07755 | 103° | 64km/h | 13730m | -27.8m/s | -56.3°C | 3.5% | 157.6hPa | 2.7V | 08:24:00 | 00:00:00 | 00:00:00 | |
| SQ9EZE-14 | 2026-08-31 12:55:08 | 49.21359 | 21.07641 | 92° | 55km/h | 13870m | -28.4m/s | -56.8°C | 3.4% | 154.2hPa | 2.7V | 00:00:00 | 00:00:00 | 00:00:00 | |
| GYPAP8-17 | 2026-08-31 12:55:02 | 49.21354 | 21.07540 | 80° | 49km/h | 14011m | -28.7m/s | -57.7°C | 3.3% | 150.8hPa | 2.7V | 00:00:00 | 00:00:00 | 00:00:00 | |
| SQ9PSP-11 | 2026-08-31 12:54:57 | 49.21332 | 21.07430 | 69° | 53km/h | 14182m | -28.9m/s | -59.0°C | 3.4% | 146.8hPa | 2.7V | 08:24:00 | 00:00:00 | 00:00:00 | |
| SQ9EZE-13 | 2026-08-31 12:54:52 | 49.21311 | 21.07349 | 71° | 60km/h | 14299m | -29.1m/s | -59.1°C | 3.2% | 144.1hPa | 2.7V | 08:24:00 | 00:00:00 | 00:00:00 | |
| SP9SOS | 2026-08-31 12:54:50 | 49.21302 | 21.07302 | 75° | 66km/h | 14358m | -28.9m/s | -59.2°C | 3.2% | 142.9hPa | 2.7V | 08:24:00 | 00:00:00 | 00:00:00 | |
| SQ9EZE-15 | 2026-08-31 12:54:49 | 49.21294 | 21.07251 | 80° | 69km/h | 14415m | -29.7m/s | -59.2°C | 3.1% | 141.5hPa | 2.7V | 08:24:00 | 00:00:00 | 00:00:00 | |
| SQ9PSP-11 | 2026-08-31 12:54:40 | 49.21280 | 21.07034 | 90° | 62km/h | 14655m | -29.7m/s | 0°C | 0% | 136.3hPa | 2.7V | 08:24:00 | 00:00:00 | 00:00:00 | |
| SQ9EZE-13 | 2026-08-31 12:54:37 | 49.21279 | 21.06967 | 90° | 53km/h | 14745m | -30.2m/s | -57.9°C | 2.6% | 134.4hPa | 2.7V | 08:24:00 | 00:00:00 | 00:00:00 | |
| SQ9EZE-15 | 2026-08-31 12:54:28 | 49.21262 | 21.06799 | 79° | 46km/h | 15015m | -31.2m/s | -57.8°C | 2.3% | 128.8hPa | 2.7V | 00:00:00 | 00:00:00 | 00:00:00 | |
| SP9SOS | 2026-08-31 12:54:26 | 49.21255 | 21.06749 | 82° | 42km/h | 15109m | -31.2m/s | -56.9°C | 2.1% | 126.9hPa | 2.7V | 08:25:00 | 00:00:00 | 00:00:00 | |
| SQ9PSP-11 | 2026-08-31 12:54:25 | 49.21255 | 21.06749 | 82° | 42km/h | 15109m | -31.2m/s | 0°C | 0% | 0hPa | 2.7V | 00:00:00 | 00:00:00 | 00:00:00 | |
| SQ9EZE-13 | 2026-08-31 12:54:21 | 49.21248 | 21.06688 | 80° | 40km/h | 15235m | -31.4m/s | -57.2°C | 2.1% | 124.5hPa | 2.7V | 08:25:00 | 00:00:00 | 00:00:00 | |
| SQ9PSP-11 | 2026-08-31 12:54:09 | 49.21197 | 21.06499 | 57° | 44km/h | 15616m | -32.1m/s | 0°C | 0% | 0hPa | 2.7V | 00:00:00 | 00:00:00 | 00:00:00 | |
| SQ9EZE-13 | 2026-08-31 12:54:06 | 49.21169 | 21.06437 | 57° | 51km/h | 15748m | -32.4m/s | -58.0°C | 2.0% | 114.9hPa | 2.7V | 08:25:00 | 00:00:00 | 00:00:00 | |
| SP9SOS | 2026-08-31 12:54:01 | 49.21138 | 21.06344 | 71° | 57km/h | 15917m | -33.6m/s | -57.6°C | 1.9% | 111.9hPa | 2.7V | 08:25:00 | 00:00:00 | 00:00:00 | |
| GYPAP8-17 | 2026-08-31 12:54:00 | 49.21138 | 21.06344 | 71° | 57km/h | 15917m | -33.6m/s | -57.6°C | 1.9% | 111.9hPa | 2.7V | 00:00:00 | 00:00:00 | 00:00:00 | |
| SP9SOS | 2026-08-31 12:53:36 | 49.21067 | 21.05983 | 66° | 18km/h | 16789m | -34.9m/s | -53.0°C | 1.2% | 98.0hPa | 2.7V | 08:26:00 | 00:00:00 | 00:00:00 | |
| SQ9EZE-13 | 2026-08-31 12:53:34 | 49.21064 | 21.05977 | 65° | 16km/h | 16825m | -35.3m/s | -53.2°C | 1.2% | 97.4hPa | 2.7V | 08:26:00 | 00:00:00 | 00:00:00 | |
| SQ9EZE-13 | 2026-08-31 12:53:19 | 49.21023 | 21.05845 | 72° | 29km/h | 17382m | -37.2m/s | -55.3°C | 1.4% | 89.6hPa | 2.7V | 08:26:00 | 00:00:00 | 00:00:00 | |
| SP9SOS | 2026-08-31 12:53:10 | 49.21002 | 21.05771 | 59° | 16km/h | 17738m | -38.5m/s | -54.7°C | 1.3% | 85.0hPa | 2.7V | 08:26:00 | 00:00:00 | 00:00:00 | |
| SQ9EZE-13 | 2026-08-31 12:53:03 | 49.20982 | 21.05729 | 60° | 18km/h | 18023m | -39.0m/s | -55.0°C | 1.4% | 81.5hPa | 2.7V | 08:26:00 | 00:00:00 | 00:00:00 | |
| SQ9EZE-14 | 2026-08-31 12:53:02 | 49.20975 | 21.05710 | 72° | 15km/h | 18147m | -39.7m/s | -54.6°C | 1.3% | 80.0hPa | 2.7V | 08:26:00 | 00:00:00 | 00:00:00 | |
| GYPAP8-17 | 2026-08-31 12:52:49 | 49.20932 | 21.05663 | 42° | 27km/h | 18649m | -41.2m/s | -54.1°C | 1.2% | 74.3hPa | 2.7V | 00:00:00 | 00:00:00 | 00:00:00 | |
| SQ9EZE-14 | 2026-08-31 12:52:44 | 49.20912 | 21.05629 | 56° | 27km/h | 18821m | -40.8m/s | -54.3°C | 1.2% | 72.4hPa | 2.7V | 00:00:00 | 00:00:00 | 00:00:00 | |
| SQ9EZE-13 | 2026-08-31 12:52:33 | 49.20874 | 21.05556 | 46° | 20km/h | 19286m | -42.5m/s | -54.8°C | 1.3% | 67.4hPa | 2.7V | 08:26:00 | 00:00:00 | 00:00:00 | |
| SQ9EZE-13 | 2026-08-31 12:52:18 | 49.20876 | 21.05492 | 67° | 15km/h | 19864m | -44.6m/s | -53.9°C | 1.2% | 60.6hPa | 2.7V | 08:26:00 | 00:00:00 | 00:00:00 | |
| SQ9EZE-15 | 2026-08-31 12:52:03 | 49.20856 | 21.05458 | 350° | 13km/h | 20544m | -47.3m/s | -52.7°C | 1.1% | 54.9hPa | 2.7V | 08:26:00 | 00:00:00 | 00:00:00 | |
| SQ9EZE-13 | 2026-08-31 12:52:02 | 49.20853 | 21.05459 | 352° | 15km/h | 20592m | -47.4m/s | -52.6°C | 1.1% | 54.5hPa | 2.7V | 08:26:00 | 00:00:00 | 00:00:00 | |
| SP9SOS | 2026-08-31 12:51:53 | 49.20824 | 21.05440 | 46° | 11km/h | 21024m | -48.2m/s | -53.3°C | 1.1% | 51.0hPa | 2.7V | 08:27:00 | 00:00:00 | 00:00:00 | |
| SQ9EZE-13 | 2026-08-31 12:51:47 | 49.20810 | 21.05421 | 53° | 7km/h | 21372m | -50.0m/s | -53.0°C | 1.1% | 48.4hPa | 2.7V | 08:27:00 | 00:00:00 | 00:00:00 | |
| SQ9EZE-15 | 2026-08-31 12:51:43 | 49.20808 | 21.05415 | 114° | 4km/h | 21524m | -50.2m/s | -53.3°C | 1.1% | 47.3hPa | 2.7V | 00:00:00 | 00:00:00 | 00:00:00 | |
| SQ9EZE-13 | 2026-08-31 12:51:31 | 49.20800 | 21.05436 | 339° | 9km/h | 22143m | -51.7m/s | -53.0°C | 1.1% | 43.1hPa | 2.7V | 08:27:00 | 00:00:00 | 00:00:00 | |
| SP9SOS | 2026-08-31 12:51:27 | 49.20788 | 21.05433 | 33° | 11km/h | 22357m | -52.6m/s | -52.7°C | 1.1% | 41.7hPa | 2.7V | 08:27:00 | 00:00:00 | 00:00:00 | |
| SQ9EZE-13 | 2026-08-31 12:51:17 | 49.20771 | 21.05411 | 350° | 4km/h | 22950m | -53.6m/s | -53.1°C | 1.2% | 38.0hPa | 2.7V | 08:27:00 | 00:00:00 | 00:00:00 | |
| GYPAP8-17 | 2026-08-31 12:51:12 | 49.20766 | 21.05409 | 88° | 4km/h | 23225m | -54.7m/s | -53.2°C | 1.2% | 36.5hPa | 2.7V | 08:27:00 | 00:00:00 | 00:00:00 | |
| SP9SOS | 2026-08-31 12:51:01 | 49.20763 | 21.05407 | 243° | 5km/h | 23791m | -57.4m/s | -51.4°C | 1.1% | 33.5hPa | 2.7V | 08:28:00 | 00:00:00 | 00:00:00 | |
| SQ9EZE-13 | 2026-08-31 12:51:00 | 49.20762 | 21.05409 | 259° | 5km/h | 23849m | -57.7m/s | -50.4°C | 1.0% | 33.2hPa | 2.7V | 08:28:00 | 00:00:00 | 00:00:00 | |
| SQ9EZE-14 | 2026-08-31 12:50:37 | 49.20759 | 21.05391 | 64° | 4km/h | 25159m | -64.6m/s | -49.3°C | 0.9% | 26.8hPa | 2.7V | 00:00:00 | 00:00:00 | 00:00:00 | |
| SP9SOS | 2026-08-31 12:50:36 | 49.20758 | 21.05389 | 62° | 5km/h | 25226m | -64.9m/s | -49.1°C | 0.9% | 26.6hPa | 2.7V | 08:28:00 | 00:00:00 | 00:00:00 | |
| SQ9EZE-13 | 2026-08-31 12:50:30 | 49.20750 | 21.05379 | 10° | 9km/h | 25637m | -67.6m/s | -48.3°C | 0.9% | 25.0hPa | 2.7V | 08:28:00 | 00:00:00 | 00:00:00 | |
| SQ9EZE-14 | 2026-08-31 12:50:21 | 49.20738 | 21.05378 | 354° | 7km/h | 26264m | -69.6m/s | -47.6°C | 0.8% | 22.8hPa | 2.7V | 00:00:00 | 00:00:00 | 00:00:00 | |
| SQ9EZE-13 | 2026-08-31 12:50:14 | 49.20725 | 21.05366 | 63° | 13km/h | 26764m | -72.8m/s | -47.4°C | 0.9% | 21.2hPa | 2.7V | 08:29:00 | 00:00:00 | 00:00:00 | |
| SP9SOS | 2026-08-31 12:50:11 | 49.20721 | 21.05348 | 75° | 13km/h | 27061m | -73.5m/s | -46.4°C | 0.8% | 20.3hPa | 2.7V | 08:29:00 | 00:00:00 | 00:00:00 | |
| SQ9EZE-15 | 2026-08-31 12:50:06 | 49.20715 | 21.05330 | 65° | 16km/h | 27364m | -75.1m/s | -46.1°C | 0.8% | 19.5hPa | 2.7V | 00:00:00 | 00:00:00 | 00:00:00 | |
| SQ9EZE-13 | 2026-08-31 12:49:59 | 49.20710 | 21.05286 | 83° | 16km/h | 27892m | -75.2m/s | -46.2°C | 0.8% | 17.9hPa | 2.7V | 08:29:00 | 00:00:00 | 00:00:00 | |
| S52SK | 2026-08-31 12:49:49 | 49.20712 | 21.05240 | 86° | 9km/h | 28665m | -77.5m/s | -43.9°C | 0.7% | 16.0hPa | 2.7V | 00:00:00 | 00:00:00 | 00:00:00 | |
| GYPAP8-17 | 2026-08-31 12:49:47 | 49.20711 | 21.05232 | 90° | 11km/h | 28819m | -78.2m/s | -43.6°C | 0.7% | 15.6hPa | 2.7V | 00:00:00 | 00:00:00 | 00:00:00 | |
| SQ9EZE-15 | 2026-08-31 12:49:46 | 49.20712 | 21.05228 | 95° | 11km/h | 28898m | -79.0m/s | -43.6°C | 0.7% | 15.4hPa | 2.7V | 00:00:00 | 00:00:00 | 00:00:00 | |
| SQ9EZE-13 | 2026-08-31 12:49:44 | 49.20712 | 21.05220 | 95° | 11km/h | 29057m | -81.4m/s | -43.4°C | 0.7% | 15.0hPa | 2.7V | 08:29:00 | 00:00:00 | 00:00:00 | |
| S52SK | 2026-08-31 12:49:43 | 49.20712 | 21.05216 | 98° | 11km/h | 29138m | -82.3m/s | -43.0°C | 0.7% | 14.9hPa | 2.7V | 00:00:00 | 00:00:00 | 00:00:00 | |
| OE5DXL-15 | 2026-08-31 12:49:38 | 49.20713 | 21.05192 | 89° | 20km/h | 29638m | -84.1m/s | -41.6°C | 2.8% | 13.7hPa | 2.7V | 00:00:00 | 00:00:00 | 00:00:00 | |
| SP9SOS | 2026-08-31 12:49:35 | 49.20713 | 21.05186 | 92° | 5km/h | 29804m | -83.5m/s | -40.8°C | 0.6% | 13.4hPa | 2.7V | 08:29:00 | 00:00:00 | 00:00:00 | |
| SQ9EZE-13 | 2026-08-31 12:49:13 | 49.20658 | 21.05092 | 58° | 22km/h | 31774m | -94.0m/s | -36.1°C | 0.4% | 10.1hPa | 2.7V | 00:00:00 | 00:00:00 | 00:00:00 | |
| SP9SOS | 2026-08-31 12:49:11 | 49.20647 | 21.05074 | 44° | 20km/h | 32054m | -93.2m/s | -36.0°C | 0.4% | 9.7hPa | 2.7V | 00:00:00 | 00:00:00 | 00:00:00 | |
| PG1ADW-2 | 2026-08-31 12:49:09 | 49.20635 | 21.05055 | 45° | 31km/h | 32334m | -94.0m/s | -35.6°C | 1.9% | 9.2hPa | 2.7V | 00:00:00 | 02:04:36 | 00:00:00 | |
| OE5DXL-15 | 2026-08-31 12:49:02 | 49.20607 | 21.05014 | 47° | 31km/h | 32882m | -90.5m/s | -35.3°C | 1.9% | 8.5hPa | 2.7V | 00:00:00 | 00:00:00 | 00:00:00 | |
| S52SK | 2026-08-31 12:49:01 | 49.20602 | 21.05006 | 48° | 27km/h | 32972m | -88.9m/s | -35.1°C | 0.4% | 8.4hPa | 2.6V | 00:00:00 | 00:00:00 | 00:00:00 | |
| SQ9EZE-13 | 2026-08-31 12:48:57 | 49.20586 | 21.04985 | 38° | 29km/h | 33234m | -88.0m/s | -33.9°C | 0.4% | 8.1hPa | 2.6V | 00:00:00 | 00:00:00 | 00:00:00 | |
| S52SK | 2026-08-31 12:48:54 | 49.20566 | 21.04965 | 33° | 33km/h | 33493m | -83.6m/s | -34.2°C | 0.4% | 7.7hPa | 2.6V | 00:00:00 | 00:00:00 | 00:00:00 | |
| LZ4TU-5 | 2026-08-31 12:48:51 | 49.20544 | 21.04941 | 41° | 37km/h | 33740m | -81.5m/s | 0°C | 0% | 0hPa | 2.6V | 00:00:00 | 00:00:00 | 00:00:00 | |
| LZ4TU-5 | 2026-08-31 12:48:47 | 49.20525 | 21.04891 | 66° | 27km/h | 34128m | -73.7m/s | 0°C | 0% | 0hPa | 2.6V | 00:00:00 | 00:00:00 | 00:00:00 | |
| SP9SOS | 2026-08-31 12:48:45 | 49.20519 | 21.04875 | 53° | 20km/h | 34271m | -71.2m/s | -34.0°C | 0.4% | 6.8hPa | 2.6V | 00:00:00 | 00:00:00 | 00:00:00 | |
| SQ9EZE-13 | 2026-08-31 12:48:42 | 49.20514 | 21.04867 | 49° | 11km/h | 34413m | -71.6m/s | -33.4°C | 0.3% | 6.7hPa | 2.6V | 00:00:00 | 00:00:00 | 00:00:00 | |
| OE5DRO-10 | 2026-08-31 12:48:37 | 49.20519 | 21.04804 | 102° | 24km/h | 34824m | -53.6m/s | -33.1°C | 1.6% | 6.2hPa | 2.6V | 00:00:00 | 00:00:00 | 00:00:00 | |
| PG1ADW-2 | 2026-08-31 12:48:33 | 49.20524 | 21.04745 | 90° | 29km/h | 34976m | -22.8m/s | -33.9°C | 1.8% | 5.9hPa | 2.6V | 00:00:00 | 00:00:00 | 00:00:00 | |
| OE5DXL-15 | 2026-08-31 12:48:32 | 49.20523 | 21.04731 | 75° | 24km/h | 34994m | -14.9m/s | -34.0°C | 1.8% | 5.9hPa | 2.6V | 00:00:00 | 00:00:00 | 00:00:00 | |
| SQ9EZE-15 | 2026-08-31 12:48:28 | 49.20506 | 21.04696 | 52° | 37km/h | 35005m | 8.4m/s | -34.2°C | 0.4% | 5.9hPa | 2.6V | 00:00:00 | 00:00:00 | 00:00:00 | |
| GYPAP8-17 | 2026-08-31 12:48:26 | 49.20497 | 21.04678 | 52° | 22km/h | 34991m | 6.9m/s | -34.2°C | 0.4% | 6.0hPa | 2.6V | 00:00:00 | 00:00:00 | 00:00:00 | |
| SP9SOS | 2026-08-31 12:48:18 | 49.20460 | 21.04638 | 32° | 35km/h | 34941m | 5.7m/s | -33.8°C | 0.4% | 6.0hPa | 2.6V | 00:00:00 | 00:00:00 | 00:00:00 | |
| S52SK | 2026-08-31 12:48:15 | 49.20438 | 21.04625 | 7° | 27km/h | 34921m | 7.0m/s | -33.9°C | 0.4% | 6.0hPa | 2.6V | 00:00:00 | 00:00:00 | 00:00:00 | |
| SQ9EZE-14 | 2026-08-31 12:48:14 | 49.20432 | 21.04624 | 3° | 26km/h | 34914m | 5.5m/s | -33.7°C | 0.4% | 6.0hPa | 2.6V | 00:00:00 | 00:00:00 | 00:00:00 | |
| PG1ADW-2 | 2026-08-31 12:48:13 | 49.20419 | 21.04622 | 16° | 29km/h | 34904m | 6.5m/s | -33.7°C | 1.7% | 6.0hPa | 2.6V | 00:00:00 | 00:00:00 | 00:00:00 | |
| SQ9EZE-13 | 2026-08-31 12:48:11 | 49.20414 | 21.04618 | 30° | 26km/h | 34896m | 8.2m/s | -33.8°C | 0.4% | 6.0hPa | 2.6V | 00:00:00 | 00:00:00 | 00:00:00 | |
| S52SK | 2026-08-31 12:48:10 | 49.20408 | 21.04612 | 44° | 29km/h | 34888m | 7.5m/s | -33.8°C | 0.4% | 6.0hPa | 2.6V | 00:00:00 | 00:00:00 | 00:00:00 | |
| SQ9EZE-15 | 2026-08-31 12:48:07 | 49.20395 | 21.04587 | 62° | 22km/h | 34870m | 6.4m/s | -33.7°C | 0.4% | 6.1hPa | 2.6V | 00:00:00 | 00:00:00 | 00:00:00 | |
| OE5DXL-15 | 2026-08-31 12:48:01 | 49.20369 | 21.04568 | 16° | 18km/h | 34823m | 6.3m/s | -33.7°C | 1.7% | 6.1hPa | 2.6V | 00:00:00 | 00:00:00 | 00:00:00 | |
| SQ9EZE-14 | 2026-08-31 12:47:58 | 49.20354 | 21.04561 | 15° | 29km/h | 34812m | 5.6m/s | -33.8°C | 0.4% | 6.1hPa | 2.6V | 00:00:00 | 00:00:00 | 00:00:00 | |
| SQ9EZE-13 | 2026-08-31 12:47:56 | 49.20342 | 21.04557 | 3° | 16km/h | 34798m | 7.1m/s | -33.8°C | 0.4% | 6.1hPa | 2.6V | 00:00:00 | 00:00:00 | 00:00:00 | |
| OE5DRO-10 | 2026-08-31 12:47:53 | 49.20338 | 21.04554 | 103° | 18km/h | 34773m | 5.8m/s | -33.7°C | 1.7% | 6.1hPa | 2.6V | 00:00:00 | 00:00:00 | 00:00:00 | |
| SP9SOS | 2026-08-31 12:47:52 | 49.20338 | 21.04554 | 103° | 13km/h | 34773m | 5.8m/s | -33.8°C | 0.4% | 6.2hPa | 2.6V | 00:00:00 | 00:00:00 | 00:00:00 | |
| HA6NAB-11 | 2026-08-31 12:47:43 | 49.20310 | 21.04514 | 334° | 16km/h | 34715m | 5.3m/s | -33.8°C | 0.4% | 6.2hPa | 2.6V | 00:00:00 | 00:00:00 | 00:00:00 | |
| SQ9EZE-13 | 2026-08-31 12:47:40 | 49.20301 | 21.04513 | 62° | 15km/h | 34695m | 7.3m/s | -33.7°C | 0.4% | 6.2hPa | 2.6V | 00:00:00 | 00:00:00 | 00:00:00 | |
| HA6NAB-11 | 2026-08-31 12:47:37 | 49.20299 | 21.04490 | 88° | 22km/h | 34676m | 5.8m/s | -33.7°C | 0.4% | 6.2hPa | 2.6V | 00:00:00 | 00:00:00 | 00:00:00 | |
| OE5DRO-10 | 2026-08-31 12:47:34 | 49.20297 | 21.04469 | 56° | 18km/h | 34649m | 5.4m/s | -33.7°C | 1.7% | 6.2hPa | 2.6V | 00:00:00 | 00:00:00 | 00:00:00 | |
| S52SK | 2026-08-31 12:47:33 | 49.20296 | 21.04467 | 55° | 9km/h | 34644m | 5.6m/s | -33.8°C | 0.3% | 6.3hPa | 2.6V | 00:00:00 | 00:00:00 | 00:00:00 | |
| OE5DXL-15 | 2026-08-31 12:47:31 | 49.20293 | 21.04458 | 78° | 20km/h | 34630m | 7.5m/s | -33.8°C | 1.7% | 6.2hPa | 2.6V | 00:00:00 | 00:00:00 | 08:30:00 | |
| SP9SOS | 2026-08-31 12:47:27 | 49.20292 | 21.04432 | 91° | 24km/h | 34608m | 5.8m/s | -33.9°C | 0.4% | 6.3hPa | 2.6V | 00:00:00 | 00:00:00 | 00:00:00 | |
| S52SK | 2026-08-31 12:47:26 | 49.20292 | 21.04424 | 89° | 18km/h | 34602m | 5.9m/s | -33.9°C | 0.4% | 6.3hPa | 2.6V | 00:00:00 | 00:00:00 | 00:00:00 | |
| SQ9EZE-13 | 2026-08-31 12:47:24 | 49.20292 | 21.04415 | 94° | 7km/h | 34587m | 7.2m/s | -33.9°C | 0.4% | 6.3hPa | 2.6V | 00:00:00 | 00:00:00 | 00:00:00 | |
| OE5DRO-10 | 2026-08-31 12:47:15 | 49.20300 | 21.04350 | 76° | 29km/h | 34520m | 6.1m/s | -34.1°C | 1.7% | 6.4hPa | 2.6V | 00:00:00 | 00:00:00 | 00:00:00 | |
| SQ9EZE-13 | 2026-08-31 12:47:08 | 49.20299 | 21.04296 | 95° | 26km/h | 34480m | 5.8m/s | -34.3°C | 0.4% | 6.4hPa | 2.7V | 00:00:00 | 00:00:00 | 00:00:00 | |
| GYPAP8-17 | 2026-08-31 12:47:01 | 49.20290 | 21.04227 | 79° | 35km/h | 34423m | 6.5m/s | -35.0°C | 0.4% | 6.5hPa | 2.7V | 00:00:00 | 00:00:00 | 00:00:00 | |
| SQ9EZE-13 | 2026-08-31 12:46:53 | 49.20279 | 21.04159 | 86° | 29km/h | 34376m | 8.1m/s | -35.1°C | 0.4% | 6.5hPa | 2.7V | 00:00:00 | 00:00:00 | 00:00:00 | |
| S52SK | 2026-08-31 12:46:48 | 49.20267 | 21.04097 | 53° | 33km/h | 34341m | 7.6m/s | -35.1°C | 0.4% | 6.6hPa | 2.7V | 00:00:00 | 00:00:00 | 00:00:00 | |
| LZ4TU-5 | 2026-08-31 12:46:47 | 49.20261 | 21.04088 | 45° | 33km/h | 34334m | 6.4m/s | 0°C | 0% | 0hPa | 2.7V | 00:00:00 | 00:00:00 | 00:00:00 | |
| LZ4TU-5 | 2026-08-31 12:46:43 | 49.20237 | 21.04047 | 65° | 38km/h | 34308m | 7.5m/s | 0°C | 0% | 0hPa | 2.7V | 00:00:00 | 00:00:00 | 00:00:00 | |
| S52SK | 2026-08-31 12:46:42 | 49.20234 | 21.04034 | 71° | 38km/h | 34301m | 6.8m/s | -35.1°C | 0.4% | 6.6hPa | 2.7V | 00:00:00 | 00:00:00 | 00:00:00 | |
| SQ9EZE-13 | 2026-08-31 12:46:37 | 49.20216 | 21.03985 | 32° | 22km/h | 34267m | 6.4m/s | -35.4°C | 0.4% | 6.6hPa | 2.7V | 00:00:00 | 00:00:00 | 00:00:00 | |
| SP9SOS | 2026-08-31 12:46:36 | 49.20206 | 21.03975 | 37° | 29km/h | 34256m | 6.2m/s | -35.4°C | 0.4% | 6.6hPa | 2.7V | 00:00:00 | 00:00:00 | 00:00:00 | |
| SQ9EZE-15 | 2026-08-31 12:46:35 | 49.20206 | 21.03975 | 37° | 29km/h | 34256m | 6.2m/s | -35.4°C | 0.4% | 6.6hPa | 2.7V | 00:00:00 | 00:00:00 | 00:00:00 | |
| OE5DXL-15 | 2026-08-31 12:46:29 | 49.20166 | 21.03897 | 41° | 40km/h | 34208m | 7.7m/s | -35.7°C | 1.8% | 6.6hPa | 2.7V | 00:00:00 | 00:00:00 | 00:00:00 | |
| OE5DRO-10 | 2026-08-31 12:46:26 | 49.20148 | 21.03881 | 30° | 44km/h | 34188m | 6.1m/s | -35.8°C | 1.8% | 6.7hPa | 2.7V | 00:00:00 | 00:00:00 | 00:00:00 | |
| SQ9EZE-13 | 2026-08-31 12:46:22 | 49.20133 | 21.03858 | 59° | 33km/h | 34167m | 6.9m/s | -36.0°C | 0.4% | 6.7hPa | 2.7V | 00:00:00 | 00:00:00 | 00:00:00 | |
| SQ9EZE-15 | 2026-08-31 12:46:14 | 49.20062 | 21.03788 | 30° | 51km/h | 34114m | 7.5m/s | -36.4°C | 0.4% | 6.8hPa | 2.7V | 00:00:00 | 00:00:00 | 00:00:00 | |
| SP9SOS | 2026-08-31 12:46:09 | 49.20022 | 21.03728 | 46° | 37km/h | 34082m | 7.3m/s | -36.5°C | 0.4% | 6.8hPa | 2.7V | 00:00:00 | 00:00:00 | 00:00:00 | |
| S52SK | 2026-08-31 12:46:08 | 49.20015 | 21.03720 | 36° | 35km/h | 34075m | 6.8m/s | -36.5°C | 0.4% | 6.8hPa | 2.7V | 00:00:00 | 00:00:00 | 00:00:00 | |
| SQ9EZE-13 | 2026-08-31 12:46:06 | 49.19999 | 21.03707 | 23° | 40km/h | 34063m | 5.6m/s | -36.6°C | 0.5% | 6.9hPa | 2.7V | 00:00:00 | 00:00:00 | 00:00:00 | |
| S52SK | 2026-08-31 12:46:03 | 49.19968 | 21.03684 | 32° | 49km/h | 34045m | 6.8m/s | -36.8°C | 0.4% | 6.9hPa | 2.7V | 00:00:00 | 00:00:00 | 00:00:00 | |
| OE5DRO-10 | 2026-08-31 12:46:01 | 49.19938 | 21.03655 | 28° | 49km/h | 34028m | 5.4m/s | -36.9°C | 2.0% | 6.8hPa | 2.7V | 00:00:00 | 00:00:00 | 00:00:00 | |
| OE5DXL-15 | 2026-08-31 12:45:59 | 49.19919 | 21.03644 | 13° | 49km/h | 34013m | 7.7m/s | -37.0°C | 2.0% | 6.8hPa | 2.7V | 00:00:00 | 00:00:00 | 00:00:00 | |
| S52SK | 2026-08-31 12:45:57 | 49.19910 | 21.03642 | 9° | 35km/h | 34006m | 6.1m/s | -37.0°C | 0.5% | 6.9hPa | 2.6V | 00:00:00 | 00:00:00 | 00:00:00 | |
| SQ9EZE-13 | 2026-08-31 12:45:51 | 49.19848 | 21.03596 | 32° | 60km/h | 33969m | 5.3m/s | -37.2°C | 0.5% | 6.9hPa | 2.6V | 00:00:00 | 00:00:00 | 00:00:00 | |
| SQ9EZE-14 | 2026-08-31 12:45:49 | 49.19821 | 21.03577 | 20° | 57km/h | 33957m | 6.7m/s | -37.2°C | 0.5% | 7.0hPa | 2.6V | 00:00:00 | 00:00:00 | 00:00:00 | |
| SP9SOS | 2026-08-31 12:45:43 | 49.19748 | 21.03556 | 20° | 47km/h | 33919m | 6.2m/s | -37.0°C | 0.5% | 7.0hPa | 2.6V | 00:00:00 | 00:00:00 | 00:00:00 | |
| SQ9EZE-13 | 2026-08-31 12:45:37 | 49.19652 | 21.03515 | 21° | 60km/h | 33874m | 7.1m/s | -36.8°C | 0.5% | 7.0hPa | 2.6V | 00:00:00 | 00:00:00 | 00:00:00 | |
| SQ9EZE-14 | 2026-08-31 12:45:35 | 49.19626 | 21.03498 | 26° | 51km/h | 33862m | 4.0m/s | -36.6°C | 0.4% | 7.1hPa | 2.6V | 00:00:00 | 00:00:00 | 00:00:00 | |
| OE5DXL-15 | 2026-08-31 12:45:29 | 49.19564 | 21.03480 | 10° | 40km/h | 33826m | 6.2m/s | -36.3°C | 1.9% | 7.0hPa | 2.6V | 00:00:00 | 00:00:00 | 00:00:00 | |
| S52SK | 2026-08-31 12:45:24 | 49.19521 | 21.03454 | 23° | 53km/h | 33800m | 5.9m/s | -36.3°C | 0.4% | 7.1hPa | 2.6V | 00:00:00 | 00:00:00 | 00:00:00 | |
| OE5DRO-10 | 2026-08-31 12:45:21 | 49.19469 | 21.03433 | 12° | 40km/h | 33775m | 5.6m/s | -36.2°C | 1.9% | 7.1hPa | 2.6V | 00:00:00 | 00:00:00 | 00:00:00 | |
| SQ9EZE-13 | 2026-08-31 12:45:20 | 49.19469 | 21.03433 | 13° | 51km/h | 33775m | 5.6m/s | -36.2°C | 0.4% | 7.1hPa | 2.6V | 00:00:00 | 00:00:00 | 00:00:00 | |
| S52SK | 2026-08-31 12:45:19 | 49.19457 | 21.03429 | 16° | 47km/h | 33768m | 6.9m/s | -36.2°C | 0.4% | 7.1hPa | 2.6V | 00:00:00 | 00:00:00 | 00:00:00 | |
| SP9SOS | 2026-08-31 12:45:18 | 49.19436 | 21.03418 | 26° | 38km/h | 33754m | 6.1m/s | -36.2°C | 0.4% | 7.2hPa | 2.6V | 00:00:00 | 00:00:00 | 00:00:00 | |
| S52SK | 2026-08-31 12:45:13 | 49.19405 | 21.03403 | 5° | 33km/h | 33729m | 6.0m/s | -36.2°C | 0.4% | 7.2hPa | 2.6V | 00:00:00 | 00:00:00 | 00:00:00 | |
| GYPAP8-17 | 2026-08-31 12:45:09 | 49.19367 | 21.03390 | 25° | 46km/h | 33705m | 7.2m/s | -36.3°C | 0.4% | 7.2hPa | 2.6V | 00:00:00 | 00:00:00 | 00:00:00 | |
| SQ9EZE-13 | 2026-08-31 12:45:04 | 49.19311 | 21.03359 | 5° | 40km/h | 33676m | 5.6m/s | -36.5°C | 0.4% | 7.3hPa | 2.6V | 00:00:00 | 00:00:00 | 00:00:00 | |
| OE5DRO-10 | 2026-08-31 12:45:02 | 49.19288 | 21.03359 | 8° | 27km/h | 33659m | 6.7m/s | -36.4°C | 1.9% | 7.2hPa | 2.6V | 00:00:00 | 00:00:00 | 00:00:00 | |
| OE5DXL-15 | 2026-08-31 12:44:59 | 49.19275 | 21.03345 | 55° | 27km/h | 33639m | 4.9m/s | -36.4°C | 1.9% | 7.2hPa | 2.6V | 00:00:00 | 00:00:00 | 00:00:00 | |
| SP9SOS | 2026-08-31 12:44:51 | 49.19226 | 21.03302 | 35° | 38km/h | 33597m | 7.1m/s | -36.5°C | 0.5% | 7.3hPa | 2.6V | 00:00:00 | 00:00:00 | 00:00:00 | |
| SQ9EZE-13 | 2026-08-31 12:44:49 | 49.19213 | 21.03283 | 48° | 33km/h | 33584m | 5.5m/s | -36.6°C | 0.4% | 7.4hPa | 2.6V | 00:00:00 | 00:00:00 | 00:00:00 | |
| LZ4TU-5 | 2026-08-31 12:44:44 | 49.19190 | 21.03256 | 27° | 16km/h | 33554m | 5.5m/s | 0°C | 0% | 0hPa | 2.6V | 00:00:00 | 00:00:00 | 00:00:00 | |
| OE5DRO-10 | 2026-08-31 12:44:43 | 49.19184 | 21.03248 | 48° | 22km/h | 33541m | 6.8m/s | -36.8°C | 2.0% | 7.4hPa | 2.6V | 00:00:00 | 00:00:00 | 00:00:00 | |
| LZ4TU-5 | 2026-08-31 12:44:41 | 49.19177 | 21.03235 | 54° | 26km/h | 33530m | 4.4m/s | 0°C | 0% | 0hPa | 2.7V | 00:00:00 | 00:00:00 | 00:00:00 | |
| SQ9EZE-15 | 2026-08-31 12:44:37 | 49.19160 | 21.03215 | 26° | 31km/h | 33512m | 7.6m/s | -36.9°C | 0.5% | 7.4hPa | 2.7V | 00:00:00 | 00:00:00 | 00:00:00 | |
| SQ9EZE-13 | 2026-08-31 12:44:34 | 49.19131 | 21.03197 | 38° | 27km/h | 33488m | 7.1m/s | -37.0°C | 0.5% | 7.4hPa | 2.7V | 00:00:00 | 00:00:00 | 00:00:00 | |
| OE5DXL-15 | 2026-08-31 12:44:29 | 49.19122 | 21.03164 | 77° | 18km/h | 33458m | 7.1m/s | -36.9°C | 2.0% | 7.4hPa | 2.7V | 00:00:00 | 00:00:00 | 00:00:00 | |
| SP9SOS | 2026-08-31 12:44:25 | 49.19115 | 21.03160 | 11° | 16km/h | 33439m | 5.0m/s | -37.0°C | 0.4% | 7.5hPa | 2.7V | 00:00:00 | 00:00:00 | 00:00:00 | |
| S52SK | 2026-08-31 12:44:20 | 49.19095 | 21.03130 | 62° | 27km/h | 33409m | 5.0m/s | -36.7°C | 0.4% | 7.5hPa | 2.7V | 00:00:00 | 00:00:00 | 00:00:00 | |
| SQ9EZE-13 | 2026-08-31 12:44:18 | 49.19088 | 21.03115 | 44° | 22km/h | 33398m | 6.5m/s | -36.7°C | 0.4% | 7.5hPa | 2.7V | 00:00:00 | 00:00:00 | 00:00:00 | |
| SQ9EZE-15 | 2026-08-31 12:44:16 | 49.19079 | 21.03107 | 19° | 20km/h | 33384m | 6.0m/s | -36.6°C | 0.4% | 7.6hPa | 2.7V | 00:00:00 | 00:00:00 | 00:00:00 | |
| S52SK | 2026-08-31 12:44:14 | 49.19070 | 21.03101 | 33° | 20km/h | 33374m | 5.2m/s | -36.6°C | 0.4% | 7.6hPa | 2.7V | 00:00:00 | 00:00:00 | 00:00:00 | |
| SQ9EZE-13 | 2026-08-31 12:44:02 | 49.19033 | 21.03046 | 54° | 15km/h | 33301m | 7.4m/s | -36.7°C | 0.4% | 7.7hPa | 2.7V | 00:00:00 | 00:00:00 | 00:00:00 | |
| SP9SOS | 2026-08-31 12:44:00 | 49.19031 | 21.03035 | 84° | 16km/h | 33288m | 5.6m/s | -36.7°C | 0.5% | 7.7hPa | 2.7V | 00:00:00 | 00:00:00 | 00:00:00 | |
| OE5DXL-15 | 2026-08-31 12:43:59 | 49.19030 | 21.03025 | 71° | 24km/h | 33274m | 7.4m/s | -36.8°C | 1.9% | 7.6hPa | 2.7V | 00:00:00 | 00:00:00 | 00:00:00 | |
| SQ9EZE-13 | 2026-08-31 12:43:47 | 49.18992 | 21.02984 | 14° | 18km/h | 33202m | 5.9m/s | -37.2°C | 0.4% | 7.8hPa | 2.7V | 00:00:00 | 00:00:00 | 00:00:00 | |
| GYPAP8-17 | 2026-08-31 12:43:45 | 49.18983 | 21.02973 | 69° | 16km/h | 33182m | 6.1m/s | -37.3°C | 0.5% | 7.8hPa | 2.7V | 00:00:00 | 00:00:00 | 00:00:00 | |
| SP9SOS | 2026-08-31 12:43:35 | 49.18936 | 21.02928 | 33° | 31km/h | 33120m | 5.8m/s | -37.6°C | 0.5% | 7.9hPa | 2.7V | 00:00:00 | 00:00:00 | 00:00:00 | |
| SQ9EZE-13 | 2026-08-31 12:43:31 | 49.18906 | 21.02908 | 16° | 35km/h | 33094m | 5.8m/s | -37.9°C | 0.5% | 7.9hPa | 2.7V | 00:00:00 | 00:00:00 | 00:00:00 | |
| OE5DXL-15 | 2026-08-31 12:43:29 | 49.18884 | 21.02892 | 39° | 26km/h | 33076m | 8.3m/s | -38.1°C | 2.1% | 7.9hPa | 2.7V | 00:00:00 | 00:00:00 | 00:00:00 | |
| SQ9EZE-14 | 2026-08-31 12:43:27 | 49.18878 | 21.02884 | 49° | 31km/h | 33067m | 7.4m/s | -38.2°C | 0.5% | 7.9hPa | 2.7V | 00:00:00 | 00:00:00 | 00:00:00 | |
| SQ9EZE-13 | 2026-08-31 12:43:16 | 49.18826 | 21.02818 | 79° | 24km/h | 32994m | 5.7m/s | -38.2°C | 0.5% | 8.0hPa | 2.7V | 00:00:00 | 00:00:00 | 00:00:00 | |
| SP9SOS | 2026-08-31 12:43:09 | 49.18801 | 21.02778 | 36° | 29km/h | 32949m | 8.2m/s | -38.3°C | 0.5% | 8.1hPa | 2.7V | 00:00:00 | 00:00:00 | 00:00:00 | |
| S52SK | 2026-08-31 12:43:07 | 49.18789 | 21.02761 | 52° | 35km/h | 32933m | 6.8m/s | -38.4°C | 0.5% | 8.1hPa | 2.7V | 00:00:00 | 00:00:00 | 00:00:00 | |
| S52SK | 2026-08-31 12:43:03 | 49.18766 | 21.02724 | 36° | 20km/h | 32898m | 5.8m/s | -38.4°C | 0.5% | 8.1hPa | 2.7V | 00:00:00 | 00:00:00 | 00:00:00 | |
| SQ9EZE-13 | 2026-08-31 12:43:00 | 49.18758 | 21.02712 | 54° | 26km/h | 32884m | 8.5m/s | -38.6°C | 0.5% | 8.1hPa | 2.7V | 00:00:00 | 00:00:00 | 00:00:00 | |
| OE5DXL-15 | 2026-08-31 12:42:59 | 49.18750 | 21.02692 | 69° | 29km/h | 32870m | 5.8m/s | -38.5°C | 2.1% | 8.1hPa | 2.7V | 00:00:00 | 00:00:00 | 08:30:00 | |
| S52SK | 2026-08-31 12:42:56 | 49.18745 | 21.02671 | 75° | 26km/h | 32856m | 8.2m/s | -38.6°C | 0.5% | 8.2hPa | 2.7V | 00:00:00 | 00:00:00 | 00:00:00 | |
| LZ4TU-5 | 2026-08-31 12:42:50 | 49.18724 | 21.02631 | 23° | 29km/h | 32813m | 6.2m/s | 0°C | 0% | 0hPa | 2.7V | 00:00:00 | 00:00:00 | 00:00:00 | |
| SQ9EZE-13 | 2026-08-31 12:42:45 | 49.18688 | 21.02623 | 21° | 29km/h | 32778m | 6.4m/s | -38.2°C | 0.5% | 8.3hPa | 2.7V | 00:00:00 | 00:00:00 | 00:00:00 | |
| SP9SOS | 2026-08-31 12:42:43 | 49.18676 | 21.02610 | 50° | 33km/h | 32763m | 7.6m/s | -38.1°C | 0.5% | 8.3hPa | 2.7V | 00:00:00 | 00:00:00 | 00:00:00 | |
| GYPAP8-17 | 2026-08-31 12:42:39 | 49.18658 | 21.02572 | 43° | 22km/h | 32737m | 7.3m/s | -38.0°C | 0.5% | 8.3hPa | 2.7V | 00:00:00 | 00:00:00 | 00:00:00 | |
| SQ9EZE-15 | 2026-08-31 12:42:37 | 49.18648 | 21.02566 | 3° | 22km/h | 32723m | 6.4m/s | -37.9°C | 0.5% | 8.4hPa | 2.7V | 00:00:00 | 00:00:00 | 00:00:00 | |
| SQ9EZE-13 | 2026-08-31 12:42:29 | 49.18597 | 21.02527 | 49° | 22km/h | 32666m | 7.9m/s | -37.9°C | 0.5% | 8.4hPa | 2.7V | 00:00:00 | 00:00:00 | 00:00:00 | |
| PG1ADW-2 | 2026-08-31 12:42:27 | 49.18589 | 21.02510 | 66° | 31km/h | 32645m | 7.3m/s | -37.7°C | 2.0% | 8.4hPa | 2.7V | 00:00:00 | 00:00:00 | 00:00:00 | |
| SQ9EZE-15 | 2026-08-31 12:42:17 | 49.18533 | 21.02451 | 41° | 37km/h | 32584m | 7.6m/s | -38.0°C | 0.5% | 8.5hPa | 2.7V | 00:00:00 | 00:00:00 | 00:00:00 | |
| S52SK | 2026-08-31 12:42:16 | 49.18523 | 21.02429 | 67° | 37km/h | 32568m | 6.7m/s | -38.1°C | 0.5% | 8.5hPa | 2.7V | 00:00:00 | 00:00:00 | 00:00:00 | |
| OE5DXL-15 | 2026-08-31 12:42:15 | 49.18520 | 21.02417 | 76° | 24km/h | 32562m | 6.2m/s | -38.1°C | 2.1% | 8.5hPa | 2.7V | 00:00:00 | 00:00:00 | 00:00:00 | |
| SQ9EZE-13 | 2026-08-31 12:42:13 | 49.18518 | 21.02405 | 79° | 27km/h | 32555m | 7.4m/s | -38.1°C | 0.5% | 8.6hPa | 2.7V | 00:00:00 | 00:00:00 | 00:00:00 | |
| S52SK | 2026-08-31 12:42:09 | 49.18511 | 21.02381 | 41° | 16km/h | 32526m | 6.7m/s | -38.1°C | 0.5% | 8.6hPa | 2.7V | 00:00:00 | 00:00:00 | 00:00:00 | |
| PG1ADW-2 | 2026-08-31 12:42:06 | 49.18489 | 21.02356 | 33° | 26km/h | 32497m | 7.1m/s | -38.1°C | 2.0% | 8.6hPa | 2.7V | 00:00:00 | 01:57:34 | 08:30:00 | |
| SQ9EZE-13 | 2026-08-31 12:41:57 | 49.18461 | 21.02289 | 87° | 24km/h | 32442m | 5.3m/s | -38.3°C | 0.5% | 8.7hPa | 2.6V | 00:00:00 | 00:00:00 | 00:00:00 | |
| SP9SOS | 2026-08-31 12:41:51 | 49.18439 | 21.02280 | 5° | 29km/h | 32401m | 7.5m/s | -38.3°C | 0.5% | 8.8hPa | 2.6V | 00:00:00 | 00:00:00 | 00:00:00 | |
| OE5DXL-15 | 2026-08-31 12:41:45 | 49.18408 | 21.02240 | 83° | 18km/h | 32351m | 6.4m/s | -38.4°C | 2.1% | 8.8hPa | 2.6V | 00:00:00 | 00:00:00 | 00:00:00 | |
| PG1ADW-2 | 2026-08-31 12:41:42 | 49.18404 | 21.02227 | 33° | 22km/h | 32330m | 5.6m/s | -38.5°C | 2.1% | 8.8hPa | 2.6V | 00:00:00 | 00:00:00 | 00:00:00 | |
| OE5DRO-10 | 2026-08-31 12:41:40 | 49.18396 | 21.02227 | 341° | 20km/h | 32317m | 8.2m/s | -38.5°C | 2.1% | 8.8hPa | 2.6V | 00:00:00 | 00:00:00 | 00:00:00 | |
| GYPAP8-17 | 2026-08-31 12:41:32 | 49.18355 | 21.02227 | 66° | 27km/h | 32268m | 6.1m/s | -38.6°C | 0.5% | 8.9hPa | 2.6V | 00:00:00 | 00:00:00 | 00:00:00 | |
| S52SK | 2026-08-31 12:41:30 | 49.18351 | 21.02209 | 76° | 22km/h | 32255m | 7.3m/s | -38.7°C | 0.5% | 8.9hPa | 2.6V | 00:00:00 | 00:00:00 | 00:00:00 | |
| SQ9EZE-13 | 2026-08-31 12:41:27 | 49.18343 | 21.02193 | 22° | 13km/h | 32228m | 7.1m/s | -38.7°C | 0.5% | 9.0hPa | 2.6V | 00:00:00 | 00:00:00 | 00:00:00 | |
| SP9SOS | 2026-08-31 12:41:25 | 49.18340 | 21.02191 | 22° | 18km/h | 32221m | 7.5m/s | -38.8°C | 0.5% | 9.0hPa | 2.6V | 00:00:00 | 00:00:00 | 00:00:00 | |
| PG1ADW-2 | 2026-08-31 12:41:22 | 49.18321 | 21.02177 | 29° | 15km/h | 32196m | 6.6m/s | 0°C | 0% | 0hPa | 2.6V | 00:00:00 | 00:00:00 | 00:00:00 | |
| OE5DRO-10 | 2026-08-31 12:41:20 | 49.18315 | 21.02173 | 31° | 15km/h | 32182m | 5.9m/s | 0°C | 0% | 0hPa | 2.6V | 00:00:00 | 00:00:00 | 00:00:00 | |
| OE5DXL-15 | 2026-08-31 12:41:15 | 49.18303 | 21.02146 | 59° | 16km/h | 32149m | 5.4m/s | -38.6°C | 2.1% | 9.0hPa | 2.6V | 00:00:00 | 00:00:00 | 00:00:00 | |
| SQ9EZE-13 | 2026-08-31 12:41:10 | 49.18296 | 21.02125 | 77° | 11km/h | 32123m | 6.1m/s | -38.7°C | 0.5% | 9.1hPa | 0V | 00:00:00 | 00:00:00 | 00:00:00 | |
| SQ9EZE-14 | 2026-08-31 12:41:04 | 49.18295 | 21.02099 | 126° | 9km/h | 32082m | 7.1m/s | -38.5°C | 0.5% | 9.2hPa | 0V | 00:00:00 | 00:00:00 | 00:00:00 | |
| PG1ADW-2 | 2026-08-31 12:41:02 | 49.18297 | 21.02085 | 80° | 26km/h | 32064m | 7.2m/s | 0°C | 0% | 0hPa | 0V | 00:00:00 | 00:00:00 | 00:00:00 | |
| OE5DRO-10 | 2026-08-31 12:41:01 | 49.18295 | 21.02078 | 70° | 20km/h | 32057m | 7.5m/s | 0°C | 0% | 0hPa | 0V | 00:00:00 | 00:00:00 | 00:00:00 | |
| SP9SOS | 2026-08-31 12:40:59 | 49.18293 | 21.02069 | 67° | 29km/h | 32050m | 6.4m/s | -38.8°C | 0.5% | 9.2hPa | 0V | 00:00:00 | 00:00:00 | 00:00:00 | |
| SQ9EZE-13 | 2026-08-31 12:40:54 | 49.18285 | 21.02032 | 112° | 13km/h | 32019m | 5.2m/s | -39.0°C | 0.5% | 9.3hPa | 0V | 00:00:00 | 00:00:00 | 00:00:00 | |
| SQ9EZE-14 | 2026-08-31 12:40:49 | 49.18295 | 21.01993 | 114° | 18km/h | 31980m | 7.5m/s | -38.8°C | 0.5% | 9.3hPa | 0V | 00:00:00 | 00:00:00 | 00:00:00 | |
| S52SK | 2026-08-31 12:40:48 | 49.18295 | 21.01993 | 114° | 18km/h | 31980m | 7.5m/s | -38.8°C | 0.5% | 9.3hPa | 0V | 00:00:00 | 00:00:00 | 00:00:00 | |
| OE5DXL-15 | 2026-08-31 12:40:45 | 49.18302 | 21.01966 | 101° | 22km/h | 31955m | 7.6m/s | -38.7°C | 2.1% | 9.3hPa | 0V | 00:00:00 | 00:00:00 | 00:00:00 | |
| S52SK | 2026-08-31 12:40:43 | 49.18303 | 21.01945 | 90° | 31km/h | 31940m | 5.8m/s | -38.8°C | 0.5% | 9.4hPa | 0V | 00:00:00 | 00:00:00 | 00:00:00 | |
| OE5DRO-10 | 2026-08-31 12:40:42 | 49.18303 | 21.01934 | 93° | 22km/h | 31935m | 5.2m/s | 0°C | 0% | 0hPa | 0V | 00:00:00 | 00:00:00 | 00:00:00 | |
| SQ9EZE-13 | 2026-08-31 12:40:38 | 49.18307 | 21.01911 | 121° | 13km/h | 31915m | 5.9m/s | -38.7°C | 0.5% | 9.4hPa | 0V | 00:00:00 | 00:00:00 | 00:00:00 | |
| S52SK | 2026-08-31 12:40:37 | 49.18308 | 21.01907 | 104° | 7km/h | 31909m | 5.3m/s | -38.7°C | 0.5% | 9.4hPa | 0V | 00:00:00 | 00:00:00 | 00:00:00 | |
| SP9SOS | 2026-08-31 12:40:34 | 49.18301 | 21.01891 | 57° | 20km/h | 31883m | 5.2m/s | -38.7°C | 0.5% | 9.5hPa | 0V | 00:00:00 | 00:00:00 | 00:00:00 | |
| LZ4TU-5 | 2026-08-31 12:40:27 | 49.18297 | 21.01830 | 86° | 35km/h | 31844m | 7.3m/s | 0°C | 0% | 0hPa | 0V | 00:00:00 | 00:00:00 | 00:00:00 | |
| OE5DRO-10 | 2026-08-31 12:40:23 | 49.18292 | 21.01786 | 67° | 27km/h | 31812m | 5.9m/s | 0°C | 0% | 0hPa | 0V | 00:00:00 | 00:00:00 | 00:00:00 | |
| LZ4TU-5 | 2026-08-31 12:40:22 | 49.18292 | 21.01786 | 68° | 5km/h | 31812m | 5.9m/s | 0°C | 0% | 0hPa | 0V | 00:00:00 | 00:00:00 | 00:00:00 | |
| GYPAP8-17 | 2026-08-31 12:40:20 | 49.18289 | 21.01784 | 22° | 11km/h | 31802m | 4.5m/s | -39.0°C | 0.5% | 9.6hPa | 0V | 00:00:00 | 00:00:00 | 00:00:00 | |
| OE5DXL-15 | 2026-08-31 12:40:15 | 49.18261 | 21.01727 | 74° | 29km/h | 31764m | 6.6m/s | -39.2°C | 2.1% | 9.6hPa | 0V | 00:00:00 | 00:00:00 | 00:00:00 | |
| SQ9EZE-13 | 2026-08-31 12:40:08 | 49.18249 | 21.01661 | 51° | 26km/h | 31728m | 6.1m/s | -39.5°C | 0.5% | 9.7hPa | 0V | 00:00:00 | 00:00:00 | 00:00:00 | |
| SP9SOS | 2026-08-31 12:40:07 | 49.18245 | 21.01654 | 47° | 24km/h | 31721m | 5.7m/s | -39.6°C | 0.5% | 9.7hPa | 0V | 00:00:00 | 00:00:00 | 00:00:00 | |
| HA6NAB-11 | 2026-08-31 12:40:05 | 49.18234 | 21.01634 | 54° | 24km/h | 31703m | 4.6m/s | -39.7°C | 0.5% | 9.7hPa | 0V | 00:00:00 | 00:00:00 | 00:00:00 | |
| OE5DRO-10 | 2026-08-31 12:40:04 | 49.18230 | 21.01627 | 52° | 37km/h | 31698m | 5.5m/s | 0°C | 0% | 0hPa | 0V | 00:00:00 | 00:00:00 | 00:00:00 | |
| SQ9EZE-13 | 2026-08-31 12:39:53 | 49.18183 | 21.01524 | 51° | 31km/h | 31632m | 6.0m/s | -40.1°C | 0.5% | 9.8hPa | 0V | 00:00:00 | 00:00:00 | 00:00:00 | |
| S52SK | 2026-08-31 12:39:52 | 49.18178 | 21.01515 | 48° | 29km/h | 31627m | 5.2m/s | -40.0°C | 0.6% | 9.8hPa | 0V | 00:00:00 | 00:00:00 | 00:00:00 | |
| S52SK | 2026-08-31 12:39:47 | 49.18157 | 21.01481 | 42° | 22km/h | 31595m | 6.0m/s | -40.0°C | 0.6% | 9.9hPa | 0V | 00:00:00 | 00:00:00 | 00:00:00 | |
| OE5DXL-15 | 2026-08-31 12:39:45 | 49.18138 | 21.01463 | 28° | 29km/h | 31575m | 5.5m/s | 0°C | 0% | 0hPa | 0V | 00:00:00 | 00:00:00 | 00:00:00 | |
| PG1ADW-2 | 2026-08-31 12:39:44 | 49.18130 | 21.01456 | 29° | 27km/h | 31570m | 4.9m/s | 0°C | 0% | 0hPa | 0V | 00:00:00 | 01:55:12 | 00:00:00 | |
| S52SK | 2026-08-31 12:39:41 | 49.18117 | 21.01445 | 33° | 26km/h | 31557m | 7.3m/s | -40.1°C | 0.6% | 9.9hPa | 0V | 00:00:00 | 00:00:00 | 00:00:00 | |
| SQ9EZE-13 | 2026-08-31 12:39:37 | 49.18098 | 21.01427 | 29° | 26km/h | 31532m | 8.1m/s | -40.3°C | 0.6% | 10.0hPa | 0V | 00:00:00 | 00:00:00 | 00:00:00 | |
| SQ9EZE-15 | 2026-08-31 12:39:31 | 49.18063 | 21.01403 | 25° | 22km/h | 31493m | 5.6m/s | -40.2°C | 0.6% | 10.0hPa | 0V | 00:00:00 | 00:00:00 | 00:00:00 | |
| PG1ADW-2 | 2026-08-31 12:39:24 | 49.18006 | 21.01365 | 30° | 31km/h | 31440m | 5.1m/s | 0°C | 0% | 0hPa | 0V | 00:00:00 | 00:00:00 | 00:00:00 | |
| SQ9EZE-13 | 2026-08-31 12:39:21 | 49.17993 | 21.01354 | 27° | 35km/h | 31427m | 7.6m/s | -40.0°C | 0.6% | 10.1hPa | 0V | 00:00:00 | 00:00:00 | 00:00:00 | |
| GYPAP8-17 | 2026-08-31 12:39:18 | 49.17957 | 21.01332 | 19° | 35km/h | 31400m | 7.0m/s | -40.0°C | 0.6% | 10.2hPa | 0V | 00:00:00 | 00:00:00 | 00:00:00 | |
| OE5DXL-15 | 2026-08-31 12:39:15 | 49.17935 | 21.01323 | 14° | 22km/h | 31382m | 4.2m/s | 0°C | 0% | 0hPa | 0V | 00:00:00 | 00:00:00 | 00:00:00 | |
| SQ9EZE-13 | 2026-08-31 12:39:06 | 49.17860 | 21.01300 | 361° | 33km/h | 31330m | 5.8m/s | -39.8°C | 0.6% | 10.3hPa | 0V | 00:00:00 | 00:00:00 | 00:00:00 | |
| S52SK | 2026-08-31 12:39:04 | 49.17845 | 21.01297 | 20° | 27km/h | 31318m | 7.6m/s | -39.8°C | 0.6% | 10.3hPa | 0V | 00:00:00 | 00:00:00 | 00:00:00 | |
| S52SK | 2026-08-31 12:38:58 | 49.17817 | 21.01261 | 18° | 20km/h | 31277m | 5.6m/s | -39.9°C | 0.5% | 10.4hPa | 0V | 00:00:00 | 00:00:00 | 00:00:00 | |
| SQ9EZE-13 | 2026-08-31 12:38:50 | 49.17741 | 21.01258 | 350° | 35km/h | 31226m | 6.9m/s | -40.0°C | 0.5% | 10.4hPa | 0V | 00:00:00 | 00:00:00 | 00:00:00 | |
| SP9SOS | 2026-08-31 12:38:49 | 49.17733 | 21.01261 | 351° | 26km/h | 31219m | 5.3m/s | -40.0°C | 0.6% | 10.5hPa | 0V | 00:00:00 | 00:00:00 | 00:00:00 | |
| SQ9EZE-14 | 2026-08-31 12:38:40 | 49.17694 | 21.01233 | 355° | 33km/h | 31160m | 6.3m/s | -40.2°C | 0.5% | 10.5hPa | 0V | 00:00:00 | 00:00:00 | 00:00:00 | |
| PG1ADW-2 | 2026-08-31 12:38:38 | 49.17666 | 21.01236 | 357° | 24km/h | 31140m | 5.1m/s | 0°C | 0% | 0hPa | 0V | 00:00:00 | 00:00:00 | 00:00:00 | |
| SQ9EZE-13 | 2026-08-31 12:38:36 | 49.17649 | 21.01240 | 348° | 29km/h | 31130m | 5.9m/s | -40.3°C | 0.6% | 10.6hPa | 0V | 00:00:00 | 00:00:00 | 00:00:00 | |
| SP9SOS | 2026-08-31 12:38:24 | 49.17619 | 21.01229 | 360° | 11km/h | 31058m | 5.5m/s | -40.5°C | 0.6% | 10.7hPa | 0V | 00:00:00 | 00:00:00 | 00:00:00 | |
| SQ9EZE-13 | 2026-08-31 12:38:20 | 49.17599 | 21.01240 | 341° | 29km/h | 31030m | 6.7m/s | -40.7°C | 0.6% | 10.7hPa | 0V | 00:00:00 | 00:00:00 | 00:00:00 | |
| S52SK | 2026-08-31 12:38:19 | 49.17592 | 21.01243 | 341° | 29km/h | 31024m | 5.5m/s | -40.6°C | 0.6% | 10.8hPa | 0V | 00:00:00 | 00:00:00 | 00:00:00 | |
| PG1ADW-2 | 2026-08-31 12:38:17 | 49.17576 | 21.01252 | 348° | 13km/h | 31005m | 6.1m/s | 0°C | 0% | 0hPa | 0V | 00:00:00 | 00:00:00 | 00:00:00 | |
| S52SK | 2026-08-31 12:38:15 | 49.17571 | 21.01250 | 41° | 13km/h | 30992m | 6.5m/s | -40.7°C | 0.6% | 10.8hPa | 0V | 00:00:00 | 00:00:00 | 00:00:00 | |
| HA6NAB-11 | 2026-08-31 12:38:12 | 49.17566 | 21.01242 | 40° | 20km/h | 30978m | 6.5m/s | -40.7°C | 0.6% | 10.8hPa | 0V | 00:00:00 | 00:00:00 | 00:00:00 | |
| LZ4TU-5 | 2026-08-31 12:38:10 | 49.17557 | 21.01235 | 16° | 16km/h | 30966m | 5.5m/s | 0°C | 0% | 0hPa | 0V | 00:00:00 | 00:00:00 | 00:00:00 | |
| HA6NAB-11 | 2026-08-31 12:38:06 | 49.17547 | 21.01250 | 290° | 20km/h | 30938m | 5.7m/s | -40.7°C | 0.6% | 10.9hPa | 0V | 00:00:00 | 00:00:00 | 00:00:00 | |
| SQ9EZE-13 | 2026-08-31 12:38:05 | 49.17542 | 21.01263 | 313° | 16km/h | 30925m | 7.2m/s | -40.7°C | 0.6% | 10.9hPa | 0V | 00:00:00 | 00:00:00 | 00:00:00 | |
| OE5DXL-15 | 2026-08-31 12:38:03 | 49.17537 | 21.01267 | 14° | 11km/h | 30912m | 5.5m/s | 0°C | 0% | 0hPa | 0V | 00:00:00 | 01:53:31 | 00:00:00 | |
| HA6NAB-11 | 2026-08-31 12:38:01 | 49.17535 | 21.01265 | 51° | 7km/h | 30906m | 7.7m/s | -40.7°C | 0.6% | 11.0hPa | 0V | 00:00:00 | 00:00:00 | 00:00:00 | |
| SP9SOS | 2026-08-31 12:37:58 | 49.17533 | 21.01255 | 67° | 11km/h | 30885m | 5.9m/s | -40.7°C | 0.5% | 11.0hPa | 0V | 00:00:00 | 00:00:00 | 00:00:00 | |
| PG1ADW-2 | 2026-08-31 12:37:57 | 49.17529 | 21.01249 | 21° | 11km/h | 30870m | 6.9m/s | 0°C | 0% | 0hPa | 0V | 00:00:00 | 01:53:25 | 00:00:00 | |
| HA6NAB-11 | 2026-08-31 12:37:56 | 49.17529 | 21.01249 | 22° | 13km/h | 30870m | 7.0m/s | -40.7°C | 0.5% | 11.0hPa | 0V | 00:00:00 | 00:00:00 | 00:00:00 | |
| SQ9EZE-13 | 2026-08-31 12:37:49 | 49.17522 | 21.01276 | 282° | 9km/h | 30824m | 7.6m/s | -40.5°C | 0.5% | 11.1hPa | 0V | 00:00:00 | 00:00:00 | 00:00:00 | |
| S52SK | 2026-08-31 12:37:38 | 49.17518 | 21.01269 | 307° | 20km/h | 30751m | 5.8m/s | -40.9°C | 0.6% | 11.2hPa | 0V | 00:00:00 | 00:00:00 | 00:00:00 | |
| PG1ADW-2 | 2026-08-31 12:37:37 | 49.17515 | 21.01282 | 275° | 15km/h | 30738m | 7.1m/s | 0°C | 0% | 0hPa | 0V | 00:00:00 | 00:00:00 | 08:30:00 | |
| S52SK | 2026-08-31 12:37:34 | 49.17518 | 21.01292 | 192° | 5km/h | 30720m | 6.8m/s | -41.0°C | 0.6% | 11.2hPa | 0V | 00:00:00 | 00:00:00 | 00:00:00 | |
| OE5DXL-15 | 2026-08-31 12:37:33 | 49.17519 | 21.01291 | 111° | 9km/h | 30712m | 8.6m/s | 0°C | 0% | 0hPa | 0V | 00:00:00 | 00:00:00 | 00:00:00 | |
| S52SK | 2026-08-31 12:37:27 | 49.17520 | 21.01273 | 110° | 5km/h | 30677m | 5.4m/s | -41.0°C | 0.6% | 11.3hPa | 0V | 00:00:00 | 00:00:00 | 00:00:00 | |
| SQ9EZE-13 | 2026-08-31 12:37:19 | 49.17510 | 21.01295 | 170° | 5km/h | 30618m | 6.2m/s | -40.9°C | 0.6% | 11.4hPa | 0V | 00:00:00 | 00:00:00 | 00:00:00 | |
| GYPAP8-17 | 2026-08-31 12:37:09 | 49.17527 | 21.01281 | 179° | 9km/h | 30559m | 8.1m/s | -40.8°C | 0.6% | 11.5hPa | 0V | 00:00:00 | 00:00:00 | 00:00:00 | |
| SP9SOS | 2026-08-31 12:37:07 | 49.17529 | 21.01281 | 0° | 0km/h | 30545m | 5.2m/s | -40.8°C | 0.6% | 11.5hPa | 0V | 00:00:00 | 00:00:00 | 00:00:00 | |
| SQ9EZE-13 | 2026-08-31 12:37:03 | 49.17532 | 21.01287 | 218° | 7km/h | 30519m | 5.6m/s | -41.0°C | 0.6% | 11.6hPa | 0V | 00:00:00 | 00:00:00 | 00:00:00 | |
| S52SK | 2026-08-31 12:36:58 | 49.17540 | 21.01283 | 165° | 9km/h | 30485m | 7.7m/s | -41.1°C | 0.6% | 11.7hPa | 0V | 00:00:00 | 00:00:00 | 00:00:00 | |
| S52SK | 2026-08-31 12:36:52 | 49.17552 | 21.01286 | 163° | 4km/h | 30445m | 5.6m/s | -40.9°C | 0.6% | 11.7hPa | 0V | 00:00:00 | 00:00:00 | 00:00:00 | |
| SQ9EZE-13 | 2026-08-31 12:36:47 | 49.17560 | 21.01293 | 227° | 5km/h | 30414m | 5.6m/s | -40.9°C | 0.6% | 11.8hPa | 0V | 00:00:00 | 00:00:00 | 00:00:00 | |
| SP9SOS | 2026-08-31 12:36:41 | 49.17563 | 21.01295 | 212° | 13km/h | 30374m | 6.7m/s | -40.7°C | 0.6% | 11.8hPa | 0V | 00:00:00 | 00:00:00 | 00:00:00 | |
| SQ9EZE-13 | 2026-08-31 12:36:32 | 49.17587 | 21.01307 | 177° | 15km/h | 30318m | 5.1m/s | -40.6°C | 0.6% | 12.0hPa | 0V | 00:00:00 | 00:00:00 | 00:00:00 | |
| LZ4TU-5 | 2026-08-31 12:36:18 | 49.17624 | 21.01326 | 183° | 18km/h | 30228m | 7.8m/s | 0°C | 0% | 0hPa | 0V | 00:00:00 | 00:00:00 | 00:00:00 | |
| SQ9EZE-13 | 2026-08-31 12:36:16 | 49.17633 | 21.01325 | 172° | 16km/h | 30215m | 6.1m/s | -41.0°C | 0.6% | 12.1hPa | 0V | 00:00:00 | 00:00:00 | 00:00:00 | |
| LZ4TU-5 | 2026-08-31 12:36:15 | 49.17639 | 21.01322 | 150° | 11km/h | 30201m | 6.5m/s | 0°C | 0% | 0hPa | 0V | 00:00:00 | 00:00:00 | 00:00:00 | |
| S52SK | 2026-08-31 12:36:14 | 49.17639 | 21.01322 | 150° | 11km/h | 30201m | 6.5m/s | -41.1°C | 0.6% | 12.1hPa | 0V | 00:00:00 | 00:00:00 | 00:00:00 | |
| GYPAP8-17 | 2026-08-31 12:36:04 | 49.17667 | 21.01303 | 138° | 24km/h | 30139m | 7.0m/s | -41.3°C | 0.6% | 12.3hPa | 0V | 00:00:00 | 00:00:00 | 00:00:00 | |
| SQ9EZE-13 | 2026-08-31 12:36:00 | 49.17688 | 21.01280 | 136° | 24km/h | 30115m | 6.6m/s | -41.4°C | 0.6% | 12.3hPa | 0V | 00:00:00 | 00:00:00 | 00:00:00 | |
| SQ9EZE-14 | 2026-08-31 12:35:59 | 49.17691 | 21.01273 | 125° | 20km/h | 30108m | 7.3m/s | -41.4°C | 0.6% | 12.3hPa | 0V | 00:00:00 | 00:00:00 | 00:00:00 | |
| SP9SOS | 2026-08-31 12:35:50 | 49.17712 | 21.01242 | 119° | 16km/h | 30048m | 6.1m/s | -41.6°C | 0.6% | 12.5hPa | 0V | 00:00:00 | 00:00:00 | 00:00:00 | |
| SQ9EZE-13 | 2026-08-31 12:35:46 | 49.17722 | 21.01218 | 113° | 11km/h | 30017m | 5.9m/s | -41.7°C | 0.6% | 12.5hPa | 0V | 00:00:00 | 00:00:00 | 00:00:00 | |
| SQ9EZE-13 | 2026-08-31 12:35:29 | 49.17733 | 21.01129 | 77° | 22km/h | 29914m | 7.8m/s | -41.9°C | 0.6% | 12.7hPa | 0V | 00:00:00 | 00:00:00 | 00:00:00 | |
| S52SK | 2026-08-31 12:35:27 | 49.17730 | 21.01113 | 70° | 20km/h | 29902m | 5.2m/s | -42.0°C | 0.6% | 12.7hPa | 0V | 00:00:00 | 00:00:00 | 00:00:00 | |
| SP9SOS | 2026-08-31 12:35:24 | 49.17729 | 21.01096 | 121° | 13km/h | 29883m | 6.1m/s | -42.1°C | 0.6% | 12.8hPa | 0V | 00:00:00 | 00:00:00 | 00:00:00 | |
| S52SK | 2026-08-31 12:35:21 | 49.17736 | 21.01079 | 106° | 22km/h | 29865m | 7.7m/s | -42.2°C | 0.6% | 12.8hPa | 0V | 00:00:00 | 00:00:00 | 00:00:00 | |
| S52SK | 2026-08-31 12:35:16 | 49.17734 | 21.01039 | 74° | 5km/h | 29826m | 6.1m/s | -42.3°C | 0.6% | 12.9hPa | 0V | 00:00:00 | 00:00:00 | 00:00:00 | |
| SQ9EZE-13 | 2026-08-31 12:35:13 | 49.17732 | 21.01035 | 46° | 9km/h | 29813m | 7.2m/s | -42.5°C | 0.6% | 12.9hPa | 0V | 00:00:00 | 00:00:00 | 00:00:00 | |
| SQ9EZE-15 | 2026-08-31 12:35:07 | 49.17726 | 21.01011 | 101° | 13km/h | 29776m | 5.0m/s | -42.7°C | 0.6% | 13.0hPa | 0V | 00:00:00 | 00:00:00 | 00:00:00 | |
| GYPAP8-17 | 2026-08-31 12:35:01 | 49.17725 | 21.00965 | 102° | 15km/h | 29736m | 7.2m/s | -43.0°C | 0.6% | 13.0hPa | 0V | 00:00:00 | 00:00:00 | 00:00:00 | |
| SQ9EZE-13 | 2026-08-31 12:34:58 | 49.17727 | 21.00954 | 86° | 9km/h | 29718m | 8.1m/s | -43.1°C | 0.6% | 13.1hPa | 0V | 00:00:00 | 00:00:00 | 00:00:00 | |
| SQ9EZE-15 | 2026-08-31 12:34:46 | 49.17703 | 21.00893 | 79° | 16km/h | 29640m | 6.1m/s | -43.4°C | 0.7% | 13.2hPa | 0V | 00:00:00 | 00:00:00 | 00:00:00 | |
| S52SK | 2026-08-31 12:34:45 | 49.17702 | 21.00887 | 88° | 15km/h | 29634m | 5.3m/s | -43.4°C | 0.7% | 13.2hPa | 0V | 00:00:00 | 00:00:00 | 00:00:00 | |
| SQ9EZE-13 | 2026-08-31 12:34:42 | 49.17702 | 21.00866 | 82° | 22km/h | 29614m | 6.0m/s | -43.4°C | 0.7% | 13.3hPa | 0V | 00:00:00 | 00:00:00 | 00:00:00 | |
| S52SK | 2026-08-31 12:34:39 | 49.17697 | 21.00843 | 69° | 16km/h | 29596m | 7.9m/s | -43.4°C | 0.6% | 13.3hPa | 0V | 00:00:00 | 00:00:00 | 00:00:00 | |
| SP9SOS | 2026-08-31 12:34:32 | 49.17694 | 21.00789 | 98° | 33km/h | 29553m | 4.2m/s | -43.4°C | 0.7% | 13.4hPa | 0V | 00:00:00 | 00:00:00 | 00:00:00 | |
| SQ9EZE-13 | 2026-08-31 12:34:26 | 49.17688 | 21.00738 | 53° | 26km/h | 29515m | 7.4m/s | -43.5°C | 0.7% | 13.5hPa | 0V | 00:00:00 | 00:00:00 | 00:00:00 | |
| SQ9EZE-13 | 2026-08-31 12:34:10 | 49.17660 | 21.00616 | 46° | 26km/h | 29413m | 5.7m/s | -43.8°C | 0.6% | 13.7hPa | 0V | 00:00:00 | 00:00:00 | 00:00:00 | |
| SP9SOS | 2026-08-31 12:34:06 | 49.17655 | 21.00590 | 120° | 20km/h | 29388m | 5.4m/s | -43.9°C | 0.7% | 13.8hPa | 0V | 00:00:00 | 00:00:00 | 00:00:00 | |
| LZ4TU-5 | 2026-08-31 12:34:01 | 49.17669 | 21.00542 | 100° | 24km/h | 29358m | 4.8m/s | 0°C | 0% | 0hPa | 0V | 00:00:00 | 00:00:00 | 00:00:00 | |
| GYPAP8-17 | 2026-08-31 12:33:59 | 49.17669 | 21.00528 | 75° | 11km/h | 29344m | 7.3m/s | -44.1°C | 0.7% | 13.8hPa | 0V | 00:00:00 | 00:00:00 | 00:00:00 | |
| SQ9EZE-13 | 2026-08-31 12:33:54 | 49.17662 | 21.00508 | 91° | 16km/h | 29312m | 5.5m/s | -44.2°C | 0.7% | 13.9hPa | 0V | 00:00:00 | 00:00:00 | 00:00:00 | |
| SQ9EZE-14 | 2026-08-31 12:33:52 | 49.17665 | 21.00496 | 118° | 16km/h | 29299m | 7.7m/s | -44.3°C | 0.7% | 13.9hPa | 0V | 00:00:00 | 00:00:00 | 00:00:00 | |
| SP9SOS | 2026-08-31 12:33:40 | 49.17665 | 21.00420 | 75° | 20km/h | 29223m | 7.4m/s | -44.6°C | 0.7% | 14.1hPa | 0V | 00:00:00 | 00:00:00 | 00:00:00 | |
| SQ9EZE-13 | 2026-08-31 12:33:39 | 49.17664 | 21.00412 | 89° | 26km/h | 29216m | 6.5m/s | -44.6°C | 0.7% | 14.1hPa | 0V | 00:00:00 | 00:00:00 | 00:00:00 | |
| SQ9EZE-14 | 2026-08-31 12:33:36 | 49.17669 | 21.00383 | 122° | 24km/h | 29196m | 8.0m/s | -44.7°C | 0.7% | 14.2hPa | 0V | 00:00:00 | 00:00:00 | 00:00:00 | |
| S52SK | 2026-08-31 12:33:30 | 49.17681 | 21.00348 | 66° | 13km/h | 29158m | 5.7m/s | -45.1°C | 0.7% | 14.3hPa | 0V | 00:00:00 | 00:00:00 | 00:00:00 | |
| S52SK | 2026-08-31 12:33:24 | 49.17672 | 21.00328 | 84° | 20km/h | 29119m | 7.7m/s | -45.5°C | 0.7% | 14.3hPa | 0V | 00:00:00 | 00:00:00 | 00:00:00 | |
| SQ9EZE-13 | 2026-08-31 12:33:23 | 49.17671 | 21.00319 | 87° | 27km/h | 29112m | 6.3m/s | -45.4°C | 0.7% | 14.3hPa | 0V | 00:00:00 | 00:00:00 | 00:00:00 | |
| SP9SOS | 2026-08-31 12:33:15 | 49.17670 | 21.00271 | 76° | 13km/h | 29061m | 6.3m/s | -45.3°C | 0.7% | 14.4hPa | 0V | 00:00:00 | 00:00:00 | 00:00:00 | |
| PG1ADW-2 | 2026-08-31 12:33:09 | 49.17651 | 21.00223 | 82° | 20km/h | 29015m | 8.2m/s | 0°C | 0% | 0hPa | 0V | 00:00:00 | 00:00:00 | 00:00:00 | |
| SQ9EZE-13 | 2026-08-31 12:33:07 | 49.17651 | 21.00211 | 95° | 35km/h | 29008m | 6.7m/s | -45.2°C | 0.7% | 14.6hPa | 0V | 00:00:00 | 00:00:00 | 00:00:00 | |
| SQ9EZE-13 | 2026-08-31 12:32:52 | 49.17638 | 21.00098 | 105° | 29km/h | 28908m | 6.3m/s | -45.3°C | 0.7% | 14.8hPa | 0V | 00:00:00 | 00:00:00 | 00:00:00 | |
| GYPAP8-17 | 2026-08-31 12:32:51 | 49.17641 | 21.00088 | 118° | 27km/h | 28903m | 4.6m/s | -45.4°C | 0.7% | 14.8hPa | 0V | 00:00:00 | 00:00:00 | 00:00:00 | |
| S52SK | 2026-08-31 12:32:50 | 49.17644 | 21.00079 | 127° | 24km/h | 28897m | 7.2m/s | -45.4°C | 0.7% | 14.8hPa | 0V | 00:00:00 | 00:00:00 | 00:00:00 | |
| SP9SOS | 2026-08-31 12:32:49 | 49.17647 | 21.00073 | 143° | 18km/h | 28890m | 7.6m/s | -45.2°C | 0.7% | 14.8hPa | 0V | 00:00:00 | 00:00:00 | 00:00:00 | |
| S52SK | 2026-08-31 12:32:45 | 49.17657 | 21.00066 | 104° | 5km/h | 28864m | 6.3m/s | -45.2°C | 0.7% | 14.9hPa | 0V | 00:00:00 | 00:00:00 | 00:00:00 | |
| PG1ADW-2 | 2026-08-31 12:32:42 | 49.17647 | 21.00059 | 18° | 18km/h | 28837m | 5.9m/s | 0°C | 0% | 0hPa | 0V | 00:00:00 | 00:00:00 | 00:00:00 | |
| S52SK | 2026-08-31 12:32:39 | 49.17639 | 21.00051 | 52° | 18km/h | 28826m | 7.0m/s | -45.3°C | 0.7% | 15.0hPa | 0V | 00:00:00 | 00:00:00 | 00:00:00 | |
| SQ9EZE-13 | 2026-08-31 12:32:36 | 49.17638 | 21.00027 | 114° | 24km/h | 28806m | 5.1m/s | -45.2°C | 0.7% | 15.0hPa | 0V | 00:00:00 | 00:00:00 | 00:00:00 | |
| SP9SOS | 2026-08-31 12:32:23 | 49.17625 | 20.99985 | 109° | 16km/h | 28726m | 6.8m/s | -45.6°C | 0.7% | 15.2hPa | 0V | 00:00:00 | 00:00:00 | 00:00:00 | |
| PG1ADW-2 | 2026-08-31 12:32:22 | 49.17628 | 20.99970 | 113° | 18km/h | 28711m | 6.1m/s | 0°C | 0% | 0hPa | 0V | 00:00:00 | 01:47:50 | 00:00:00 | |
| SQ9EZE-13 | 2026-08-31 12:32:21 | 49.17628 | 20.99970 | 114° | 22km/h | 28711m | 6.1m/s | -45.6°C | 0.7% | 15.2hPa | 0V | 00:00:00 | 00:00:00 | 00:00:00 | |
| SQ9EZE-13 | 2026-08-31 12:32:06 | 49.17626 | 20.99892 | 85° | 24km/h | 28616m | 7.2m/s | -45.8°C | 0.7% | 15.5hPa | 0V | 00:00:00 | 00:00:00 | 00:00:00 | |
| S52SK | 2026-08-31 12:32:01 | 49.17626 | 20.99854 | 94° | 13km/h | 28583m | 5.3m/s | -46.1°C | 0.7% | 15.5hPa | 0V | 00:00:00 | 00:00:00 | 00:00:00 | |
| PG1ADW-2 | 2026-08-31 12:32:00 | 49.17626 | 20.99844 | 80° | 26km/h | 28570m | 7.5m/s | 0°C | 0% | 0hPa | 0V | 00:00:00 | 00:00:00 | 00:00:00 | |
| SP9SOS | 2026-08-31 12:31:59 | 49.17625 | 20.99837 | 76° | 20km/h | 28563m | 6.3m/s | -46.5°C | 0.8% | 15.6hPa | 0V | 00:00:00 | 00:00:00 | 00:00:00 | |
| S52SK | 2026-08-31 12:31:55 | 49.17621 | 20.99816 | 87° | 16km/h | 28545m | 7.0m/s | -46.5°C | 0.7% | 15.6hPa | 0V | 00:00:00 | 00:00:00 | 00:00:00 | |
| SQ9EZE-13 | 2026-08-31 12:31:51 | 49.17626 | 20.99782 | 103° | 33km/h | 28519m | 7.5m/s | -46.7°C | 0.8% | 15.7hPa | 0V | 00:00:00 | 00:00:00 | 00:00:00 | |
| GYPAP8-17 | 2026-08-31 12:31:41 | 49.17641 | 20.99678 | 87° | 27km/h | 28454m | 7.3m/s | -47.0°C | 0.8% | 15.9hPa | 0V | 00:00:00 | 00:00:00 | 00:00:00 | |
| PG1ADW-2 | 2026-08-31 12:31:40 | 49.17641 | 20.99658 | 90° | 22km/h | 28440m | 5.7m/s | 0°C | 0% | 0hPa | 0V | 00:00:00 | 00:00:00 | 00:00:00 | |
| SQ9EZE-13 | 2026-08-31 12:31:35 | 49.17641 | 20.99614 | 93° | 31km/h | 28415m | 5.1m/s | -46.8°C | 0.8% | 15.9hPa | 0V | 00:00:00 | 00:00:00 | 00:00:00 | |
| SP9SOS | 2026-08-31 12:31:32 | 49.17645 | 20.99586 | 119° | 20km/h | 28397m | 6.7m/s | -46.9°C | 0.8% | 16.0hPa | 0V | 00:00:00 | 00:00:00 | 00:00:00 | |
| SQ9EZE-15 | 2026-08-31 12:31:30 | 49.17650 | 20.99573 | 125° | 22km/h | 28386m | 5.1m/s | -46.9°C | 0.8% | 16.0hPa | 0V | 00:00:00 | 00:00:00 | 00:00:00 | |
| SQ9EZE-14 | 2026-08-31 12:31:28 | 49.17655 | 20.99555 | 99° | 27km/h | 28374m | 6.4m/s | -47.0°C | 0.8% | 16.1hPa | 0V | 00:00:00 | 00:00:00 | 00:00:00 | |
| SQ9EZE-13 | 2026-08-31 12:31:19 | 49.17640 | 20.99452 | 105° | 27km/h | 28318m | 7.1m/s | -47.0°C | 0.8% | 16.2hPa | 0V | 00:00:00 | 00:00:00 | 00:00:00 | |
| S52SK | 2026-08-31 12:31:14 | 49.17645 | 20.99417 | 81° | 18km/h | 28284m | 5.5m/s | -46.8°C | 0.8% | 16.3hPa | 0V | 00:00:00 | 00:00:00 | 00:00:00 | |
| SQ9EZE-14 | 2026-08-31 12:31:13 | 49.17644 | 20.99409 | 75° | 18km/h | 28279m | 5.2m/s | -46.8°C | 0.8% | 16.3hPa | 0V | 00:00:00 | 00:00:00 | 00:00:00 | |
| SQ9EZE-15 | 2026-08-31 12:31:10 | 49.17640 | 20.99390 | 68° | 20km/h | 28260m | 5.1m/s | -46.8°C | 0.8% | 16.3hPa | 0V | 00:00:00 | 00:00:00 | 00:00:00 | |
| S52SK | 2026-08-31 12:31:09 | 49.17638 | 20.99382 | 70° | 24km/h | 28254m | 6.2m/s | -46.9°C | 0.8% | 16.3hPa | 0V | 00:00:00 | 00:00:00 | 00:00:00 | |
| SP9SOS | 2026-08-31 12:31:06 | 49.17632 | 20.99351 | 86° | 27km/h | 28234m | 5.3m/s | -47.0°C | 0.8% | 16.4hPa | 0V | 00:00:00 | 00:00:00 | 00:00:00 | |
| SQ9EZE-13 | 2026-08-31 12:31:04 | 49.17633 | 20.99334 | 109° | 18km/h | 28221m | 6.7m/s | -47.0°C | 0.8% | 16.4hPa | 0V | 00:00:00 | 00:00:00 | 00:00:00 | |
| SQ9EZE-13 | 2026-08-31 12:30:48 | 49.17613 | 20.99277 | 117° | 9km/h | 28119m | 6.8m/s | -47.4°C | 0.8% | 16.7hPa | 0V | 00:00:00 | 00:00:00 | 00:00:00 | |
| GYPAP8-17 | 2026-08-31 12:30:42 | 49.17624 | 20.99233 | 91° | 22km/h | 28082m | 7.6m/s | -47.7°C | 0.8% | 16.8hPa | 0V | 00:00:00 | 00:00:00 | 00:00:00 | |
| SP9SOS | 2026-08-31 12:30:40 | 49.17621 | 20.99219 | 65° | 20km/h | 28068m | 5.5m/s | -47.8°C | 0.8% | 16.8hPa | 0V | 00:00:00 | 00:00:00 | 00:00:00 | |
| SQ9EZE-13 | 2026-08-31 12:30:33 | 49.17612 | 20.99162 | 114° | 20km/h | 28021m | 5.9m/s | -47.9°C | 0.8% | 16.9hPa | 0V | 00:00:00 | 00:00:00 | 00:00:00 | |
| S52SK | 2026-08-31 12:30:25 | 49.17627 | 20.99085 | 92° | 27km/h | 27971m | 6.2m/s | -48.0°C | 0.9% | 17.1hPa | 0V | 00:00:00 | 00:00:00 | 00:00:00 | |
| S52SK | 2026-08-31 12:30:20 | 49.17624 | 20.99025 | 94° | 26km/h | 27938m | 8.0m/s | -48.0°C | 0.8% | 17.1hPa | 0V | 00:00:00 | 00:00:00 | 00:00:00 | |
| SQ9EZE-13 | 2026-08-31 12:30:17 | 49.17628 | 20.98999 | 103° | 26km/h | 27919m | 7.5m/s | -47.9°C | 0.8% | 17.2hPa | 0V | 00:00:00 | 00:00:00 | 00:00:00 | |
| SP9SOS | 2026-08-31 12:30:15 | 49.17630 | 20.98977 | 96° | 31km/h | 27906m | 4.5m/s | -47.8°C | 0.8% | 17.2hPa | 0V | 00:00:00 | 00:00:00 | 00:00:00 | |
| S52SK | 2026-08-31 12:30:14 | 49.17630 | 20.98966 | 94° | 29km/h | 27901m | 5.5m/s | -47.8°C | 0.8% | 17.3hPa | 0V | 00:00:00 | 00:00:00 | 00:00:00 | |
| SP9SOS | 2026-08-31 12:29:49 | 49.17599 | 20.98751 | 93° | 11km/h | 27738m | 6.0m/s | -47.6°C | 0.8% | 17.7hPa | 0V | 00:00:00 | 00:00:00 | 00:00:00 | |
| SQ9EZE-13 | 2026-08-31 12:29:46 | 49.17597 | 20.98734 | 75° | 22km/h | 27717m | 7.2m/s | -47.6°C | 0.8% | 17.7hPa | 0V | 00:00:00 | 00:00:00 | 00:00:00 | |
| S52SK | 2026-08-31 12:29:37 | 49.17564 | 20.98661 | 60° | 13km/h | 27649m | 7.7m/s | -47.4°C | 0.8% | 17.9hPa | 0V | 00:00:00 | 00:00:00 | 00:00:00 | |
| GYPAP8-17 | 2026-08-31 12:29:34 | 49.17560 | 20.98653 | 62° | 15km/h | 27637m | 5.8m/s | -47.4°C | 0.8% | 18.0hPa | 0V | 00:00:00 | 00:00:00 | 00:00:00 | |
| S52SK | 2026-08-31 12:29:30 | 49.17549 | 20.98625 | 47° | 26km/h | 27611m | 7.4m/s | -47.4°C | 0.8% | 18.0hPa | 0V | 00:00:00 | 00:00:00 | 00:00:00 | |
| SP9SOS | 2026-08-31 12:29:24 | 49.17520 | 20.98592 | 43° | 20km/h | 27571m | 6.1m/s | -47.8°C | 0.8% | 18.1hPa | 0V | 00:00:00 | 00:00:00 | 00:00:00 | |
| SQ9EZE-13 | 2026-08-31 12:29:14 | 49.17478 | 20.98541 | 28° | 18km/h | 27506m | 6.5m/s | -47.8°C | 0.8% | 18.3hPa | 0V | 00:00:00 | 00:00:00 | 00:00:00 | |
| SQ9EZE-15 | 2026-08-31 12:29:09 | 49.17466 | 20.98530 | 64° | 13km/h | 27474m | 6.0m/s | -47.9°C | 0.8% | 18.4hPa | 0V | 00:00:00 | 00:00:00 | 00:00:00 | |
| SQ9EZE-14 | 2026-08-31 12:29:05 | 49.17454 | 20.98510 | 43° | 18km/h | 27448m | 5.5m/s | -48.1°C | 0.8% | 18.5hPa | 0V | 00:00:00 | 00:00:00 | 00:00:00 | |
| SP9SOS | 2026-08-31 12:28:59 | 49.17446 | 20.98492 | 350° | 5km/h | 27410m | 6.5m/s | -48.0°C | 0.9% | 18.6hPa | 0V | 00:00:00 | 00:00:00 | 00:00:00 | |
| SQ9EZE-13 | 2026-08-31 12:28:58 | 49.17445 | 20.98493 | 354° | 4km/h | 27404m | 5.2m/s | -48.0°C | 0.8% | 18.6hPa | 0V | 00:00:00 | 00:00:00 | 00:00:00 | |
| S52SK | 2026-08-31 12:28:57 | 49.17444 | 20.98492 | 50° | 4km/h | 27398m | 6.8m/s | -48.0°C | 0.9% | 18.6hPa | 0V | 00:00:00 | 00:00:00 | 00:00:00 | |
| S52SK | 2026-08-31 12:28:52 | 49.17447 | 20.98479 | 121° | 5km/h | 27362m | 5.7m/s | -47.8°C | 0.8% | 18.7hPa | 0V | 00:00:00 | 00:00:00 | 00:00:00 | |
| SQ9EZE-14 | 2026-08-31 12:28:49 | 49.17452 | 20.98474 | 164° | 11km/h | 27343m | 6.9m/s | -47.9°C | 0.8% | 18.8hPa | 0V | 00:00:00 | 00:00:00 | 00:00:00 | |
| S52SK | 2026-08-31 12:28:47 | 49.17458 | 20.98474 | 201° | 13km/h | 27331m | 5.7m/s | -47.8°C | 0.8% | 18.8hPa | 0V | 00:00:00 | 00:00:00 | 00:00:00 | |
| SQ9EZE-13 | 2026-08-31 12:28:43 | 49.17464 | 20.98487 | 277° | 4km/h | 27304m | 7.4m/s | -47.8°C | 0.8% | 18.9hPa | 0V | 00:00:00 | 00:00:00 | 00:00:00 | |
| GYPAP8-17 | 2026-08-31 12:28:29 | 49.17471 | 20.98451 | 182° | 4km/h | 27213m | 4.7m/s | -47.8°C | 0.8% | 19.2hPa | 0V | 00:00:00 | 00:00:00 | 00:00:00 | |
| SQ9EZE-13 | 2026-08-31 12:28:27 | 49.17471 | 20.98447 | 84° | 13km/h | 27199m | 7.4m/s | -47.8°C | 0.8% | 19.2hPa | 0V | 00:00:00 | 00:00:00 | 00:00:00 | |
| S52SK | 2026-08-31 12:28:14 | 49.17463 | 20.98380 | 108° | 7km/h | 27114m | 6.7m/s | -47.9°C | 0% | 0hPa | 0V | 00:00:00 | 00:00:00 | 00:00:00 | |
| SQ9EZE-13 | 2026-08-31 12:28:12 | 49.17464 | 20.98370 | 99° | 20km/h | 27100m | 6.5m/s | -47.9°C | 0.8% | 19.5hPa | 0V | 00:00:00 | 00:00:00 | 00:00:00 | |
| S52SK | 2026-08-31 12:28:09 | 49.17463 | 20.98346 | 72° | 20km/h | 27081m | 7.4m/s | -47.9°C | 0% | 0hPa | 0V | 00:00:00 | 00:00:00 | 00:00:00 | |
| SP9SOS | 2026-08-31 12:28:07 | 49.17459 | 20.98334 | 61° | 13km/h | 27069m | 5.1m/s | -47.9°C | 0.8% | 19.6hPa | 0V | 00:00:00 | 00:00:00 | 00:00:00 | |
| S52SK | 2026-08-31 12:28:03 | 49.17460 | 20.98315 | 111° | 20km/h | 27042m | 5.8m/s | -48.1°C | 0% | 0hPa | 0V | 00:00:00 | 00:00:00 | 00:00:00 | |
| SQ9EZE-13 | 2026-08-31 12:27:56 | 49.17449 | 20.98275 | 53° | 20km/h | 26998m | 7.3m/s | -48.3°C | 0.9% | 19.8hPa | 0V | 00:00:00 | 00:00:00 | 00:00:00 | |
| SQ9EZE-15 | 2026-08-31 12:27:52 | 49.17437 | 20.98252 | 40° | 16km/h | 26971m | 6.5m/s | -48.3°C | 0.9% | 19.9hPa | 0V | 00:00:00 | 00:00:00 | 00:00:00 | |
| SP9SOS | 2026-08-31 12:27:41 | 49.17399 | 20.98203 | 27° | 16km/h | 26902m | 6.3m/s | -48.5°C | 0.9% | 20.1hPa | 0V | 00:00:00 | 00:00:00 | 00:00:00 | |
| SQ9EZE-13 | 2026-08-31 12:27:40 | 49.17395 | 20.98200 | 22° | 16km/h | 26896m | 5.6m/s | -48.6°C | 0.8% | 20.1hPa | 0V | 00:00:00 | 00:00:00 | 00:00:00 | |
| SQ9EZE-15 | 2026-08-31 12:27:32 | 49.17378 | 20.98183 | 45° | 5km/h | 26843m | 7.8m/s | -48.7°C | 0.9% | 20.3hPa | 0V | 00:00:00 | 00:00:00 | 00:00:00 | |
| SQ9EZE-13 | 2026-08-31 12:27:25 | 49.17371 | 20.98183 | 40° | 5km/h | 26799m | 7.3m/s | -48.7°C | 0.9% | 20.4hPa | 0V | 00:00:00 | 00:00:00 | 00:00:00 | |
| S52SK | 2026-08-31 12:27:24 | 49.17369 | 20.98181 | 36° | 9km/h | 26792m | 6.9m/s | -48.6°C | 0% | 0hPa | 0V | 00:00:00 | 00:00:00 | 00:00:00 | |
| S52SK | 2026-08-31 12:27:18 | 49.17356 | 20.98156 | 41° | 16km/h | 26755m | 6.7m/s | -48.4°C | 0% | 0hPa | 0V | 00:00:00 | 00:00:00 | 00:00:00 | |
| SP9SOS | 2026-08-31 12:27:15 | 49.17345 | 20.98149 | 14° | 15km/h | 26736m | 6.1m/s | -48.3°C | 0.8% | 20.6hPa | 0V | 00:00:00 | 00:00:00 | 00:00:00 | |
| SQ9EZE-13 | 2026-08-31 12:27:09 | 49.17330 | 20.98144 | 356° | 11km/h | 26696m | 5.8m/s | -48.3°C | 0.9% | 20.8hPa | 0V | 00:00:00 | 00:00:00 | 00:00:00 | |
| GYPAP8-17 | 2026-08-31 12:27:07 | 49.17326 | 20.98143 | 23° | 7km/h | 26682m | 7.0m/s | -48.3°C | 0.9% | 20.8hPa | 0V | 00:00:00 | 00:00:00 | 00:00:00 | |
| HA6NAB-11 | 2026-08-31 12:26:50 | 49.17251 | 20.98129 | 328° | 15km/h | 26582m | 4.9m/s | -47.9°C | 0.8% | 21.1hPa | 0V | 00:00:00 | 00:00:00 | 00:00:00 | |
| SP9SOS | 2026-08-31 12:26:49 | 49.17248 | 20.98132 | 329° | 16km/h | 26576m | 5.8m/s | -48.0°C | 0.8% | 21.1hPa | 0V | 00:00:00 | 00:00:00 | 00:00:00 | |
| S52SK | 2026-08-31 12:26:44 | 49.17225 | 20.98143 | 6° | 15km/h | 26544m | 6.0m/s | -48.0°C | 0% | 0hPa | 0V | 00:00:00 | 00:00:00 | 00:00:00 | |
| SQ9EZE-14 | 2026-08-31 12:26:42 | 49.17217 | 20.98141 | 13° | 16km/h | 26532m | 7.1m/s | -48.1°C | 0.8% | 21.3hPa | 0V | 00:00:00 | 00:00:00 | 00:00:00 | |
| S52SK | 2026-08-31 12:26:38 | 49.17203 | 20.98140 | 332° | 9km/h | 26508m | 7.4m/s | -47.9°C | 0% | 0hPa | 0V | 00:00:00 | 00:00:00 | 00:00:00 | |
| HA6NAB-11 | 2026-08-31 12:26:37 | 49.17202 | 20.98143 | 300° | 9km/h | 26502m | 5.7m/s | -47.9°C | 0.8% | 21.4hPa | 0V | 00:00:00 | 00:00:00 | 00:00:00 | |
| S52SK | 2026-08-31 12:26:33 | 49.17193 | 20.98159 | 331° | 20km/h | 26479m | 5.5m/s | -48.1°C | 0% | 0hPa | 0V | 00:00:00 | 00:00:00 | 00:00:00 | |
| HA6NAB-11 | 2026-08-31 12:26:31 | 49.17184 | 20.98166 | 338° | 18km/h | 26468m | 6.5m/s | -48.1°C | 0.8% | 21.5hPa | 0V | 00:00:00 | 00:00:00 | 00:00:00 | |
| SQ9EZE-14 | 2026-08-31 12:26:27 | 49.17169 | 20.98178 | 326° | 18km/h | 26436m | 6.5m/s | -48.5°C | 0.9% | 21.6hPa | 0V | 00:00:00 | 00:00:00 | 00:00:00 | |
| HA6NAB-11 | 2026-08-31 12:26:26 | 49.17165 | 20.98182 | 314° | 18km/h | 26430m | 4.1m/s | -48.4°C | 0.9% | 21.6hPa | 0V | 00:00:00 | 00:00:00 | 00:00:00 | |
| SP9SOS | 2026-08-31 12:26:23 | 49.17161 | 20.98194 | 287° | 16km/h | 26417m | 7.4m/s | -48.5°C | 0.9% | 21.7hPa | 0V | 00:00:00 | 00:00:00 | 00:00:00 | |
| SQ9EZE-13 | 2026-08-31 12:26:21 | 49.17158 | 20.98208 | 291° | 20km/h | 26408m | 5.4m/s | -48.5°C | 0.8% | 21.7hPa | 0V | 00:00:00 | 00:00:00 | 00:00:00 | |
| HA6NAB-11 | 2026-08-31 12:26:19 | 49.17153 | 20.98222 | 312° | 20km/h | 26394m | 4.7m/s | -48.5°C | 0.8% | 21.7hPa | 0V | 00:00:00 | 00:00:00 | 00:00:00 | |
| HA6NAB-11 | 2026-08-31 12:26:13 | 49.17154 | 20.98252 | 242° | 24km/h | 26359m | 7.1m/s | -48.5°C | 0.8% | 21.8hPa | 0V | 00:00:00 | 00:00:00 | 00:00:00 | |
| HA6NAB-11 | 2026-08-31 12:26:07 | 49.17162 | 20.98291 | 240° | 9km/h | 26322m | 3.9m/s | -48.4°C | 0.8% | 22.0hPa | 0V | 00:00:00 | 00:00:00 | 00:00:00 | |
| SQ9EZE-13 | 2026-08-31 12:26:06 | 49.17163 | 20.98294 | 251° | 7km/h | 26316m | 6.6m/s | -48.5°C | 0.8% | 22.0hPa | 0V | 00:00:00 | 00:00:00 | 00:00:00 | |
| HA6NAB-11 | 2026-08-31 12:26:02 | 49.17164 | 20.98299 | 184° | 4km/h | 26291m | 7.7m/s | -48.6°C | 0.8% | 22.1hPa | 0V | 00:00:00 | 00:00:00 | 00:00:00 | |
| HA6NAB-11 | 2026-08-31 12:25:57 | 49.17177 | 20.98320 | 229° | 20km/h | 26255m | 7.1m/s | -49.1°C | 0.9% | 22.2hPa | 0V | 00:00:00 | 00:00:00 | 00:00:00 | |
| S52SK | 2026-08-31 12:25:55 | 49.17186 | 20.98331 | 217° | 18km/h | 26242m | 4.4m/s | -49.2°C | 0% | 0hPa | 0V | 00:00:00 | 00:00:00 | 00:00:00 | |
| SQ9EZE-13 | 2026-08-31 12:25:50 | 49.17196 | 20.98339 | 175° | 9km/h | 26219m | 6.5m/s | -49.5°C | 0.9% | 22.3hPa | 0V | 00:00:00 | 00:00:00 | 00:00:00 | |
| SQ9EZE-15 | 2026-08-31 12:25:43 | 49.17210 | 20.98333 | 195° | 7km/h | 26176m | 7.1m/s | -49.9°C | 0.9% | 22.5hPa | 0V | 00:00:00 | 00:00:00 | 00:00:00 | |
| SP9SOS | 2026-08-31 12:25:31 | 49.17220 | 20.98334 | 350° | 11km/h | 26104m | 5.1m/s | -50.1°C | 0.9% | 22.7hPa | 0V | 00:00:00 | 00:00:00 | 00:00:00 | |
| SQ9EZE-15 | 2026-08-31 12:25:23 | 49.17206 | 20.98344 | 1° | 11km/h | 26059m | 4.5m/s | -50.2°C | 0.9% | 22.9hPa | 0V | 00:00:00 | 00:00:00 | 00:00:00 | |
| SQ9EZE-13 | 2026-08-31 12:25:18 | 49.17191 | 20.98334 | 10° | 18km/h | 26028m | 7.0m/s | -50.6°C | 0.9% | 23.0hPa | 0V | 00:00:00 | 00:00:00 | 00:00:00 | |
| SP9SOS | 2026-08-31 12:25:06 | 49.17155 | 20.98353 | 39° | 11km/h | 25957m | 4.9m/s | -50.6°C | 1.0% | 23.3hPa | 0V | 00:00:00 | 00:00:00 | 00:00:00 | |
| SQ9EZE-13 | 2026-08-31 12:25:03 | 49.17143 | 20.98348 | 4° | 18km/h | 25939m | 4.8m/s | -50.5°C | 0.9% | 23.3hPa | 0V | 00:00:00 | 00:00:00 | 00:00:00 | |
| S52SK | 2026-08-31 12:25:00 | 49.17133 | 20.98351 | 326° | 11km/h | 25921m | 4.4m/s | -50.4°C | 0% | 0hPa | 0V | 00:00:00 | 00:00:00 | 00:00:00 | |
| S52SK | 2026-08-31 12:24:54 | 49.17121 | 20.98372 | 328° | 4km/h | 25884m | 4.6m/s | -50.1°C | 0% | 0hPa | 0V | 00:00:00 | 00:00:00 | 00:00:00 | |
| S52SK | 2026-08-31 12:24:50 | 49.17110 | 20.98375 | 3° | 11km/h | 25853m | 7.3m/s | -50.2°C | 0% | 0hPa | 0V | 00:00:00 | 00:00:00 | 00:00:00 | |
| SQ9EZE-13 | 2026-08-31 12:24:47 | 49.17105 | 20.98375 | 347° | 11km/h | 25841m | 5.1m/s | -50.1°C | 0.9% | 23.7hPa | 0V | 00:00:00 | 00:00:00 | 00:00:00 | |
| HA6NAB-11 | 2026-08-31 12:24:41 | 49.17095 | 20.98396 | 247° | 9km/h | 25805m | 5.1m/s | -49.8°C | 0.9% | 23.8hPa | 0V | 00:00:00 | 00:00:00 | 00:00:00 | |
| HA6NAB-11 | 2026-08-31 12:24:33 | 49.17080 | 20.98416 | 347° | 15km/h | 25753m | 6.8m/s | -50.0°C | 0.9% | 24.0hPa | 0V | 00:00:00 | 00:00:00 | 00:00:00 | |
| SQ9EZE-13 | 2026-08-31 12:24:32 | 49.17080 | 20.98416 | 347° | 15km/h | 25753m | 6.8m/s | -50.0°C | 0.9% | 24.0hPa | 0V | 00:00:00 | 00:00:00 | 00:00:00 | |
| SQ9EZE-14 | 2026-08-31 12:24:19 | 49.17056 | 20.98436 | 3° | 11km/h | 25677m | 4.8m/s | -50.1°C | 0.9% | 24.3hPa | 0V | 00:00:00 | 00:00:00 | 00:00:00 | |
| SQ9EZE-13 | 2026-08-31 12:24:16 | 49.17049 | 20.98441 | 282° | 7km/h | 25659m | 5.6m/s | -50.0°C | 0.9% | 24.3hPa | 0V | 00:00:00 | 00:00:00 | 00:00:00 | |
| SP9SOS | 2026-08-31 12:24:15 | 49.17050 | 20.98444 | 236° | 7km/h | 25653m | 6.2m/s | -50.1°C | 0.9% | 24.4hPa | 0V | 00:00:00 | 00:00:00 | 00:00:00 | |
| SQ9EZE-14 | 2026-08-31 12:24:03 | 49.17052 | 20.98426 | 16° | 5km/h | 25581m | 6.0m/s | -49.8°C | 0.9% | 24.6hPa | 0V | 00:00:00 | 00:00:00 | 00:00:00 | |
| S52SK | 2026-08-31 12:24:01 | 49.17053 | 20.98425 | 157° | 7km/h | 25571m | 5.5m/s | -49.8°C | 0% | 0hPa | 0V | 00:00:00 | 00:00:00 | 00:00:00 | |
| SQ9EZE-13 | 2026-08-31 12:24:00 | 49.17056 | 20.98423 | 151° | 13km/h | 25565m | 6.8m/s | -49.8°C | 0.9% | 24.7hPa | 0V | 00:00:00 | 00:00:00 | 00:00:00 | |
| S52SK | 2026-08-31 12:23:55 | 49.17064 | 20.98408 | 23° | 9km/h | 25537m | 6.2m/s | -50.2°C | 0% | 0hPa | 0V | 00:00:00 | 00:00:00 | 00:00:00 | |
| SP9SOS | 2026-08-31 12:23:49 | 49.17048 | 20.98401 | 231° | 4km/h | 25503m | 6.8m/s | -50.6°C | 0.9% | 25.0hPa | 0V | 00:00:00 | 00:00:00 | 00:00:00 | |
| SQ9EZE-15 | 2026-08-31 12:23:47 | 49.17052 | 20.98404 | 202° | 11km/h | 25491m | 5.5m/s | -50.7°C | 1.0% | 25.0hPa | 0V | 00:00:00 | 00:00:00 | 00:00:00 | |
| SQ9EZE-13 | 2026-08-31 12:23:45 | 49.17058 | 20.98404 | 159° | 13km/h | 25477m | 6.4m/s | -50.7°C | 0.9% | 25.0hPa | 0V | 00:00:00 | 00:00:00 | 00:00:00 | |
| PG1ADW-2 | 2026-08-31 12:23:36 | 49.17065 | 20.98375 | 302° | 5km/h | 25416m | 6.4m/s | 0°C | 0% | 0hPa | 0V | 00:00:00 | 00:00:00 | 00:00:00 | |
| SQ9EZE-13 | 2026-08-31 12:23:30 | 49.17065 | 20.98384 | 253° | 4km/h | 25386m | 5.8m/s | -50.8°C | 1.0% | 25.4hPa | 0V | 00:00:00 | 00:00:00 | 00:00:00 | |
| GYPAP8-17 | 2026-08-31 12:23:29 | 49.17065 | 20.98385 | 243° | 4km/h | 25380m | 7.0m/s | -50.8°C | 1.0% | 25.4hPa | 0V | 00:00:00 | 00:00:00 | 00:00:00 | |
| SQ9EZE-15 | 2026-08-31 12:23:26 | 49.17066 | 20.98385 | 86° | 5km/h | 25361m | 7.9m/s | -50.7°C | 0.9% | 25.5hPa | 0V | 00:00:00 | 00:00:00 | 00:00:00 | |
| SP9SOS | 2026-08-31 12:23:23 | 49.17065 | 20.98377 | 91° | 4km/h | 25344m | 7.3m/s | -50.7°C | 0.9% | 25.6hPa | 0V | 00:00:00 | 00:00:00 | 00:00:00 | |
| HA6NAB-11 | 2026-08-31 12:23:18 | 49.17067 | 20.98380 | 245° | 5km/h | 25312m | 5.3m/s | -50.6°C | 0.9% | 25.7hPa | 0V | 00:00:00 | 00:00:00 | 00:00:00 | |
| PG1ADW-2 | 2026-08-31 12:23:16 | 49.17069 | 20.98392 | 253° | 9km/h | 25288m | 4.6m/s | 0°C | 0% | 0hPa | 0V | 00:00:00 | 01:38:43 | 00:00:00 | |
| S52SK | 2026-08-31 12:23:13 | 49.17070 | 20.98393 | 0° | 0km/h | 25283m | 6.7m/s | -50.8°C | 0% | 0hPa | 0V | 00:00:00 | 00:00:00 | 00:00:00 | |
| HA6NAB-11 | 2026-08-31 12:23:12 | 49.17069 | 20.98393 | 59° | 7km/h | 25276m | 6.3m/s | -50.9°C | 0.9% | 25.8hPa | 0V | 00:00:00 | 00:00:00 | 00:00:00 | |
| S52SK | 2026-08-31 12:23:07 | 49.17060 | 20.98386 | 302° | 9km/h | 25247m | 4.4m/s | 0°C | 0% | 0hPa | 0V | 00:00:00 | 00:00:00 | 00:00:00 | |
| HA6NAB-11 | 2026-08-31 12:23:06 | 49.17060 | 20.98390 | 281° | 9km/h | 25241m | 5.7m/s | -51.3°C | 1.0% | 26.0hPa | 0V | 00:00:00 | 00:00:00 | 00:00:00 | |
| HA6NAB-11 | 2026-08-31 12:23:01 | 49.17061 | 20.98415 | 272° | 16km/h | 25211m | 4.8m/s | -51.3°C | 1.0% | 26.1hPa | 0V | 00:00:00 | 00:00:00 | 00:00:00 | |
| SQ9EZE-13 | 2026-08-31 12:22:59 | 49.17061 | 20.98424 | 274° | 7km/h | 25199m | 7.8m/s | -51.3°C | 1.0% | 26.1hPa | 0V | 00:00:00 | 00:00:00 | 00:00:00 | |
| SP9SOS | 2026-08-31 12:22:57 | 49.17060 | 20.98426 | 1° | 5km/h | 25186m | 5.7m/s | -51.3°C | 1.0% | 26.2hPa | 0V | 00:00:00 | 00:00:00 | 00:00:00 | |
| PG1ADW-2 | 2026-08-31 12:22:55 | 49.17054 | 20.98427 | 360° | 11km/h | 25167m | 5.0m/s | 0°C | 0% | 0hPa | 0V | 00:00:00 | 00:00:00 | 00:00:00 | |
| HA6NAB-11 | 2026-08-31 12:22:50 | 49.17050 | 20.98429 | 270° | 7km/h | 25143m | 7.1m/s | -51.4°C | 0.9% | 26.4hPa | 0V | 00:00:00 | 00:00:00 | 00:00:00 | |
| SQ9EZE-13 | 2026-08-31 12:22:45 | 49.17061 | 20.98444 | 161° | 13km/h | 25108m | 4.9m/s | -51.6°C | 1.0% | 26.5hPa | 0V | 00:00:00 | 00:00:00 | 00:00:00 | |
| SP9SOS | 2026-08-31 12:22:33 | 49.17080 | 20.98417 | 173° | 7km/h | 25038m | 6.0m/s | -52.2°C | 1.0% | 26.8hPa | 0V | 00:00:00 | 00:00:00 | 00:00:00 | |
| S52SK | 2026-08-31 12:22:31 | 49.17082 | 20.98416 | 165° | 11km/h | 25031m | 6.7m/s | 0°C | 0% | 0hPa | 0V | 00:00:00 | 00:00:00 | 00:00:00 | |
| PG1ADW-2 | 2026-08-31 12:22:30 | 49.17088 | 20.98411 | 144° | 13km/h | 25021m | 4.9m/s | 0°C | 0% | 0hPa | 0V | 00:00:00 | 00:00:00 | 00:00:00 | |
| SQ9EZE-13 | 2026-08-31 12:22:28 | 49.17090 | 20.98408 | 130° | 13km/h | 25015m | 6.2m/s | -52.3°C | 1.0% | 26.9hPa | 0V | 00:00:00 | 00:00:00 | 00:00:00 | |
| S52SK | 2026-08-31 12:22:27 | 49.17092 | 20.98400 | 79° | 11km/h | 25002m | 6.5m/s | 0°C | 0% | 0hPa | 0V | 00:00:00 | 00:00:00 | 00:00:00 | |
| GYPAP8-17 | 2026-08-31 12:22:15 | 49.17087 | 20.98350 | 85° | 15km/h | 24936m | 5.0m/s | -52.3°C | 1.0% | 27.2hPa | 0V | 00:00:00 | 00:00:00 | 00:00:00 | |
| SP9SOS | 2026-08-31 12:22:06 | 49.17078 | 20.98309 | 27° | 9km/h | 24884m | 6.6m/s | -52.3°C | 1.0% | 27.5hPa | 0V | 00:00:00 | 00:00:00 | 00:00:00 | |
| SQ9EZE-13 | 2026-08-31 12:21:57 | 49.17060 | 20.98269 | 72° | 15km/h | 24831m | 6.6m/s | -52.4°C | 1.0% | 27.7hPa | 0V | 00:00:00 | 00:00:00 | 00:00:00 | |
| SQ9EZE-15 | 2026-08-31 12:21:52 | 49.17055 | 20.98258 | 8° | 11km/h | 24801m | 5.7m/s | -52.3°C | 1.0% | 27.8hPa | 0V | 00:00:00 | 00:00:00 | 00:00:00 | |
| SQ9EZE-14 | 2026-08-31 12:21:47 | 49.17040 | 20.98249 | 28° | 18km/h | 24771m | 6.5m/s | -52.3°C | 1.0% | 27.9hPa | 0V | 00:00:00 | 00:00:00 | 00:00:00 | |
| SQ9EZE-13 | 2026-08-31 12:21:42 | 49.17025 | 20.98233 | 47° | 11km/h | 24742m | 6.1m/s | -52.4°C | 1.0% | 28.1hPa | 0V | 00:00:00 | 00:00:00 | 00:00:00 | |
| SP9SOS | 2026-08-31 12:21:40 | 49.17020 | 20.98227 | 45° | 13km/h | 24730m | 4.4m/s | -52.4°C | 1.0% | 28.1hPa | 0V | 00:00:00 | 00:00:00 | 00:00:00 | |
| SQ9EZE-14 | 2026-08-31 12:21:32 | 49.17000 | 20.98218 | 352° | 15km/h | 24683m | 7.2m/s | -52.5°C | 1.0% | 28.3hPa | 0V | 00:00:00 | 00:00:00 | 00:00:00 | |
| SQ9EZE-15 | 2026-08-31 12:21:31 | 49.16997 | 20.98219 | 348° | 15km/h | 24677m | 5.1m/s | -52.5°C | 1.1% | 28.4hPa | 0V | 00:00:00 | 00:00:00 | 00:00:00 | |
| SQ9EZE-13 | 2026-08-31 12:21:26 | 49.16978 | 20.98223 | 345° | 11km/h | 24649m | 6.9m/s | -52.5°C | 1.1% | 28.5hPa | 0V | 00:00:00 | 00:00:00 | 00:00:00 | |
| HA6NAB-11 | 2026-08-31 12:21:15 | 49.16940 | 20.98256 | 360° | 15km/h | 24585m | 6.2m/s | -52.5°C | 1.0% | 28.8hPa | 0V | 00:00:00 | 00:00:00 | 00:00:00 | |
| SP9SOS | 2026-08-31 12:21:14 | 49.16936 | 20.98255 | 8° | 13km/h | 24579m | 4.3m/s | -52.5°C | 1.0% | 28.8hPa | 0V | 00:00:00 | 00:00:00 | 00:00:00 | |
| HA6NAB-11 | 2026-08-31 12:21:10 | 49.16930 | 20.98256 | 342° | 9km/h | 24551m | 6.8m/s | -52.4°C | 1.1% | 28.9hPa | 0V | 00:00:00 | 00:00:00 | 00:00:00 | |
| HA6NAB-11 | 2026-08-31 12:21:04 | 49.16910 | 20.98262 | 358° | 22km/h | 24523m | 5.6m/s | -52.3°C | 1.0% | 29.0hPa | 0V | 00:00:00 | 00:00:00 | 00:00:00 | |
| HA6NAB-11 | 2026-08-31 12:20:58 | 49.16881 | 20.98265 | 308° | 7km/h | 24489m | 5.6m/s | -52.3°C | 1.0% | 29.2hPa | 0V | 00:00:00 | 00:00:00 | 00:00:00 | |
| SQ9EZE-13 | 2026-08-31 12:20:54 | 49.16877 | 20.98273 | 342° | 7km/h | 24466m | 4.9m/s | -52.3°C | 1.1% | 29.3hPa | 0V | 00:00:00 | 00:00:00 | 00:00:00 | |
| HA6NAB-11 | 2026-08-31 12:20:53 | 49.16875 | 20.98274 | 345° | 7km/h | 24461m | 5.2m/s | -52.4°C | 1.1% | 29.3hPa | 0V | 00:00:00 | 00:00:00 | 00:00:00 | |
| SP9SOS | 2026-08-31 12:20:48 | 49.16858 | 20.98282 | 345° | 22km/h | 24431m | 5.1m/s | -52.3°C | 1.1% | 29.5hPa | 0V | 00:00:00 | 00:00:00 | 00:00:00 | |
| HA6NAB-11 | 2026-08-31 12:20:47 | 49.16853 | 20.98285 | 337° | 24km/h | 24426m | 4.8m/s | -52.4°C | 1.0% | 29.5hPa | 0V | 00:00:00 | 00:00:00 | 00:00:00 | |
| SQ9EZE-13 | 2026-08-31 12:20:40 | 49.16819 | 20.98326 | 320° | 13km/h | 24381m | 6.0m/s | -52.2°C | 1.0% | 29.7hPa | 0V | 00:00:00 | 00:00:00 | 00:00:00 | |
| HA6NAB-11 | 2026-08-31 12:20:36 | 49.16815 | 20.98336 | 307° | 11km/h | 24364m | 5.0m/s | -52.0°C | 1.0% | 29.8hPa | 0V | 00:00:00 | 00:00:00 | 00:00:00 | |
| S52SK | 2026-08-31 12:20:35 | 49.16813 | 20.98340 | 321° | 13km/h | 24358m | 6.8m/s | 0°C | 0% | 0hPa | 0V | 00:00:00 | 00:00:00 | 00:00:00 | |
| HA6NAB-11 | 2026-08-31 12:20:30 | 49.16795 | 20.98369 | 304° | 27km/h | 24330m | 4.5m/s | -52.2°C | 1.0% | 29.9hPa | 0V | 00:00:00 | 00:00:00 | 00:00:00 | |
| S52SK | 2026-08-31 12:20:29 | 49.16791 | 20.98378 | 307° | 27km/h | 24325m | 6.1m/s | 0°C | 0% | 0hPa | 0V | 00:00:00 | 00:00:00 | 00:00:00 | |
| HA6NAB-11 | 2026-08-31 12:20:25 | 49.16775 | 20.98412 | 296° | 27km/h | 24302m | 7.2m/s | -52.2°C | 1.0% | 30.1hPa | 0V | 00:00:00 | 00:00:00 | 00:00:00 | |
| SP9SOS | 2026-08-31 12:20:23 | 49.16771 | 20.98429 | 289° | 22km/h | 24290m | 5.6m/s | -52.2°C | 1.0% | 30.1hPa | 0V | 00:00:00 | 00:00:00 | 00:00:00 | |
| HA6NAB-11 | 2026-08-31 12:20:18 | 49.16765 | 20.98463 | 280° | 22km/h | 24261m | 5.4m/s | -52.3°C | 1.0% | 30.3hPa | 0V | 00:00:00 | 00:00:00 | 00:00:00 | |
| HA6NAB-11 | 2026-08-31 12:20:13 | 49.16756 | 20.98502 | 296° | 24km/h | 24232m | 6.6m/s | -52.1°C | 1.0% | 30.4hPa | 0V | 00:00:00 | 00:00:00 | 00:00:00 | |
| HA6NAB-11 | 2026-08-31 12:20:08 | 49.16747 | 20.98543 | 280° | 16km/h | 24203m | 4.5m/s | -52.2°C | 1.1% | 30.5hPa | 0V | 00:00:00 | 00:00:00 | 00:00:00 | |
| SQ9EZE-13 | 2026-08-31 12:20:07 | 49.16746 | 20.98549 | 264° | 16km/h | 24199m | 4.9m/s | -52.1°C | 1.0% | 30.6hPa | 0V | 00:00:00 | 00:00:00 | 00:00:00 | |
| SP9SOS | 2026-08-31 12:19:57 | 49.16751 | 20.98612 | 292° | 22km/h | 24140m | 4.3m/s | -52.2°C | 1.0% | 30.8hPa | 0V | 00:00:00 | 00:00:00 | 00:00:00 | |
| GYPAP8-17 | 2026-08-31 12:19:54 | 49.16749 | 20.98630 | 243° | 11km/h | 24124m | 5.7m/s | -52.2°C | 1.0% | 30.9hPa | 0V | 00:00:00 | 00:00:00 | 00:00:00 | |
| SQ9EZE-15 | 2026-08-31 12:19:52 | 49.16755 | 20.98637 | 208° | 20km/h | 24112m | 7.3m/s | -52.0°C | 1.1% | 31.0hPa | 0V | 00:00:00 | 00:00:00 | 00:00:00 | |
| HA6NAB-11 | 2026-08-31 12:19:50 | 49.16766 | 20.98644 | 201° | 24km/h | 24100m | 4.9m/s | -52.0°C | 1.1% | 31.0hPa | 0V | 00:00:00 | 00:00:00 | 00:00:00 | |
| HA6NAB-11 | 2026-08-31 12:19:45 | 49.16773 | 20.98665 | 299° | 22km/h | 24071m | 6.5m/s | -52.0°C | 1.0% | 31.2hPa | 0V | 00:00:00 | 00:00:00 | 00:00:00 | |
| HA6NAB-11 | 2026-08-31 12:19:39 | 49.16759 | 20.98695 | 258° | 5km/h | 24038m | 6.7m/s | -52.1°C | 1.0% | 31.3hPa | 0V | 00:00:00 | 00:00:00 | 00:00:00 | |
| SQ9EZE-13 | 2026-08-31 12:19:36 | 49.16766 | 20.98696 | 161° | 16km/h | 24020m | 7.2m/s | -52.0°C | 1.0% | 31.4hPa | 0V | 00:00:00 | 00:00:00 | 00:00:00 | |
| SQ9EZE-15 | 2026-08-31 12:19:33 | 49.16780 | 20.98691 | 214° | 13km/h | 23998m | 6.2m/s | -52.0°C | 1.0% | 31.5hPa | 0V | 00:00:00 | 00:00:00 | 00:00:00 | |
| SP9SOS | 2026-08-31 12:19:31 | 49.16782 | 20.98695 | 259° | 15km/h | 23993m | 5.3m/s | -51.9°C | 1.0% | 31.5hPa | 0V | 00:00:00 | 00:00:00 | 00:00:00 | |
| SQ9EZE-14 | 2026-08-31 12:19:21 | 49.16785 | 20.98726 | 144° | 15km/h | 23936m | 6.8m/s | -52.0°C | 1.0% | 31.8hPa | 0V | 00:00:00 | 00:00:00 | 00:00:00 | |
| SQ9EZE-13 | 2026-08-31 12:19:20 | 49.16788 | 20.98723 | 134° | 11km/h | 23930m | 5.1m/s | -51.9°C | 1.0% | 31.8hPa | 0V | 00:00:00 | 00:00:00 | 00:00:00 | |
| S52SK | 2026-08-31 12:19:15 | 49.16793 | 20.98719 | 311° | 5km/h | 23902m | 7.3m/s | 0°C | 0% | 0hPa | 0V | 00:00:00 | 00:00:00 | 00:00:00 | |
| S52SK | 2026-08-31 12:19:09 | 49.16790 | 20.98730 | 202° | 7km/h | 23867m | 5.7m/s | 0°C | 0% | 0hPa | 0V | 00:00:00 | 00:00:00 | 00:00:00 | |
| SP9SOS | 2026-08-31 12:19:05 | 49.16795 | 20.98726 | 125° | 5km/h | 23844m | 6.6m/s | -52.6°C | 1.0% | 32.3hPa | 0V | 00:00:00 | 00:00:00 | 00:00:00 | |
| S52SK | 2026-08-31 12:19:04 | 49.16795 | 20.98724 | 130° | 4km/h | 23837m | 6.4m/s | 0°C | 0% | 0hPa | 0V | 00:00:00 | 00:00:00 | 00:00:00 | |
| S52SK | 2026-08-31 12:18:58 | 49.16786 | 20.98721 | 343° | 9km/h | 23801m | 6.8m/s | 0°C | 0% | 0hPa | 0V | 00:00:00 | 00:00:00 | 00:00:00 | |
| SQ9EZE-13 | 2026-08-31 12:18:49 | 49.16787 | 20.98721 | 138° | 7km/h | 23748m | 6.4m/s | -53.4°C | 1.1% | 32.8hPa | 0V | 00:00:00 | 00:00:00 | 00:00:00 | |
| GYPAP8-17 | 2026-08-31 12:18:42 | 49.16783 | 20.98709 | 39° | 4km/h | 23707m | 6.7m/s | -53.5°C | 1.1% | 33.0hPa | 0V | 00:00:00 | 00:00:00 | 00:00:00 | |
| SP9SOS | 2026-08-31 12:18:39 | 49.16780 | 20.98708 | 331° | 2km/h | 23689m | 7.5m/s | -53.6°C | 1.2% | 33.1hPa | 0V | 00:00:00 | 00:00:00 | 00:00:00 | |
| SQ9EZE-13 | 2026-08-31 12:18:34 | 49.16784 | 20.98701 | 125° | 13km/h | 23659m | 4.9m/s | -53.7°C | 1.1% | 33.2hPa | 0V | 00:00:00 | 00:00:00 | 00:00:00 | |
| SP9SOS | 2026-08-31 12:18:14 | 49.16808 | 20.98633 | 147° | 11km/h | 23538m | 5.9m/s | -53.4°C | 1.1% | 33.9hPa | 0V | 00:00:00 | 00:00:00 | 00:00:00 | |
| SQ9EZE-13 | 2026-08-31 12:18:04 | 49.16811 | 20.98614 | 105° | 13km/h | 23479m | 5.3m/s | -53.6°C | 1.1% | 34.2hPa | 0V | 00:00:00 | 00:00:00 | 00:00:00 | |
| SP9SOS | 2026-08-31 12:17:48 | 49.16825 | 20.98550 | 117° | 16km/h | 23385m | 6.5m/s | -53.8°C | 1.1% | 34.7hPa | 0V | 00:00:00 | 00:00:00 | 00:00:00 | |
| GYPAP8-17 | 2026-08-31 12:17:35 | 49.16826 | 20.98475 | 64° | 15km/h | 23311m | 6.7m/s | -53.9°C | 1.2% | 35.1hPa | 0V | 00:00:00 | 00:00:00 | 00:00:00 | |
| SQ9EZE-13 | 2026-08-31 12:17:32 | 49.16821 | 20.98461 | 72° | 16km/h | 23294m | 6.9m/s | -54.0°C | 1.1% | 35.2hPa | 0V | 00:00:00 | 00:00:00 | 00:00:00 | |
| HA6NAB-11 | 2026-08-31 12:17:25 | 49.16797 | 20.98429 | 27° | 24km/h | 23253m | 6.1m/s | -54.3°C | 1.2% | 35.4hPa | 0V | 00:00:00 | 00:00:00 | 00:00:00 | |
| SP9SOS | 2026-08-31 12:17:22 | 49.16785 | 20.98420 | 15° | 11km/h | 23236m | 7.3m/s | -54.3°C | 1.2% | 35.5hPa | 0V | 00:00:00 | 00:00:00 | 00:00:00 | |
| SQ9EZE-15 | 2026-08-31 12:17:20 | 49.16782 | 20.98421 | 350° | 4km/h | 23225m | 5.6m/s | -54.2°C | 1.2% | 35.6hPa | 0V | 00:00:00 | 00:00:00 | 00:00:00 | |
| SQ9EZE-13 | 2026-08-31 12:17:16 | 49.16776 | 20.98417 | 13° | 9km/h | 23200m | 7.2m/s | -54.3°C | 1.2% | 35.7hPa | 0V | 00:00:00 | 00:00:00 | 00:00:00 | |
| HA6NAB-11 | 2026-08-31 12:17:15 | 49.16773 | 20.98416 | 12° | 13km/h | 23193m | 5.7m/s | -54.3°C | 1.2% | 35.7hPa | 0V | 00:00:00 | 00:00:00 | 00:00:00 | |
| HA6NAB-11 | 2026-08-31 12:17:09 | 49.16744 | 20.98408 | 343° | 20km/h | 23160m | 6.3m/s | -54.3°C | 1.2% | 35.9hPa | 0V | 00:00:00 | 00:00:00 | 00:00:00 | |
| HA6NAB-11 | 2026-08-31 12:17:04 | 49.16728 | 20.98427 | 309° | 15km/h | 23132m | 5.1m/s | -54.1°C | 1.2% | 36.1hPa | 0V | 00:00:00 | 00:00:00 | 00:00:00 | |
| SQ9EZE-13 | 2026-08-31 12:17:00 | 49.16717 | 20.98442 | 348° | 15km/h | 23109m | 7.2m/s | -53.9°C | 1.2% | 36.2hPa | 0V | 00:00:00 | 00:00:00 | 00:00:00 | |
| HA6NAB-11 | 2026-08-31 12:16:58 | 49.16710 | 20.98442 | 1° | 16km/h | 23098m | 4.1m/s | -53.7°C | 1.1% | 36.3hPa | 0V | 00:00:00 | 00:00:00 | 00:00:00 | |
| SP9SOS | 2026-08-31 12:16:57 | 49.16706 | 20.98442 | 353° | 16km/h | 23093m | 6.5m/s | -53.8°C | 1.1% | 36.3hPa | 0V | 00:00:00 | 00:00:00 | 00:00:00 | |
| HA6NAB-11 | 2026-08-31 12:16:53 | 49.16693 | 20.98453 | 328° | 13km/h | 23071m | 6.2m/s | -53.7°C | 1.1% | 36.4hPa | 0V | 00:00:00 | 00:00:00 | 00:00:00 | |
| SQ9EZE-14 | 2026-08-31 12:16:48 | 49.16682 | 20.98464 | 298° | 9km/h | 23041m | 5.0m/s | -53.6°C | 1.1% | 36.6hPa | 0V | 00:00:00 | 00:00:00 | 00:00:00 | |
| HA6NAB-11 | 2026-08-31 12:16:47 | 49.16681 | 20.98467 | 296° | 7km/h | 23036m | 4.9m/s | -53.7°C | 1.1% | 36.6hPa | 0V | 00:00:00 | 00:00:00 | 00:00:00 | |
| SQ9EZE-13 | 2026-08-31 12:16:44 | 49.16679 | 20.98468 | 50° | 4km/h | 23018m | 5.2m/s | -53.8°C | 1.2% | 36.7hPa | 0V | 00:00:00 | 00:00:00 | 00:00:00 | |
| HA6NAB-11 | 2026-08-31 12:16:40 | 49.16676 | 20.98465 | 18° | 5km/h | 22995m | 6.8m/s | -53.8°C | 1.1% | 36.9hPa | 0V | 00:00:00 | 00:00:00 | 00:00:00 | |
| HA6NAB-11 | 2026-08-31 12:16:34 | 49.16668 | 20.98471 | 263° | 5km/h | 22961m | 5.0m/s | -53.7°C | 1.2% | 37.0hPa | 0V | 00:00:00 | 00:00:00 | 00:00:00 | |
| SQ9EZE-14 | 2026-08-31 12:16:33 | 49.16668 | 20.98472 | 223° | 2km/h | 22955m | 6.4m/s | -53.7°C | 1.1% | 37.1hPa | 0V | 00:00:00 | 00:00:00 | 00:00:00 | |
| HA6NAB-11 | 2026-08-31 12:16:29 | 49.16673 | 20.98469 | 157° | 5km/h | 22931m | 5.7m/s | -53.6°C | 1.1% | 37.2hPa | 0V | 00:00:00 | 00:00:00 | 00:00:00 | |
| SQ9EZE-13 | 2026-08-31 12:16:28 | 49.16674 | 20.98468 | 136° | 5km/h | 22926m | 5.7m/s | -53.6°C | 1.2% | 37.3hPa | 0V | 00:00:00 | 00:00:00 | 00:00:00 | |
| HA6NAB-11 | 2026-08-31 12:16:23 | 49.16673 | 20.98461 | 0° | 0km/h | 22896m | 5.3m/s | -53.5°C | 1.1% | 37.4hPa | 0V | 00:00:00 | 00:00:00 | 00:00:00 | |
| SQ9EZE-13 | 2026-08-31 12:16:12 | 49.16680 | 20.98458 | 149° | 7km/h | 22831m | 6.5m/s | -53.6°C | 1.2% | 37.8hPa | 0V | 00:00:00 | 00:00:00 | 00:00:00 | |
| SP9SOS | 2026-08-31 12:16:06 | 49.16682 | 20.98449 | 2° | 4km/h | 22797m | 6.8m/s | -53.6°C | 1.2% | 38.0hPa | 0V | 00:00:00 | 00:00:00 | 00:00:00 | |
| SQ9EZE-13 | 2026-08-31 12:15:56 | 49.16671 | 20.98430 | 74° | 16km/h | 22738m | 6.0m/s | -53.4°C | 1.1% | 38.4hPa | 0V | 00:00:00 | 00:00:00 | 00:00:00 | |
| SQ9EZE-13 | 2026-08-31 12:15:40 | 49.16637 | 20.98355 | 52° | 15km/h | 22646m | 5.0m/s | -53.2°C | 1.1% | 38.9hPa | 0V | 00:00:00 | 00:00:00 | 00:00:00 | |
| GYPAP8-17 | 2026-08-31 12:15:25 | 49.16581 | 20.98260 | 47° | 29km/h | 22559m | 6.6m/s | -53.3°C | 1.2% | 39.5hPa | 0V | 00:00:00 | 00:00:00 | 00:00:00 | |
| SQ9EZE-13 | 2026-08-31 12:15:24 | 49.16575 | 20.98252 | 41° | 31km/h | 22553m | 5.7m/s | -53.3°C | 1.2% | 39.5hPa | 0V | 00:00:00 | 00:00:00 | 00:00:00 | |
| SQ9EZE-15 | 2026-08-31 12:15:18 | 49.16533 | 20.98197 | 54° | 31km/h | 22511m | 6.6m/s | -53.1°C | 1.1% | 39.7hPa | 0V | 00:00:00 | 00:00:00 | 00:00:00 | |
| SP9SOS | 2026-08-31 12:15:14 | 49.16520 | 20.98173 | 50° | 27km/h | 22494m | 6.0m/s | -53.1°C | 1.1% | 39.9hPa | 0V | 00:00:00 | 00:00:00 | 00:00:00 | |
| SQ9EZE-13 | 2026-08-31 12:15:08 | 49.16484 | 20.98143 | 14° | 29km/h | 22458m | 6.0m/s | -53.0°C | 1.1% | 40.1hPa | 0V | 00:00:00 | 00:00:00 | 00:00:00 | |
| SQ9EZE-15 | 2026-08-31 12:14:57 | 49.16423 | 20.98099 | 17° | 22km/h | 22395m | 7.0m/s | -52.8°C | 1.1% | 40.5hPa | 0V | 00:00:00 | 00:00:00 | 00:00:00 | |
| SQ9EZE-13 | 2026-08-31 12:14:52 | 49.16396 | 20.98090 | 15° | 18km/h | 22366m | 6.1m/s | -52.7°C | 1.1% | 40.7hPa | 0V | 00:00:00 | 00:00:00 | 00:00:00 | |
| SP9SOS | 2026-08-31 12:14:48 | 49.16383 | 20.98078 | 44° | 18km/h | 22344m | 6.7m/s | -52.6°C | 1.1% | 40.8hPa | 0V | 00:00:00 | 00:00:00 | 00:00:00 | |
| SQ9EZE-13 | 2026-08-31 12:14:36 | 49.16331 | 20.98064 | 5° | 13km/h | 22275m | 5.5m/s | -52.4°C | 1.1% | 41.2hPa | 0V | 00:00:00 | 00:00:00 | 00:00:00 | |
| SP9SOS | 2026-08-31 12:14:22 | 49.16285 | 20.98077 | 340° | 13km/h | 22193m | 6.0m/s | -52.6°C | 1.1% | 41.8hPa | 0V | 00:00:00 | 00:00:00 | 00:00:00 | |
| SQ9EZE-14 | 2026-08-31 12:14:21 | 49.16282 | 20.98078 | 351° | 13km/h | 22187m | 6.3m/s | -52.7°C | 1.1% | 41.8hPa | 0V | 00:00:00 | 00:00:00 | 00:00:00 | |
| SQ9EZE-13 | 2026-08-31 12:14:05 | 49.16259 | 20.98106 | 278° | 7km/h | 22094m | 5.1m/s | -52.8°C | 1.1% | 42.4hPa | 0V | 00:00:00 | 00:00:00 | 00:00:00 | |
| SP9SOS | 2026-08-31 12:13:56 | 49.16242 | 20.98151 | 304° | 15km/h | 22042m | 4.4m/s | -52.8°C | 1.1% | 42.8hPa | 0V | 00:00:00 | 00:00:00 | 00:00:00 | |
| SQ9EZE-13 | 2026-08-31 12:13:49 | 49.16237 | 20.98173 | 305° | 5km/h | 22004m | 4.7m/s | -52.8°C | 1.1% | 43.0hPa | 0V | 00:00:00 | 00:00:00 | 00:00:00 | |
| SQ9EZE-15 | 2026-08-31 12:13:46 | 49.16236 | 20.98180 | 257° | 5km/h | 21988m | 6.5m/s | -52.8°C | 1.1% | 43.1hPa | 0V | 00:00:00 | 00:00:00 | 00:00:00 | |
| SQ9EZE-13 | 2026-08-31 12:13:34 | 49.16234 | 20.98228 | 273° | 13km/h | 21922m | 5.7m/s | -53.0°C | 1.1% | 43.6hPa | 0V | 00:00:00 | 00:00:00 | 00:00:00 | |
| SP9SOS | 2026-08-31 12:13:31 | 49.16233 | 20.98245 | 271° | 16km/h | 21905m | 5.8m/s | -53.0°C | 1.1% | 43.7hPa | 0V | 00:00:00 | 00:00:00 | 00:00:00 | |
| SQ9EZE-15 | 2026-08-31 12:13:26 | 49.16235 | 20.98275 | 269° | 9km/h | 21878m | 4.9m/s | -52.8°C | 1.1% | 43.9hPa | 0V | 00:00:00 | 00:00:00 | 00:00:00 | |
| SQ9EZE-13 | 2026-08-31 12:13:18 | 49.16247 | 20.98299 | 228° | 15km/h | 21835m | 6.3m/s | -52.9°C | 1.1% | 44.1hPa | 0V | 00:00:00 | 00:00:00 | 00:00:00 | |
| GYPAP8-17 | 2026-08-31 12:13:06 | 49.16282 | 20.98328 | 174° | 13km/h | 21769m | 4.7m/s | -52.6°C | 1.1% | 44.6hPa | 0V | 00:00:00 | 00:00:00 | 00:00:00 | |
| SP9SOS | 2026-08-31 12:13:05 | 49.16286 | 20.98327 | 187° | 13km/h | 21764m | 6.4m/s | -52.7°C | 1.1% | 44.7hPa | 0V | 00:00:00 | 00:00:00 | 00:00:00 | |
| SQ9EZE-13 | 2026-08-31 12:13:03 | 49.16292 | 20.98331 | 207° | 13km/h | 21753m | 4.8m/s | -52.6°C | 1.1% | 44.7hPa | 0V | 00:00:00 | 00:00:00 | 00:00:00 | |
| SQ9EZE-13 | 2026-08-31 12:12:48 | 49.16321 | 20.98317 | 135° | 11km/h | 21670m | 4.6m/s | -52.8°C | 1.1% | 45.3hPa | 0V | 00:00:00 | 00:00:00 | 00:00:00 | |
| HA6NAB-11 | 2026-08-31 12:12:41 | 49.16328 | 20.98306 | 109° | 4km/h | 21632m | 5.7m/s | -52.8°C | 1.1% | 45.6hPa | 0V | 00:00:00 | 00:00:00 | 00:00:00 | |
| HA6NAB-11 | 2026-08-31 12:12:35 | 49.16336 | 20.98285 | 145° | 15km/h | 21599m | 5.4m/s | -52.8°C | 1.1% | 45.8hPa | 0V | 00:00:00 | 00:00:00 | 00:00:00 | |
| SQ9EZE-13 | 2026-08-31 12:12:32 | 49.16346 | 20.98275 | 151° | 16km/h | 21582m | 4.8m/s | -52.8°C | 1.1% | 45.9hPa | 0V | 00:00:00 | 00:00:00 | 00:00:00 | |
| HA6NAB-11 | 2026-08-31 12:12:30 | 49.16353 | 20.98271 | 164° | 15km/h | 21571m | 5.7m/s | -52.7°C | 1.1% | 46.0hPa | 0V | 00:00:00 | 00:00:00 | 00:00:00 | |
| HA6NAB-11 | 2026-08-31 12:12:24 | 49.16358 | 20.98256 | 49° | 5km/h | 21539m | 5.4m/s | -52.6°C | 1.1% | 46.3hPa | 0V | 00:00:00 | 00:00:00 | 00:00:00 | |
| SQ9EZE-13 | 2026-08-31 12:12:17 | 49.16360 | 20.98237 | 149° | 9km/h | 21502m | 4.9m/s | -52.8°C | 1.1% | 46.5hPa | 0V | 00:00:00 | 00:00:00 | 00:00:00 | |
| SP9SOS | 2026-08-31 12:12:15 | 49.16363 | 20.98233 | 129° | 9km/h | 21491m | 6.3m/s | -52.8°C | 1.1% | 46.6hPa | 0V | 00:00:00 | 00:00:00 | 00:00:00 | |
| SQ9EZE-15 | 2026-08-31 12:12:13 | 49.16365 | 20.98227 | 96° | 9km/h | 21481m | 4.0m/s | -52.8°C | 1.1% | 46.7hPa | 0V | 00:00:00 | 00:00:00 | 00:00:00 | |
| SQ9EZE-13 | 2026-08-31 12:12:01 | 49.16356 | 20.98191 | 66° | 9km/h | 21416m | 3.8m/s | -52.9°C | 1.1% | 47.1hPa | 0V | 00:00:00 | 00:00:00 | 00:00:00 | |
| GYPAP8-17 | 2026-08-31 12:11:58 | 49.16352 | 20.98184 | 38° | 7km/h | 21401m | 4.8m/s | -52.9°C | 1.1% | 47.2hPa | 0V | 00:00:00 | 00:00:00 | 00:00:00 | |
| SQ9EZE-14 | 2026-08-31 12:11:53 | 49.16342 | 20.98163 | 60° | 15km/h | 21373m | 5.8m/s | -53.0°C | 1.2% | 47.4hPa | 0V | 00:00:00 | 00:00:00 | 00:00:00 | |
| SP9SOS | 2026-08-31 12:11:49 | 49.16331 | 20.98149 | 28° | 18km/h | 21352m | 5.4m/s | -52.9°C | 1.1% | 47.6hPa | 0V | 00:00:00 | 00:00:00 | 00:00:00 | |
| SQ9EZE-13 | 2026-08-31 12:11:45 | 49.16317 | 20.98142 | 25° | 13km/h | 21330m | 5.0m/s | -52.9°C | 1.1% | 47.8hPa | 0V | 00:00:00 | 00:00:00 | 00:00:00 | |
| SQ9EZE-14 | 2026-08-31 12:11:38 | 49.16295 | 20.98124 | 36° | 16km/h | 21293m | 5.7m/s | -53.2°C | 1.1% | 48.0hPa | 0V | 00:00:00 | 00:00:00 | 00:00:00 | |
| SQ9EZE-13 | 2026-08-31 12:11:29 | 49.16269 | 20.98116 | 355° | 13km/h | 21246m | 5.6m/s | -53.5°C | 1.1% | 48.4hPa | 0V | 00:00:00 | 00:00:00 | 00:00:00 | |
| SP9SOS | 2026-08-31 12:11:24 | 49.16245 | 20.98106 | 23° | 26km/h | 21219m | 5.3m/s | -53.6°C | 1.2% | 48.6hPa | 0V | 00:00:00 | 00:00:00 | 00:00:00 | |
| SQ9EZE-13 | 2026-08-31 12:11:14 | 49.16214 | 20.98106 | 342° | 7km/h | 21169m | 5.8m/s | -53.8°C | 1.2% | 49.0hPa | 0V | 00:00:00 | 00:00:00 | 00:00:00 | |
| SP9SOS | 2026-08-31 12:10:58 | 49.16181 | 20.98087 | 31° | 7km/h | 21083m | 6.6m/s | -53.9°C | 1.2% | 49.6hPa | 0V | 00:00:00 | 00:00:00 | 00:00:00 | |
| GYPAP8-17 | 2026-08-31 12:10:56 | 49.16177 | 20.98084 | 33° | 11km/h | 21071m | 5.5m/s | -53.9°C | 1.2% | 49.7hPa | 0V | 00:00:00 | 00:00:00 | 00:00:00 | |
| SQ9EZE-13 | 2026-08-31 12:10:42 | 49.16136 | 20.98027 | 52° | 20km/h | 20997m | 4.9m/s | -54.0°C | 1.2% | 50.3hPa | 0V | 00:00:00 | 00:00:00 | 00:00:00 | |
| SQ9EZE-15 | 2026-08-31 12:10:39 | 49.16119 | 20.98011 | 13° | 20km/h | 20977m | 4.6m/s | -54.0°C | 1.2% | 50.5hPa | 0V | 00:00:00 | 00:00:00 | 00:00:00 | |
| SP9SOS | 2026-08-31 12:10:33 | 49.16099 | 20.98007 | 4° | 16km/h | 20950m | 4.7m/s | -54.1°C | 1.2% | 50.7hPa | 0V | 00:00:00 | 00:00:00 | 00:00:00 | |
| SQ9EZE-13 | 2026-08-31 12:10:26 | 49.16079 | 20.98001 | 27° | 16km/h | 20913m | 4.1m/s | -54.3°C | 1.2% | 51.0hPa | 0V | 00:00:00 | 00:00:00 | 00:00:00 | |
| SQ9EZE-13 | 2026-08-31 12:10:11 | 49.16014 | 20.97995 | 357° | 15km/h | 20832m | 4.0m/s | -54.0°C | 1.2% | 51.6hPa | 0V | 00:00:00 | 00:00:00 | 00:00:00 | |
| SP9SOS | 2026-08-31 12:10:08 | 49.15998 | 20.97995 | 2° | 11km/h | 20811m | 6.4m/s | -54.0°C | 1.2% | 51.8hPa | 0V | 00:00:00 | 00:00:00 | 00:00:00 | |
| SQ9EZE-13 | 2026-08-31 12:09:56 | 49.15963 | 20.98012 | 335° | 16km/h | 20753m | 4.1m/s | -54.0°C | 1.2% | 52.3hPa | 0V | 00:00:00 | 00:00:00 | 00:00:00 | |
| GYPAP8-17 | 2026-08-31 12:09:48 | 49.15943 | 20.98038 | 301° | 13km/h | 20708m | 5.2m/s | -54.3°C | 1.2% | 52.6hPa | 0V | 00:00:00 | 00:00:00 | 00:00:00 | |
| SP9SOS | 2026-08-31 12:09:42 | 49.15930 | 20.98068 | 290° | 15km/h | 20676m | 5.7m/s | -54.4°C | 1.2% | 52.9hPa | 0V | 00:00:00 | 00:00:00 | 00:00:00 | |
| SQ9EZE-13 | 2026-08-31 12:09:40 | 49.15928 | 20.98079 | 280° | 16km/h | 20667m | 4.9m/s | -54.4°C | 1.2% | 53.0hPa | 0V | 00:00:00 | 00:00:00 | 00:00:00 | |
| SQ9EZE-14 | 2026-08-31 12:09:27 | 49.15916 | 20.98120 | 300° | 9km/h | 20599m | 5.7m/s | -54.2°C | 1.2% | 53.6hPa | 0V | 00:00:00 | 00:00:00 | 00:00:00 | |
| SQ9EZE-13 | 2026-08-31 12:09:24 | 49.15911 | 20.98128 | 309° | 9km/h | 20583m | 5.2m/s | -54.3°C | 1.2% | 53.7hPa | 0V | 00:00:00 | 00:00:00 | 00:00:00 | |
| SP9SOS | 2026-08-31 12:09:16 | 49.15909 | 20.98123 | 91° | 7km/h | 20540m | 4.2m/s | -54.2°C | 1.2% | 54.0hPa | 0V | 00:00:00 | 00:00:00 | 00:00:00 | |
| SQ9EZE-14 | 2026-08-31 12:09:11 | 49.15908 | 20.98111 | 121° | 4km/h | 20514m | 5.3m/s | -54.6°C | 1.2% | 54.3hPa | 0V | 00:00:00 | 00:00:00 | 00:00:00 | |
| SQ9EZE-13 | 2026-08-31 12:09:09 | 49.15908 | 20.98108 | 78° | 4km/h | 20503m | 6.5m/s | -54.6°C | 1.2% | 54.4hPa | 0V | 00:00:00 | 00:00:00 | 00:00:00 | |
| SP9SOS | 2026-08-31 12:08:50 | 49.15889 | 20.98039 | 73° | 15km/h | 20401m | 5.0m/s | -54.6°C | 1.2% | 55.2hPa | 0V | 00:00:00 | 00:00:00 | 00:00:00 | |
| SQ9EZE-13 | 2026-08-31 12:08:37 | 49.15873 | 20.97990 | 63° | 7km/h | 20330m | 5.8m/s | -54.5°C | 1.2% | 55.9hPa | 0V | 00:00:00 | 00:00:00 | 00:00:00 | |
| GYPAP8-17 | 2026-08-31 12:08:33 | 49.15871 | 20.97981 | 58° | 7km/h | 20310m | 5.0m/s | -54.5°C | 1.2% | 56.0hPa | 0V | 00:00:00 | 00:00:00 | 00:00:00 | |
| SP9SOS | 2026-08-31 12:08:25 | 49.15854 | 20.97965 | 38° | 9km/h | 20267m | 5.7m/s | -54.6°C | 1.2% | 56.4hPa | 0V | 00:00:00 | 00:00:00 | 00:00:00 | |
| SQ9EZE-15 | 2026-08-31 12:08:24 | 49.15852 | 20.97962 | 53° | 7km/h | 20262m | 4.2m/s | -54.6°C | 1.2% | 56.4hPa | 0V | 00:00:00 | 00:00:00 | 00:00:00 | |
| SQ9EZE-13 | 2026-08-31 12:08:21 | 49.15850 | 20.97958 | 26° | 4km/h | 20246m | 4.9m/s | -54.6°C | 1.2% | 56.6hPa | 0V | 00:00:00 | 00:00:00 | 00:00:00 | |
| SQ9EZE-13 | 2026-08-31 12:08:06 | 49.15823 | 20.97949 | 55° | 5km/h | 20169m | 5.0m/s | -54.7°C | 1.2% | 57.3hPa | 0V | 00:00:00 | 00:00:00 | 00:00:00 | |
| SQ9EZE-15 | 2026-08-31 12:08:04 | 49.15821 | 20.97945 | 49° | 5km/h | 20159m | 5.4m/s | -54.8°C | 1.3% | 57.4hPa | 0V | 00:00:00 | 00:00:00 | 00:00:00 | |
| SP9SOS | 2026-08-31 12:08:01 | 49.15816 | 20.97935 | 53° | 9km/h | 20136m | 4.9m/s | -54.8°C | 1.3% | 57.6hPa | 0V | 00:00:00 | 00:00:00 | 00:00:00 | |
| SQ9EZE-13 | 2026-08-31 12:07:50 | 49.15801 | 20.97914 | 36° | 11km/h | 20086m | 5.1m/s | -54.8°C | 1.3% | 58.0hPa | 0V | 00:00:00 | 00:00:00 | 00:00:00 | |
| SP9SOS | 2026-08-31 12:07:35 | 49.15759 | 20.97849 | 47° | 15km/h | 20007m | 5.8m/s | -54.8°C | 1.3% | 58.8hPa | 0V | 00:00:00 | 00:00:00 | 00:00:00 | |
| SQ9EZE-13 | 2026-08-31 12:07:34 | 49.15756 | 20.97845 | 32° | 15km/h | 20002m | 5.3m/s | -54.7°C | 1.3% | 58.8hPa | 0V | 00:00:00 | 00:00:00 | 00:00:00 | |
| GYPAP8-17 | 2026-08-31 12:07:32 | 49.15748 | 20.97841 | 24° | 18km/h | 19993m | 5.2m/s | -54.8°C | 1.3% | 58.9hPa | 0V | 00:00:00 | 00:00:00 | 00:00:00 | |
| SQ9EZE-13 | 2026-08-31 12:07:18 | 49.15680 | 20.97772 | 31° | 26km/h | 19921m | 4.8m/s | -54.6°C | 1.2% | 59.5hPa | 0V | 00:00:00 | 00:00:00 | 00:00:00 | |
| SP9SOS | 2026-08-31 12:07:10 | 49.15629 | 20.97735 | 27° | 24km/h | 19880m | 6.1m/s | -54.7°C | 1.3% | 59.9hPa | 0V | 00:00:00 | 00:00:00 | 00:00:00 | |
| SQ9EZE-13 | 2026-08-31 12:07:02 | 49.15583 | 20.97709 | 12° | 26km/h | 19839m | 5.2m/s | -55.0°C | 1.3% | 60.3hPa | 0V | 00:00:00 | 00:00:00 | 00:00:00 | |
| SQ9EZE-15 | 2026-08-31 12:06:50 | 49.15523 | 20.97656 | 40° | 18km/h | 19777m | 5.7m/s | -54.9°C | 1.2% | 60.9hPa | 0V | 00:00:00 | 00:00:00 | 00:00:00 | |
| SQ9EZE-14 | 2026-08-31 12:06:47 | 49.15514 | 20.97644 | 30° | 15km/h | 19763m | 5.5m/s | -55.0°C | 1.3% | 61.1hPa | 0V | 00:00:00 | 00:00:00 | 00:00:00 | |
| SQ9EZE-13 | 2026-08-31 12:06:46 | 49.15510 | 20.97642 | 27° | 15km/h | 19757m | 4.5m/s | -54.9°C | 1.3% | 61.1hPa | 0V | 00:00:00 | 00:00:00 | 00:00:00 | |
| SP9SOS | 2026-08-31 12:06:44 | 49.15504 | 20.97637 | 35° | 13km/h | 19748m | 6.2m/s | -55.0°C | 1.3% | 61.2hPa | 0V | 00:00:00 | 00:00:00 | 00:00:00 | |
| SQ9EZE-13 | 2026-08-31 12:06:30 | 49.15479 | 20.97585 | 88° | 15km/h | 19675m | 3.8m/s | -54.8°C | 1.3% | 61.9hPa | 0V | 00:00:00 | 00:00:00 | 00:00:00 | |
| SQ9EZE-15 | 2026-08-31 12:06:29 | 49.15479 | 20.97580 | 79° | 13km/h | 19670m | 6.0m/s | -54.8°C | 1.3% | 61.9hPa | 0V | 00:00:00 | 00:00:00 | 00:00:00 | |
| GYPAP8-17 | 2026-08-31 12:06:27 | 49.15477 | 20.97570 | 67° | 13km/h | 19660m | 4.9m/s | -54.8°C | 1.3% | 62.0hPa | 0V | 00:00:00 | 00:00:00 | 00:00:00 | |
| SP9SOS | 2026-08-31 12:06:18 | 49.15458 | 20.97533 | 47° | 15km/h | 19613m | 5.7m/s | -54.6°C | 1.2% | 62.5hPa | 0V | 00:00:00 | 00:00:00 | 00:00:00 | |
| SQ9EZE-13 | 2026-08-31 12:06:15 | 49.15452 | 20.97520 | 71° | 13km/h | 19598m | 6.4m/s | -54.5°C | 1.2% | 62.6hPa | 0V | 00:00:00 | 00:00:00 | 00:00:00 | |
| SQ9EZE-13 | 2026-08-31 12:05:59 | 49.15442 | 20.97452 | 95° | 16km/h | 19518m | 5.9m/s | -54.6°C | 1.2% | 63.4hPa | 0V | 00:00:00 | 00:00:00 | 00:00:00 | |
| SP9SOS | 2026-08-31 12:05:52 | 49.15450 | 20.97423 | 110° | 11km/h | 19481m | 5.0m/s | -54.9°C | 1.3% | 63.8hPa | 0V | 00:00:00 | 00:00:00 | 00:00:00 | |
| SQ9EZE-13 | 2026-08-31 12:05:44 | 49.15452 | 20.97369 | 91° | 20km/h | 19440m | 5.4m/s | -54.9°C | 1.2% | 64.2hPa | 0V | 00:00:00 | 00:00:00 | 00:00:00 | |
| SQ9EZE-13 | 2026-08-31 12:05:29 | 49.15436 | 20.97255 | 69° | 16km/h | 19363m | 5.0m/s | -54.7°C | 1.3% | 65.0hPa | 0V | 00:00:00 | 00:00:00 | 00:00:00 | |
| SP9SOS | 2026-08-31 12:05:27 | 49.15434 | 20.97245 | 61° | 13km/h | 19352m | 5.2m/s | -54.7°C | 1.2% | 65.1hPa | 0V | 00:00:00 | 00:00:00 | 00:00:00 | |
| SQ9EZE-15 | 2026-08-31 12:05:20 | 49.15423 | 20.97206 | 46° | 20km/h | 19318m | 4.8m/s | -54.5°C | 1.3% | 65.4hPa | 0V | 00:00:00 | 00:00:00 | 00:00:00 | |
| SQ9EZE-13 | 2026-08-31 12:05:13 | 49.15388 | 20.97165 | 42° | 26km/h | 19283m | 5.7m/s | -54.5°C | 1.2% | 65.8hPa | 0V | 00:00:00 | 00:00:00 | 00:00:00 | |
| SP9SOS | 2026-08-31 12:05:01 | 49.15338 | 20.97111 | 18° | 20km/h | 19223m | 4.1m/s | -54.6°C | 1.3% | 66.4hPa | 0V | 00:00:00 | 00:00:00 | 00:00:00 | |
| SQ9EZE-15 | 2026-08-31 12:04:59 | 49.15329 | 20.97106 | 29° | 16km/h | 19212m | 4.2m/s | -54.6°C | 1.3% | 66.5hPa | 0V | 00:00:00 | 00:00:00 | 00:00:00 | |
| SQ9EZE-13 | 2026-08-31 12:04:57 | 49.15322 | 20.97101 | 17° | 13km/h | 19203m | 5.9m/s | -54.6°C | 1.3% | 66.6hPa | 0V | 00:00:00 | 00:00:00 | 00:00:00 | |
| GYPAP8-17 | 2026-08-31 12:04:52 | 49.15298 | 20.97090 | 18° | 22km/h | 19171m | 6.0m/s | -54.4°C | 1.2% | 67.0hPa | 0V | 00:00:00 | 00:00:00 | 00:00:00 | |
| SQ9EZE-13 | 2026-08-31 12:04:41 | 49.15258 | 20.97060 | 29° | 13km/h | 19120m | 4.6m/s | -54.3°C | 1.2% | 67.5hPa | 0V | 00:00:00 | 00:00:00 | 00:00:00 | |
| SQ9EZE-14 | 2026-08-31 12:04:39 | 49.15251 | 20.97055 | 18° | 18km/h | 19109m | 5.8m/s | -54.2°C | 1.3% | 67.6hPa | 0V | 00:00:00 | 00:00:00 | 00:00:00 | |
| SP9SOS | 2026-08-31 12:04:36 | 49.15237 | 20.97047 | 32° | 22km/h | 19095m | 5.1m/s | -54.1°C | 1.2% | 67.8hPa | 0V | 00:00:00 | 00:00:00 | 00:00:00 | |
| SQ9EZE-13 | 2026-08-31 12:04:26 | 49.15218 | 20.97022 | 9° | 9km/h | 19042m | 4.4m/s | -53.9°C | 1.2% | 68.3hPa | 0V | 00:00:00 | 00:00:00 | 00:00:00 | |
| SQ9EZE-14 | 2026-08-31 12:04:23 | 49.15208 | 20.97017 | 28° | 15km/h | 19027m | 4.4m/s | -53.9°C | 1.2% | 68.5hPa | 0V | 00:00:00 | 00:00:00 | 00:00:00 | |
| SP9SOS | 2026-08-31 12:04:11 | 49.15203 | 20.96976 | 80° | 9km/h | 18966m | 4.2m/s | -54.1°C | 1.2% | 69.1hPa | 0V | 00:00:00 | 00:00:00 | 00:00:00 | |
| SQ9EZE-13 | 2026-08-31 12:04:10 | 49.15202 | 20.96973 | 54° | 9km/h | 18960m | 6.5m/s | -54.1°C | 1.3% | 69.2hPa | 0V | 00:00:00 | 00:00:00 | 00:00:00 | |
| SQ9EZE-13 | 2026-08-31 12:03:54 | 49.15167 | 20.96894 | 59° | 18km/h | 18880m | 4.4m/s | -53.7°C | 1.2% | 70.1hPa | 0V | 00:00:00 | 00:00:00 | 00:00:00 | |
| GYPAP8-17 | 2026-08-31 12:03:48 | 49.15154 | 20.96858 | 79° | 18km/h | 18851m | 4.0m/s | -53.8°C | 1.2% | 70.4hPa | 0V | 00:00:00 | 00:00:00 | 00:00:00 | |
| SP9SOS | 2026-08-31 12:03:46 | 49.15151 | 20.96845 | 67° | 16km/h | 18841m | 5.2m/s | -54.0°C | 1.2% | 70.5hPa | 0V | 00:00:00 | 00:00:00 | 00:00:00 | |
| SQ9EZE-15 | 2026-08-31 12:03:45 | 49.15150 | 20.96840 | 61° | 16km/h | 18837m | 3.7m/s | -54.0°C | 1.2% | 70.6hPa | 0V | 00:00:00 | 00:00:00 | 00:00:00 | |
| SQ9EZE-13 | 2026-08-31 12:03:38 | 49.15117 | 20.96782 | 49° | 35km/h | 18803m | 4.3m/s | -54.2°C | 1.2% | 70.9hPa | 0V | 00:00:00 | 00:00:00 | 00:00:00 | |
| SQ9EZE-15 | 2026-08-31 12:03:25 | 49.15074 | 20.96662 | 52° | 26km/h | 18740m | 5.5m/s | -54.6°C | 1.3% | 71.6hPa | 0V | 00:00:00 | 00:00:00 | 00:00:00 | |
| HA6NAB-11 | 2026-08-31 12:03:23 | 49.15065 | 20.96645 | 54° | 29km/h | 18729m | 4.0m/s | -54.5°C | 1.3% | 71.8hPa | 0V | 00:00:00 | 00:00:00 | 00:00:00 | |
| SP9SOS | 2026-08-31 12:03:20 | 49.15051 | 20.96622 | 47° | 26km/h | 18714m | 4.6m/s | -54.5°C | 1.3% | 71.9hPa | 0V | 00:00:00 | 00:00:00 | 00:00:00 | |
| HA6NAB-11 | 2026-08-31 12:03:18 | 49.15039 | 20.96598 | 52° | 27km/h | 18698m | 4.6m/s | -54.4°C | 1.3% | 72.1hPa | 0V | 00:00:00 | 00:00:00 | 00:00:00 | |
| HA6NAB-11 | 2026-08-31 12:03:11 | 49.15009 | 20.96565 | 27° | 26km/h | 18667m | 4.8m/s | -54.2°C | 1.3% | 72.4hPa | 0V | 00:00:00 | 00:00:00 | 00:00:00 | |
| SQ9EZE-13 | 2026-08-31 12:03:07 | 49.14990 | 20.96547 | 48° | 24km/h | 18648m | 5.0m/s | -54.1°C | 1.2% | 72.7hPa | 0V | 00:00:00 | 00:00:00 | 00:00:00 | |
| HA6NAB-11 | 2026-08-31 12:03:05 | 49.14981 | 20.96532 | 47° | 29km/h | 18640m | 3.8m/s | -54.1°C | 1.3% | 72.8hPa | 0V | 00:00:00 | 00:00:00 | 00:00:00 | |
| HA6NAB-11 | 2026-08-31 12:03:00 | 49.14958 | 20.96503 | 32° | 20km/h | 18616m | 5.7m/s | -54.1°C | 1.3% | 73.0hPa | 0V | 00:00:00 | 00:00:00 | 00:00:00 | |
| SP9SOS | 2026-08-31 12:02:55 | 49.14936 | 20.96488 | 20° | 20km/h | 18590m | 4.0m/s | -54.1°C | 1.2% | 73.3hPa | 0V | 00:00:00 | 00:00:00 | 00:00:00 | |
| HA6NAB-11 | 2026-08-31 12:02:54 | 49.14931 | 20.96485 | 24° | 22km/h | 18586m | 5.5m/s | -54.2°C | 1.3% | 73.4hPa | 0V | 00:00:00 | 00:00:00 | 00:00:00 | |
| SQ9EZE-13 | 2026-08-31 12:02:51 | 49.14916 | 20.96473 | 28° | 22km/h | 18571m | 6.0m/s | -54.2°C | 1.2% | 73.5hPa | 0V | 00:00:00 | 00:00:00 | 00:00:00 | |
| HA6NAB-11 | 2026-08-31 12:02:47 | 49.14898 | 20.96458 | 24° | 20km/h | 18551m | 4.4m/s | -54.3°C | 1.3% | 73.7hPa | 0V | 00:00:00 | 00:00:00 | 00:00:00 | |
| HA6NAB-11 | 2026-08-31 12:02:43 | 49.14876 | 20.96457 | 2° | 18km/h | 18525m | 4.8m/s | -54.2°C | 1.3% | 74.1hPa | 0V | 00:00:00 | 00:00:00 | 00:00:00 | |
| GYPAP8-17 | 2026-08-31 12:02:40 | 49.14867 | 20.96457 | 356° | 16km/h | 18515m | 6.4m/s | -54.3°C | 1.3% | 74.2hPa | 0V | 00:00:00 | 00:00:00 | 00:00:00 | |
| SQ9EZE-13 | 2026-08-31 12:02:36 | 49.14848 | 20.96462 | 354° | 22km/h | 18494m | 4.6m/s | -54.3°C | 1.2% | 74.4hPa | 0V | 00:00:00 | 00:00:00 | 00:00:00 | |
| SP9SOS | 2026-08-31 12:02:29 | 49.14817 | 20.96479 | 325° | 16km/h | 18460m | 5.8m/s | -54.8°C | 1.4% | 74.8hPa | 0V | 00:00:00 | 00:00:00 | 00:00:00 | |
| HA6NAB-11 | 2026-08-31 12:02:27 | 49.14812 | 20.96486 | 316° | 9km/h | 18450m | 4.0m/s | -54.7°C | 1.3% | 74.9hPa | 0V | 00:00:00 | 00:00:00 | 00:00:00 | |
| HA6NAB-11 | 2026-08-31 12:02:22 | 49.14800 | 20.96487 | 1° | 9km/h | 18424m | 5.3m/s | -54.6°C | 1.3% | 75.2hPa | 0V | 00:00:00 | 00:00:00 | 00:00:00 | |
| SQ9EZE-13 | 2026-08-31 12:02:20 | 49.14796 | 20.96488 | 359° | 7km/h | 18414m | 5.3m/s | -54.5°C | 1.3% | 75.3hPa | 0V | 00:00:00 | 00:00:00 | 00:00:00 | |
| HA6NAB-11 | 2026-08-31 12:02:12 | 49.14786 | 20.96497 | 327° | 5km/h | 18375m | 4.5m/s | -54.4°C | 1.3% | 75.8hPa | 0V | 00:00:00 | 00:00:00 | 00:00:00 | |
| SQ9EZE-15 | 2026-08-31 12:02:11 | 49.14784 | 20.96498 | 323° | 5km/h | 18370m | 6.0m/s | -54.3°C | 1.3% | 75.9hPa | 0V | 00:00:00 | 00:00:00 | 00:00:00 | |
| HA6NAB-11 | 2026-08-31 12:02:06 | 49.14780 | 20.96488 | 72° | 9km/h | 18345m | 5.7m/s | -54.2°C | 0% | 76.2hPa | 0V | 00:00:00 | 00:00:00 | 00:00:00 | |
| SQ9EZE-13 | 2026-08-31 12:02:04 | 49.14779 | 20.96481 | 95° | 7km/h | 18335m | 4.0m/s | -54.1°C | 1.2% | 76.3hPa | 0V | 00:00:00 | 00:00:00 | 00:00:00 | |
| SP9SOS | 2026-08-31 12:02:03 | 49.14779 | 20.96479 | 71° | 5km/h | 18330m | 5.8m/s | -54.1°C | 1.3% | 76.3hPa | 0V | 00:00:00 | 00:00:00 | 00:00:00 | |
| HA6NAB-11 | 2026-08-31 12:02:00 | 49.14779 | 20.96477 | 166° | 4km/h | 18316m | 4.7m/s | -54.1°C | 0% | 76.5hPa | 0V | 00:00:00 | 00:00:00 | 00:00:00 | |
| HA6NAB-11 | 2026-08-31 12:01:55 | 49.14776 | 20.96469 | 62° | 13km/h | 18293m | 4.3m/s | 0°C | 0% | 76.8hPa | 0V | 00:00:00 | 00:00:00 | 00:00:00 | |
| SQ9EZE-15 | 2026-08-31 12:01:51 | 49.14772 | 20.96445 | 76° | 20km/h | 18272m | 6.3m/s | -54.8°C | 1.3% | 77.0hPa | 0V | 00:00:00 | 00:00:00 | 00:00:00 | |
| SQ9EZE-13 | 2026-08-31 12:01:49 | 49.14770 | 20.96432 | 82° | 15km/h | 18261m | 5.2m/s | -55.0°C | 1.3% | 77.2hPa | 0V | 00:00:00 | 00:00:00 | 00:00:00 | |
| HA6NAB-11 | 2026-08-31 12:01:45 | 49.14772 | 20.96414 | 89° | 9km/h | 18237m | 4.8m/s | 0°C | 0% | 77.5hPa | 0V | 00:00:00 | 00:00:00 | 00:00:00 | |
| HA6NAB-11 | 2026-08-31 12:01:38 | 49.14771 | 20.96377 | 78° | 24km/h | 18207m | 4.4m/s | 0°C | 0% | 77.8hPa | 0V | 00:00:00 | 00:00:00 | 00:00:00 | |
| SP9SOS | 2026-08-31 12:01:37 | 49.14769 | 20.96368 | 79° | 26km/h | 18203m | 4.2m/s | -55.2°C | 1.4% | 77.9hPa | 0V | 00:00:00 | 00:00:00 | 00:00:00 | |
| GYPAP8-17 | 2026-08-31 12:01:35 | 49.14766 | 20.96349 | 75° | 26km/h | 18193m | 4.3m/s | -55.3°C | 1.4% | 78.0hPa | 0V | 00:00:00 | 00:00:00 | 00:00:00 | |
| SQ9EZE-13 | 2026-08-31 12:01:34 | 49.14764 | 20.96340 | 72° | 24km/h | 18188m | 5.1m/s | -55.4°C | 1.4% | 78.1hPa | 0V | 00:00:00 | 00:00:00 | 00:00:00 | |
| HA6NAB-11 | 2026-08-31 12:01:33 | 49.14762 | 20.96332 | 72° | 22km/h | 18183m | 5.3m/s | 0°C | 0% | 78.1hPa | 0V | 00:00:00 | 00:00:00 | 00:00:00 | |
| HA6NAB-11 | 2026-08-31 12:01:27 | 49.14757 | 20.96294 | 63° | 16km/h | 18154m | 4.3m/s | 0°C | 0% | 78.5hPa | 0V | 00:00:00 | 00:00:00 | 00:00:00 | |
| HA6NAB-11 | 2026-08-31 12:01:22 | 49.14742 | 20.96259 | 49° | 27km/h | 18129m | 4.0m/s | 0°C | 0% | 78.8hPa | 0V | 00:00:00 | 00:00:00 | 00:00:00 | |
| SQ9EZE-13 | 2026-08-31 12:01:18 | 49.14727 | 20.96230 | 63° | 18km/h | 18111m | 3.9m/s | -55.5°C | 1.4% | 79.0hPa | 0V | 00:00:00 | 00:00:00 | 00:00:00 | |
| HA6NAB-11 | 2026-08-31 12:01:17 | 49.14725 | 20.96223 | 64° | 18km/h | 18107m | 4.7m/s | 0°C | 0% | 79.1hPa | 0V | 00:00:00 | 00:00:00 | 00:00:00 | |
| SP9SOS | 2026-08-31 12:01:12 | 49.14708 | 20.96193 | 49° | 22km/h | 18082m | 4.7m/s | -55.5°C | 1.4% | 79.4hPa | 0V | 00:00:00 | 00:00:00 | 00:00:00 | |
| SQ9EZE-13 | 2026-08-31 12:01:03 | 49.14669 | 20.96124 | 39° | 20km/h | 18037m | 4.8m/s | -55.5°C | 1.4% | 79.9hPa | 0V | 00:00:00 | 00:00:00 | 00:00:00 | |
| SQ9EZE-13 | 2026-08-31 12:00:47 | 49.14600 | 20.96056 | 11° | 15km/h | 17958m | 4.2m/s | -55.2°C | 1.4% | 80.9hPa | 0V | 00:00:00 | 00:00:00 | 00:00:00 | |
| SP9SOS | 2026-08-31 12:00:46 | 49.14597 | 20.96056 | 14° | 11km/h | 17953m | 5.2m/s | -55.2°C | 1.4% | 81.0hPa | 0V | 00:00:00 | 00:00:00 | 00:00:00 | |
| SQ9EZE-15 | 2026-08-31 12:00:38 | 49.14568 | 20.96025 | 30° | 18km/h | 17908m | 4.9m/s | -54.9°C | 1.4% | 81.6hPa | 0V | 00:00:00 | 00:00:00 | 00:00:00 | |
| SQ9EZE-13 | 2026-08-31 12:00:32 | 49.14552 | 20.96018 | 16° | 9km/h | 17884m | 4.9m/s | -54.7°C | 1.4% | 81.9hPa | 0V | 00:00:00 | 00:00:00 | 00:00:00 | |
| GYPAP8-17 | 2026-08-31 12:00:31 | 49.14549 | 20.96016 | 27° | 11km/h | 17878m | 5.5m/s | -54.7°C | 1.4% | 81.9hPa | 0V | 00:00:00 | 00:00:00 | 00:00:00 | |
| SP9SOS | 2026-08-31 12:00:20 | 49.14516 | 20.95984 | 346° | 11km/h | 17825m | 5.0m/s | -54.4°C | 1.3% | 82.7hPa | 0V | 00:00:00 | 00:00:00 | 00:00:00 | |
| SQ9EZE-15 | 2026-08-31 12:00:19 | 49.14512 | 20.95984 | 52° | 4km/h | 17809m | 4.2m/s | -54.5°C | 1.3% | 82.8hPa | 0V | 00:00:00 | 00:00:00 | 00:00:00 | |
| SQ9EZE-13 | 2026-08-31 12:00:16 | 49.14512 | 20.95982 | 77° | 4km/h | 17805m | 5.2m/s | -54.6°C | 1.3% | 82.9hPa | 0V | 00:00:00 | 00:00:00 | 00:00:00 | |
| SQ9EZE-13 | 2026-08-31 12:00:01 | 49.14493 | 20.95943 | 88° | 11km/h | 17728m | 5.4m/s | -55.0°C | 1.4% | 83.9hPa | 0V | 00:00:00 | 00:00:00 | 00:00:00 | |
| SP9SOS | 2026-08-31 11:59:56 | 49.14486 | 20.95915 | 76° | 18km/h | 17700m | 5.8m/s | -54.8°C | 1.4% | 84.2hPa | 0V | 00:00:00 | 00:00:00 | 00:00:00 | |
| SQ9EZE-13 | 2026-08-31 11:59:45 | 49.14483 | 20.95870 | 83° | 9km/h | 17649m | 4.0m/s | -55.1°C | 1.4% | 84.9hPa | 0V | 00:00:00 | 00:00:00 | 00:00:00 | |
| SQ9EZE-13 | 2026-08-31 11:59:30 | 49.14482 | 20.95753 | 86° | 26km/h | 17572m | 5.1m/s | -55.3°C | 1.4% | 86.0hPa | 0V | 00:00:00 | 00:00:00 | 00:00:00 | |
| SP9SOS | 2026-08-31 11:59:29 | 49.14482 | 20.95753 | 86° | 26km/h | 17572m | 5.1m/s | -55.3°C | 1.4% | 86.0hPa | 0V | 00:00:00 | 00:00:00 | 00:00:00 | |
| SQ9EZE-14 | 2026-08-31 11:59:28 | 49.14480 | 20.95733 | 77° | 27km/h | 17562m | 6.3m/s | -55.3°C | 1.4% | 86.1hPa | 0V | 00:00:00 | 00:00:00 | 00:00:00 | |
| GYPAP8-17 | 2026-08-31 11:59:27 | 49.14480 | 20.95733 | 77° | 27km/h | 17562m | 6.3m/s | -55.3°C | 1.4% | 86.1hPa | 0V | 00:00:00 | 00:00:00 | 00:00:00 | |
| SQ9EZE-13 | 2026-08-31 11:59:13 | 49.14454 | 20.95567 | 59° | 29km/h | 17489m | 5.0m/s | -55.3°C | 1.4% | 87.1hPa | 0V | 00:00:00 | 00:00:00 | 00:00:00 | |
| SQ9EZE-14 | 2026-08-31 11:59:12 | 49.14447 | 20.95548 | 61° | 29km/h | 17479m | 4.1m/s | -55.2°C | 1.4% | 87.2hPa | 0V | 00:00:00 | 00:00:00 | 00:00:00 | |
| SQ9EZE-15 | 2026-08-31 11:59:05 | 49.14431 | 20.95490 | 82° | 27km/h | 17449m | 3.8m/s | -55.0°C | 1.4% | 87.7hPa | 0V | 00:00:00 | 00:00:00 | 00:00:00 | |
| SP9SOS | 2026-08-31 11:59:04 | 49.14429 | 20.95471 | 85° | 26km/h | 17439m | 4.9m/s | -54.9°C | 1.4% | 87.8hPa | 0V | 00:00:00 | 00:00:00 | 00:00:00 | |
| SQ9EZE-13 | 2026-08-31 11:58:58 | 49.14426 | 20.95428 | 75° | 20km/h | 17412m | 4.0m/s | -54.6°C | 1.4% | 88.2hPa | 0V | 00:00:00 | 00:00:00 | 00:00:00 | |
| SQ9EZE-15 | 2026-08-31 11:58:45 | 49.14408 | 20.95313 | 62° | 20km/h | 17339m | 6.1m/s | -54.6°C | 1.4% | 89.2hPa | 0V | 00:00:00 | 00:00:00 | 00:00:00 | |
| SQ9EZE-13 | 2026-08-31 11:58:42 | 49.14404 | 20.95298 | 69° | 24km/h | 17329m | 4.3m/s | -54.6°C | 1.4% | 89.3hPa | 0V | 00:00:00 | 00:00:00 | 00:00:00 | |
| SP9SOS | 2026-08-31 11:58:38 | 49.14395 | 20.95254 | 79° | 33km/h | 17308m | 6.2m/s | -54.6°C | 1.4% | 89.6hPa | 0V | 00:00:00 | 00:00:00 | 00:00:00 | |
| SQ9EZE-13 | 2026-08-31 11:58:27 | 49.14373 | 20.95114 | 67° | 33km/h | 17249m | 6.0m/s | -54.6°C | 1.4% | 90.4hPa | 0V | 00:00:00 | 00:00:00 | 00:00:00 | |
| GYPAP8-17 | 2026-08-31 11:58:24 | 49.14360 | 20.95066 | 72° | 35km/h | 17230m | 3.5m/s | -54.5°C | 1.4% | 90.7hPa | 0V | 00:00:00 | 00:00:00 | 00:00:00 | |
| SP9SOS | 2026-08-31 11:58:13 | 49.14340 | 20.94954 | 75° | 35km/h | 17182m | 5.9m/s | -54.7°C | 1.4% | 91.4hPa | 0V | 00:00:00 | 00:00:00 | 00:00:00 | |
| SQ9EZE-13 | 2026-08-31 11:58:12 | 49.14336 | 20.94927 | 79° | 35km/h | 17172m | 4.2m/s | -54.6°C | 1.4% | 91.5hPa | 0V | 00:00:00 | 00:00:00 | 00:00:00 | |
| SQ9EZE-13 | 2026-08-31 11:57:55 | 49.14279 | 20.94762 | 82° | 31km/h | 17093m | 6.1m/s | -54.4°C | 1.4% | 92.6hPa | 0V | 00:00:00 | 00:00:00 | 00:00:00 | |
| SP9SOS | 2026-08-31 11:57:47 | 49.14259 | 20.94674 | 58° | 29km/h | 17058m | 3.3m/s | -54.4°C | 1.4% | 93.2hPa | 0V | 00:00:00 | 00:00:00 | 00:00:00 | |
| HA6NAB-11 | 2026-08-31 11:57:44 | 49.14250 | 20.94637 | 80° | 27km/h | 17040m | 5.5m/s | 0°C | 0% | 93.4hPa | 0V | 00:00:00 | 00:00:00 | 00:00:00 | |
| SQ9EZE-13 | 2026-08-31 11:57:39 | 49.14244 | 20.94592 | 77° | 29km/h | 17022m | 3.3m/s | -54.6°C | 1.4% | 93.7hPa | 0V | 00:00:00 | 00:00:00 | 00:00:00 | |
| HA6NAB-11 | 2026-08-31 11:57:32 | 49.14222 | 20.94516 | 68° | 27km/h | 16985m | 4.1m/s | 0°C | 0% | 94.3hPa | 0V | 00:00:00 | 00:00:00 | 00:00:00 | |
| HA6NAB-11 | 2026-08-31 11:57:23 | 49.14200 | 20.94449 | 65° | 22km/h | 16949m | 4.3m/s | 0°C | 0% | 94.8hPa | 0V | 00:00:00 | 00:00:00 | 00:00:00 | |
| SP9SOS | 2026-08-31 11:57:21 | 49.14195 | 20.94433 | 64° | 26km/h | 16940m | 4.6m/s | -55.2°C | 1.5% | 94.9hPa | 0V | 00:00:00 | 00:00:00 | 00:00:00 | |
| HA6NAB-11 | 2026-08-31 11:57:18 | 49.14186 | 20.94394 | 75° | 29km/h | 16922m | 4.3m/s | 0°C | 0% | 0hPa | 0V | 00:00:00 | 00:00:00 | 00:00:00 | |
| HA6NAB-11 | 2026-08-31 11:57:12 | 49.14170 | 20.94330 | 66° | 27km/h | 16894m | 4.9m/s | 0°C | 0% | 0hPa | 0V | 00:00:00 | 00:00:00 | 00:00:00 | |
| SQ9EZE-15 | 2026-08-31 11:57:11 | 49.14170 | 20.94330 | 66° | 27km/h | 16894m | 4.9m/s | -55.1°C | 1.5% | 95.6hPa | 0V | 00:00:00 | 00:00:00 | 00:00:00 | |
| SQ9EZE-13 | 2026-08-31 11:57:07 | 49.14157 | 20.94295 | 61° | 22km/h | 16876m | 4.6m/s | -55.2°C | 1.5% | 95.9hPa | 0V | 00:00:00 | 00:00:00 | 00:00:00 | |
| SP9SOS | 2026-08-31 11:56:55 | 49.14131 | 20.94167 | 74° | 29km/h | 16823m | 5.1m/s | -54.9°C | 1.5% | 96.7hPa | 0V | 00:00:00 | 00:00:00 | 00:00:00 | |
| SQ9EZE-13 | 2026-08-31 11:56:52 | 49.14122 | 20.94135 | 66° | 27km/h | 16811m | 3.6m/s | -54.8°C | 1.5% | 96.9hPa | 0V | 00:00:00 | 00:00:00 | 00:00:00 | |
| SQ9EZE-14 | 2026-08-31 11:56:38 | 49.14083 | 20.93990 | 64° | 27km/h | 16747m | 5.3m/s | -55.2°C | 1.5% | 97.8hPa | 0V | 00:00:00 | 00:00:00 | 00:00:00 | |
| SQ9EZE-13 | 2026-08-31 11:56:37 | 49.14077 | 20.93970 | 66° | 29km/h | 16738m | 3.7m/s | -55.3°C | 1.5% | 97.9hPa | 0V | 00:00:00 | 00:00:00 | 00:00:00 | |
| SP9SOS | 2026-08-31 11:56:30 | 49.14063 | 20.93899 | 77° | 35km/h | 16710m | 3.7m/s | -55.3°C | 1.5% | 98.4hPa | 0V | 00:00:00 | 00:00:00 | 00:00:00 | |
| SQ9EZE-14 | 2026-08-31 11:56:24 | 49.14042 | 20.93818 | 64° | 33km/h | 16677m | 4.1m/s | -55.2°C | 1.6% | 98.9hPa | 0V | 00:00:00 | 00:00:00 | 00:00:00 | |
| SQ9EZE-13 | 2026-08-31 11:56:21 | 49.14035 | 20.93794 | 66° | 37km/h | 16668m | 5.9m/s | -55.3°C | 1.5% | 99.0hPa | 0V | 00:00:00 | 00:00:00 | 00:00:00 | |
| GYPAP8-17 | 2026-08-31 11:56:18 | 49.14020 | 20.93755 | 58° | 38km/h | 16655m | 5.0m/s | -55.3°C | 1.6% | 99.2hPa | 0V | 00:00:00 | 00:00:00 | 00:00:00 | |
| SQ9EZE-13 | 2026-08-31 11:56:06 | 49.13985 | 20.93600 | 69° | 37km/h | 16597m | 5.1m/s | -55.5°C | 1.7% | 100.1hPa | 0V | 00:00:00 | 00:00:00 | 00:00:00 | |
| SP9SOS | 2026-08-31 11:56:05 | 49.13982 | 20.93587 | 65° | 38km/h | 16592m | 5.5m/s | -55.4°C | 1.6% | 100.2hPa | 0V | 00:00:00 | 00:00:00 | 00:00:00 | |
| SQ9EZE-15 | 2026-08-31 11:55:59 | 49.13947 | 20.93501 | 61° | 37km/h | 16556m | 4.7m/s | -55.3°C | 1.6% | 100.8hPa | 0V | 00:00:00 | 00:00:00 | 00:00:00 | |
| SQ9EZE-13 | 2026-08-31 11:55:50 | 49.13914 | 20.93393 | 71° | 38km/h | 16516m | 4.9m/s | -55.3°C | 1.7% | 101.5hPa | 0V | 00:00:00 | 00:00:00 | 00:00:00 | |
| SP9SOS | 2026-08-31 11:55:39 | 49.13886 | 20.93242 | 66° | 38km/h | 16460m | 5.7m/s | -55.6°C | 1.7% | 102.3hPa | 0V | 00:00:00 | 00:00:00 | 00:00:00 | |
| SQ9EZE-15 | 2026-08-31 11:55:38 | 49.13878 | 20.93214 | 69° | 38km/h | 16449m | 4.8m/s | -55.7°C | 1.7% | 102.5hPa | 0V | 00:00:00 | 00:00:00 | 00:00:00 | |
| SQ9EZE-13 | 2026-08-31 11:55:34 | 49.13871 | 20.93173 | 85° | 35km/h | 16433m | 3.7m/s | -56.0°C | 1.8% | 102.8hPa | 0V | 00:00:00 | 00:00:00 | 00:00:00 | |
| SQ9EZE-13 | 2026-08-31 11:55:18 | 49.13840 | 20.92935 | 79° | 38km/h | 16350m | 5.3m/s | -56.6°C | 2.0% | 104.1hPa | 0V | 00:00:00 | 00:00:00 | 00:00:00 | |
| SP9SOS | 2026-08-31 11:55:14 | 49.13828 | 20.92878 | 69° | 46km/h | 16329m | 5.5m/s | -56.6°C | 2.1% | 104.5hPa | 0V | 00:00:00 | 00:00:00 | 00:00:00 | |
| GYPAP8-17 | 2026-08-31 11:55:11 | 49.13814 | 20.92826 | 69° | 49km/h | 16313m | 5.2m/s | -56.7°C | 2.0% | 104.7hPa | 0V | 00:00:00 | 00:00:00 | 00:00:00 | |
| SQ9EZE-13 | 2026-08-31 11:55:02 | 49.13784 | 20.92664 | 79° | 49km/h | 16266m | 3.6m/s | -57.0°C | 2.1% | 105.5hPa | 0V | 00:00:00 | 00:00:00 | 00:00:00 | |
| SP9SOS | 2026-08-31 11:54:49 | 49.13713 | 20.92402 | 68° | 62km/h | 16193m | 5.3m/s | -57.2°C | 2.2% | 106.7hPa | 0V | 00:00:00 | 00:00:00 | 00:00:00 | |
| SQ9EZE-13 | 2026-08-31 11:54:47 | 49.13702 | 20.92357 | 71° | 62km/h | 16182m | 4.5m/s | -57.4°C | 2.2% | 106.9hPa | 0V | 00:00:00 | 00:00:00 | 00:00:00 | |
| SQ9EZE-13 | 2026-08-31 11:54:31 | 49.13645 | 20.92044 | 80° | 60km/h | 16107m | 4.9m/s | -57.8°C | 2.4% | 108.3hPa | 0V | 00:00:00 | 00:00:00 | 00:00:00 | |
| SQ9EZE-15 | 2026-08-31 11:54:23 | 49.13611 | 20.91877 | 73° | 51km/h | 16067m | 5.9m/s | -57.7°C | 2.3% | 109.0hPa | 0V | 00:00:00 | 00:00:00 | 00:00:00 | |
| SP9SOS | 2026-08-31 11:54:22 | 49.13607 | 20.91858 | 76° | 51km/h | 16062m | 5.1m/s | -57.7°C | 2.3% | 109.0hPa | 0V | 00:00:00 | 00:00:00 | 00:00:00 | |
| SQ9EZE-13 | 2026-08-31 11:54:16 | 49.13584 | 20.91726 | 74° | 60km/h | 16032m | 4.4m/s | -57.6°C | 2.4% | 109.5hPa | 0V | 00:00:00 | 00:00:00 | 00:00:00 | |
| GYPAP8-17 | 2026-08-31 11:54:08 | 49.13533 | 20.91557 | 61° | 58km/h | 15997m | 5.2m/s | -57.6°C | 2.5% | 110.1hPa | 0V | 00:00:00 | 00:00:00 | 00:00:00 | |
| SQ9EZE-15 | 2026-08-31 11:54:03 | 49.13498 | 20.91459 | 62° | 62km/h | 15975m | 5.1m/s | -57.7°C | 2.5% | 110.5hPa | 0V | 00:00:00 | 00:00:00 | 00:00:00 | |
| SQ9EZE-13 | 2026-08-31 11:54:00 | 49.13477 | 20.91395 | 67° | 62km/h | 15963m | 4.7m/s | -57.7°C | 2.5% | 110.8hPa | 0V | 00:00:00 | 00:00:00 | 00:00:00 | |
| SP9SOS | 2026-08-31 11:53:57 | 49.13460 | 20.91333 | 66° | 57km/h | 15951m | 4.3m/s | -57.7°C | 2.5% | 110.9hPa | 0V | 00:00:00 | 00:00:00 | 00:00:00 | |
| SQ9EZE-13 | 2026-08-31 11:53:44 | 49.13372 | 20.91087 | 57° | 57km/h | 15893m | 3.6m/s | -58.3°C | 2.8% | 112.0hPa | 0V | 00:00:00 | 00:00:00 | 00:00:00 | |
| SP9SOS | 2026-08-31 11:53:31 | 49.13293 | 20.90874 | 51° | 40km/h | 15838m | 3.8m/s | -59.0°C | 3.0% | 112.9hPa | 0V | 00:00:00 | 00:00:00 | 00:00:00 | |
| SQ9EZE-13 | 2026-08-31 11:53:29 | 49.13280 | 20.90854 | 45° | 33km/h | 15827m | 5.0m/s | -58.9°C | 3.0% | 113.1hPa | 0V | 00:00:00 | 00:00:00 | 00:00:00 | |
| SQ9EZE-13 | 2026-08-31 11:53:14 | 49.13205 | 20.90693 | 47° | 26km/h | 15747m | 5.7m/s | -58.5°C | 3.1% | 114.6hPa | 0V | 00:00:00 | 00:00:00 | 00:00:00 | |
| SP9SOS | 2026-08-31 11:53:06 | 49.13175 | 20.90642 | 44° | 20km/h | 15708m | 6.0m/s | -58.4°C | 3.1% | 115.3hPa | 0V | 00:00:00 | 00:00:00 | 00:00:00 | |
| SQ9EZE-13 | 2026-08-31 11:52:57 | 49.13138 | 20.90551 | 84° | 33km/h | 15661m | 3.8m/s | -58.2°C | 3.1% | 116.2hPa | 0V | 00:00:00 | 00:00:00 | 00:00:00 | |
| SQ9EZE-15 | 2026-08-31 11:52:49 | 49.13122 | 20.90447 | 80° | 37km/h | 15616m | 5.7m/s | -58.0°C | 3.1% | 117.0hPa | 0V | 00:00:00 | 00:00:00 | 00:00:00 | |
| SQ9EZE-13 | 2026-08-31 11:52:43 | 49.13114 | 20.90377 | 81° | 24km/h | 15586m | 4.9m/s | -58.1°C | 3.2% | 117.6hPa | 0V | 00:00:00 | 00:00:00 | 00:00:00 | |
| SP9SOS | 2026-08-31 11:52:42 | 49.13113 | 20.90367 | 87° | 24km/h | 15581m | 3.9m/s | -58.0°C | 3.1% | 117.7hPa | 0V | 00:00:00 | 00:00:00 | 00:00:00 | |
| SQ9EZE-13 | 2026-08-31 11:52:26 | 49.13108 | 20.90180 | 95° | 37km/h | 15510m | 4.6m/s | -57.9°C | 3.2% | 119.0hPa | 0V | 00:00:00 | 00:00:00 | 00:00:00 | |
| SP9SOS | 2026-08-31 11:52:16 | 49.13121 | 20.90040 | 105° | 33km/h | 15457m | 5.2m/s | -58.2°C | 3.2% | 120.0hPa | 0V | 00:00:00 | 00:00:00 | 00:00:00 | |
| SQ9EZE-13 | 2026-08-31 11:52:10 | 49.13127 | 20.89965 | 95° | 44km/h | 15431m | 5.5m/s | -58.0°C | 3.2% | 120.5hPa | 0V | 00:00:00 | 00:00:00 | 00:00:00 | |
| SQ9EZE-13 | 2026-08-31 11:51:54 | 49.13115 | 20.89696 | 83° | 44km/h | 15350m | 4.9m/s | -57.5°C | 3.0% | 122.1hPa | 0V | 00:00:00 | 00:00:00 | 00:00:00 | |
| SP9SOS | 2026-08-31 11:51:50 | 49.13110 | 20.89631 | 83° | 40km/h | 15328m | 5.6m/s | -57.4°C | 3.1% | 122.5hPa | 0V | 00:00:00 | 00:00:00 | 00:00:00 | |
| GYPAP8-17 | 2026-08-31 11:51:49 | 49.13108 | 20.89599 | 87° | 42km/h | 15319m | 5.1m/s | -57.4°C | 3.1% | 122.6hPa | 0V | 00:00:00 | 00:00:00 | 00:00:00 | |
| SQ9EZE-13 | 2026-08-31 11:51:39 | 49.13099 | 20.89438 | 84° | 49km/h | 15273m | 5.0m/s | -57.3°C | 3.0% | 123.5hPa | 0V | 00:00:00 | 00:00:00 | 00:00:00 | |
| SQ9EZE-14 | 2026-08-31 11:51:35 | 49.13096 | 20.89342 | 89° | 51km/h | 15246m | 6.0m/s | -57.3°C | 3.0% | 124.0hPa | 0V | 00:00:00 | 00:00:00 | 00:00:00 | |
| SP9SOS | 2026-08-31 11:51:25 | 49.13092 | 20.89181 | 88° | 44km/h | 15198m | 3.9m/s | -56.9°C | 3.0% | 125.0hPa | 0V | 00:00:00 | 00:00:00 | 00:00:00 | |
| SQ9EZE-13 | 2026-08-31 11:51:24 | 49.13090 | 20.89147 | 89° | 44km/h | 15188m | 5.0m/s | -56.8°C | 3.0% | 125.2hPa | 0V | 00:00:00 | 00:00:00 | 00:00:00 | |
| SQ9EZE-13 | 2026-08-31 11:51:09 | 49.13082 | 20.88896 | 88° | 42km/h | 15114m | 5.4m/s | -56.4°C | 2.9% | 126.6hPa | 0V | 00:00:00 | 00:00:00 | 00:00:00 | |
| SP9SOS | 2026-08-31 11:51:00 | 49.13075 | 20.88740 | 89° | 44km/h | 15068m | 5.2m/s | -56.3°C | 2.8% | 127.6hPa | 0V | 00:00:00 | 00:00:00 | 00:00:00 | |
| SQ9EZE-13 | 2026-08-31 11:50:53 | 49.13071 | 20.88633 | 92° | 37km/h | 15033m | 5.2m/s | -56.2°C | 2.7% | 128.3hPa | 0V | 00:00:00 | 00:00:00 | 00:00:00 | |
| GYPAP8-17 | 2026-08-31 11:50:45 | 49.13063 | 20.88519 | 73° | 49km/h | 14997m | 4.3m/s | -56.6°C | 2.9% | 129.1hPa | 0V | 00:00:00 | 00:00:00 | 00:00:00 | |
| SQ9EZE-13 | 2026-08-31 11:50:36 | 49.13044 | 20.88364 | 81° | 46km/h | 14952m | 5.7m/s | -56.9°C | 3.3% | 130.0hPa | 0V | 00:00:00 | 00:00:00 | 00:00:00 | |
| SP9SOS | 2026-08-31 11:50:34 | 49.13039 | 20.88304 | 86° | 57km/h | 14933m | 4.7m/s | -56.8°C | 3.2% | 130.3hPa | 0V | 00:00:00 | 00:00:00 | 00:00:00 | |
| SQ9EZE-13 | 2026-08-31 11:50:07 | 49.12977 | 20.87872 | 92° | 44km/h | 14764m | 6.0m/s | -56.5°C | 3.2% | 133.8hPa | 0V | 00:00:00 | 00:00:00 | 00:00:00 | |
| SQ9EZE-13 | 2026-08-31 11:49:50 | 49.12980 | 20.87551 | 98° | 55km/h | 14676m | 3.8m/s | -56.9°C | 3.7% | 135.7hPa | 0V | 00:00:00 | 00:00:00 | 00:00:00 | |
| SP9SOS | 2026-08-31 11:49:41 | 49.12992 | 20.87358 | 95° | 58km/h | 14629m | 5.0m/s | -57.3°C | 3.7% | 136.8hPa | 0V | 00:00:00 | 00:00:00 | 00:00:00 | |
| SQ9EZE-13 | 2026-08-31 11:49:36 | 49.13000 | 20.87220 | 95° | 66km/h | 14594m | 4.6m/s | -57.5°C | 4.0% | 137.5hPa | 0V | 00:00:00 | 00:00:00 | 00:00:00 | |
| SQ9EZE-14 | 2026-08-31 11:49:25 | 49.13016 | 20.86933 | 91° | 82km/h | 14531m | 4.8m/s | -58.1°C | 4.2% | 138.8hPa | 0V | 00:00:00 | 00:00:00 | 00:00:00 | |
| SQ9EZE-13 | 2026-08-31 11:49:20 | 49.13020 | 20.86763 | 93° | 71km/h | 14499m | 4.9m/s | -58.1°C | 4.3% | 139.6hPa | 0V | 00:00:00 | 00:00:00 | 00:00:00 | |
| SP9SOS | 2026-08-31 11:49:15 | 49.13023 | 20.86649 | 90° | 71km/h | 14476m | 3.5m/s | -58.2°C | 4.5% | 140.0hPa | 0V | 00:00:00 | 00:00:00 | 00:00:00 | |
| SQ9EZE-15 | 2026-08-31 11:49:10 | 49.13012 | 20.86508 | 81° | 80km/h | 14446m | 1.8m/s | -58.6°C | 4.9% | 140.7hPa | 0V | 00:00:00 | 00:00:00 | 00:00:00 | |
| SQ9EZE-14 | 2026-08-31 11:49:09 | 49.13009 | 20.86478 | 83° | 78km/h | 14444m | 3.7m/s | -58.6°C | 4.8% | 140.7hPa | 0V | 00:00:00 | 00:00:00 | 00:00:00 | |
| SQ9EZE-13 | 2026-08-31 11:49:03 | 49.12998 | 20.86300 | 84° | 73km/h | 14412m | 6.0m/s | -58.6°C | 4.8% | 141.5hPa | 0V | 00:00:00 | 00:00:00 | 00:00:00 | |
| SQ9EZE-15 | 2026-08-31 11:48:51 | 49.12938 | 20.85953 | 76° | 66km/h | 14337m | 6.1m/s | -58.7°C | 4.9% | 143.3hPa | 0V | 00:00:00 | 00:00:00 | 00:00:00 | |
| SP9SOS | 2026-08-31 11:48:50 | 49.12934 | 20.85928 | 78° | 68km/h | 14329m | 8.6m/s | -58.8°C | 5.0% | 143.4hPa | 0V | 00:00:00 | 00:00:00 | 00:00:00 | |
| SQ9EZE-13 | 2026-08-31 11:48:48 | 49.12931 | 20.85903 | 81° | 66km/h | 14323m | 3.5m/s | -58.7°C | 5.0% | 143.5hPa | 0V | 00:00:00 | 00:00:00 | 00:00:00 | |
| ATIDSZ-14 | 2026-08-31 11:48:44 | 49.12918 | 20.85804 | 78° | 68km/h | 14298m | 3.5m/s | 0°C | 0% | 0hPa | 0V | 00:00:00 | 00:00:00 | 00:00:00 | |
| SQ9EZE-13 | 2026-08-31 11:48:33 | 49.12861 | 20.85501 | 72° | 62km/h | 14235m | 4.2m/s | -59.1°C | 5.8% | 145.5hPa | 0V | 00:00:00 | 00:00:00 | 00:00:00 | |
| SQ9EZE-15 | 2026-08-31 11:48:31 | 49.12852 | 20.85455 | 78° | 62km/h | 14228m | 3.4m/s | -59.1°C | 5.9% | 145.7hPa | 0V | 00:00:00 | 00:00:00 | 00:00:00 | |
| GYPAP8-17 | 2026-08-31 11:48:30 | 49.12852 | 20.85455 | 78° | 62km/h | 14228m | 3.4m/s | -59.1°C | 5.9% | 145.7hPa | 0V | 00:00:00 | 00:00:00 | 00:00:00 | |
| SP9SOS | 2026-08-31 11:48:24 | 49.12832 | 20.85311 | 74° | 57km/h | 14197m | 6.2m/s | -59.2°C | 5.8% | 146.5hPa | 0V | 00:00:00 | 00:00:00 | 00:00:00 | |
| SQ9EZE-13 | 2026-08-31 11:48:16 | 49.12805 | 20.85170 | 87° | 58km/h | 14151m | 6.3m/s | -59.0°C | 6.0% | 147.5hPa | 0V | 00:00:00 | 00:00:00 | 00:00:00 | |
| SQ9EZE-13 | 2026-08-31 11:48:00 | 49.12805 | 20.84796 | 95° | 66km/h | 14055m | 4.4m/s | -58.2°C | 6.3% | 149.9hPa | 0V | 00:00:00 | 00:00:00 | 00:00:00 | |
| SP9SOS | 2026-08-31 11:47:59 | 49.12806 | 20.84771 | 96° | 68km/h | 14048m | 9.4m/s | -58.2°C | 0% | 0hPa | 0V | 00:00:00 | 00:00:00 | 00:00:00 | |
| ATIDSZ-14 | 2026-08-31 11:47:47 | 49.12817 | 20.84492 | 96° | 64km/h | 13985m | 5.5m/s | 0°C | 0% | 0hPa | 0V | 00:00:00 | 00:00:00 | 00:00:00 | |
| SQ9EZE-13 | 2026-08-31 11:47:46 | 49.12820 | 20.84443 | 98° | 64km/h | 13976m | 5.5m/s | -57.9°C | 6.8% | 151.7hPa | 0V | 00:00:00 | 00:00:00 | 00:00:00 | |
| SP9SOS | 2026-08-31 11:47:35 | 49.12843 | 20.84166 | 96° | 71km/h | 13922m | 3.4m/s | -57.7°C | 0% | 0hPa | 0V | 00:00:00 | 00:00:00 | 00:00:00 | |
| SQ9EZE-13 | 2026-08-31 11:47:30 | 49.12855 | 20.84023 | 98° | 77km/h | 13899m | 4.6m/s | -57.7°C | 7.9% | 153.6hPa | 0V | 00:00:00 | 00:00:00 | 00:00:00 | |
| GYPAP8-17 | 2026-08-31 11:47:27 | 49.12860 | 20.83966 | 101° | 73km/h | 13890m | 5.1m/s | -57.6°C | 7.9% | 153.8hPa | 0V | 00:00:00 | 00:00:00 | 00:00:00 | |
| ATIDSZ-14 | 2026-08-31 11:47:23 | 49.12874 | 20.83862 | 100° | 68km/h | 13872m | 5.3m/s | 0°C | 0% | 0hPa | 0V | 00:00:00 | 00:00:00 | 00:00:00 | |
| SQ9EZE-13 | 2026-08-31 11:47:15 | 49.12903 | 20.83585 | 100° | 82km/h | 13832m | 5.3m/s | -57.5°C | 9.0% | 155.2hPa | 0V | 00:00:00 | 00:00:00 | 00:00:00 | |
| ATIDSZ-14 | 2026-08-31 11:47:03 | 49.12949 | 20.83254 | 105° | 84km/h | 13781m | 5.6m/s | 0°C | 0% | 0hPa | 0V | 00:00:00 | 00:00:00 | 00:00:00 | |
| SQ9EZE-14 | 2026-08-31 11:47:00 | 49.12961 | 20.83161 | 99° | 82km/h | 13764m | 3.0m/s | -58.5°C | 11.0% | 156.9hPa | 0V | 00:00:00 | 00:00:00 | 00:00:00 | |
| SQ9EZE-13 | 2026-08-31 11:46:59 | 49.12966 | 20.83100 | 99° | 80km/h | 13755m | 3.8m/s | -58.7°C | 11.4% | 157.1hPa | 0V | 00:00:00 | 00:00:00 | 00:00:00 | |
| SQ9EZE-13 | 2026-08-31 11:46:44 | 49.13019 | 20.82554 | 95° | 99km/h | 13665m | 4.7m/s | -59.2°C | 12.4% | 159.4hPa | 0V | 00:00:00 | 00:00:00 | 00:00:00 | |
| HA6NAB-11 | 2026-08-31 11:46:28 | 49.13026 | 20.81987 | 87° | 99km/h | 13564m | 4.9m/s | 0°C | 0% | 0hPa | 0V | 00:00:00 | 00:00:00 | 00:00:00 | |
| GYPAP8-17 | 2026-08-31 11:46:27 | 49.13025 | 20.81949 | 86° | 99km/h | 13559m | 6.2m/s | -60.0°C | 13.6% | 162.1hPa | 0V | 00:00:00 | 00:00:00 | 00:00:00 | |
| SQ9EZE-13 | 2026-08-31 11:46:12 | 49.13024 | 20.81421 | 94° | 100km/h | 13483m | 5.5m/s | -59.7°C | 13.6% | 164.1hPa | 0V | 00:00:00 | 00:00:00 | 00:00:00 | |
| SQ9EZE-15 | 2026-08-31 11:46:03 | 49.13025 | 20.81080 | 93° | 110km/h | 13434m | 6.7m/s | -59.4°C | 13.4% | 165.4hPa | 0V | 00:00:00 | 00:00:00 | 00:00:00 | |
| SQ9EZE-13 | 2026-08-31 11:45:58 | 49.13025 | 20.80834 | 91° | 100km/h | 13395m | 9.0m/s | -59.2°C | 13.8% | 166.5hPa | 0V | 00:00:00 | 00:00:00 | 00:00:00 | |
| SQ9EZE-13 | 2026-08-31 11:45:41 | 49.13020 | 20.80181 | 92° | 100km/h | 13299m | 3.6m/s | -59.2°C | 15.9% | 169.1hPa | 0V | 00:00:00 | 00:00:00 | 00:00:00 | |
| SQ9EZE-13 | 2026-08-31 11:45:26 | 49.13029 | 20.79573 | 90° | 104km/h | 13205m | 5.7m/s | -58.5°C | 15.9% | 171.6hPa | 0V | 00:00:00 | 00:00:00 | 00:00:00 | |
| GYPAP8-17 | 2026-08-31 11:45:22 | 49.13029 | 20.79408 | 93° | 113km/h | 13180m | 6.6m/s | -58.4°C | 15.7% | 172.3hPa | 0V | 00:00:00 | 00:00:00 | 00:00:00 | |
| HA6NAB-11 | 2026-08-31 11:45:21 | 49.13032 | 20.79319 | 94° | 117km/h | 13166m | 8.7m/s | 0°C | 0% | 0hPa | 0V | 00:00:00 | 00:00:00 | 00:00:00 | |
| SQ9EZE-13 | 2026-08-31 11:45:11 | 49.13027 | 20.78907 | 89° | 108km/h | 13112m | 6.4m/s | -58.0°C | 16.6% | 174.1hPa | 0V | 00:00:00 | 00:00:00 | 00:00:00 | |
| SQ9EZE-13 | 2026-08-31 11:44:55 | 49.13025 | 20.78268 | 87° | 119km/h | 13019m | 5.6m/s | -58.1°C | 17.3% | 176.7hPa | 0V | 00:00:00 | 00:00:00 | 00:00:00 | |
| SQ9EZE-15 | 2026-08-31 11:44:49 | 49.13023 | 20.77966 | 94° | 113km/h | 12979m | 5.9m/s | -58.1°C | 17.8% | 177.8hPa | 0V | 00:00:00 | 00:00:00 | 00:00:00 | |
| SQ9EZE-13 | 2026-08-31 11:44:39 | 49.13025 | 20.77580 | 87° | 115km/h | 12921m | 7.4m/s | -57.9°C | 17.9% | 179.4hPa | 0V | 00:00:00 | 00:00:00 | 00:00:00 | |
| SQ9EZE-14 | 2026-08-31 11:44:36 | 49.13025 | 20.77395 | 94° | 122km/h | 12898m | 5.1m/s | -57.8°C | 18.5% | 180.0hPa | 0V | 00:00:00 | 00:00:00 | 00:00:00 | |
| SQ9EZE-15 | 2026-08-31 11:44:28 | 49.13029 | 20.77103 | 89° | 102km/h | 12855m | 4.1m/s | -57.7°C | 18.9% | 181.3hPa | 0V | 00:00:00 | 00:00:00 | 00:00:00 | |
| SQ9EZE-13 | 2026-08-31 11:44:24 | 49.13025 | 20.76934 | 90° | 115km/h | 12830m | 6.8m/s | -57.7°C | 18.7% | 181.9hPa | 0V | 00:00:00 | 00:00:00 | 00:00:00 | |
| GYPAP8-17 | 2026-08-31 11:44:21 | 49.13025 | 20.76804 | 92° | 110km/h | 12810m | 6.9m/s | -57.6°C | 18.9% | 182.5hPa | 0V | 00:00:00 | 00:00:00 | 00:00:00 | |
| SQ9EZE-14 | 2026-08-31 11:44:20 | 49.13025 | 20.76721 | 90° | 108km/h | 12799m | 6.3m/s | -57.5°C | 18.8% | 182.8hPa | 0V | 00:00:00 | 00:00:00 | 00:00:00 | |
| SQ9EZE-13 | 2026-08-31 11:44:08 | 49.13010 | 20.76246 | 87° | 104km/h | 12734m | 3.4m/s | -57.1°C | 19.3% | 184.7hPa | 0V | 00:00:00 | 00:00:00 | 00:00:00 | |
| SQ9EZE-13 | 2026-08-31 11:43:53 | 49.12990 | 20.75614 | 91° | 113km/h | 12639m | 6.8m/s | -56.9°C | 20.5% | 187.5hPa | 0V | 00:00:00 | 00:00:00 | 00:00:00 | |
| SQ9EZE-13 | 2026-08-31 11:43:37 | 49.12992 | 20.74944 | 92° | 113km/h | 12534m | 4.1m/s | -56.6°C | 21.5% | 190.7hPa | 0V | 00:00:00 | 00:00:00 | 00:00:00 | |
| SQ9EZE-13 | 2026-08-31 11:43:21 | 49.12971 | 20.74275 | 85° | 119km/h | 12433m | 8.0m/s | -56.2°C | 22.1% | 193.6hPa | 0V | 00:00:00 | 00:00:00 | 00:00:00 | |
| HA6NAB-11 | 2026-08-31 11:43:20 | 49.12968 | 20.74230 | 87° | 119km/h | 12425m | 7.9m/s | 0°C | 0% | 0hPa | 0V | 00:00:00 | 00:00:00 | 00:00:00 | |
| SQ9EZE-15 | 2026-08-31 11:43:17 | 49.12966 | 20.74057 | 91° | 106km/h | 12401m | 8.3m/s | -56.1°C | 22.6% | 194.6hPa | 0V | 00:00:00 | 00:00:00 | 00:00:00 | |
| SQ9EZE-13 | 2026-08-31 11:43:05 | 49.12950 | 20.73588 | 89° | 110km/h | 12335m | 7.8m/s | -55.9°C | 23.3% | 196.7hPa | 0V | 00:00:00 | 00:00:00 | 00:00:00 | |
| SQ9EZE-15 | 2026-08-31 11:42:56 | 49.12937 | 20.73182 | 89° | 117km/h | 12281m | 6.7m/s | -55.7°C | 23.9% | 198.5hPa | 0V | 00:00:00 | 00:00:00 | 00:00:00 | |
| SQ9EZE-13 | 2026-08-31 11:42:49 | 49.12932 | 20.72910 | 87° | 117km/h | 12240m | 5.2m/s | -55.4°C | 25.5% | 199.7hPa | 0V | 00:00:00 | 00:00:00 | 00:00:00 | |
| SQ9EZE-13 | 2026-08-31 11:42:34 | 49.12887 | 20.72260 | 84° | 119km/h | 12146m | 7.1m/s | -55.2°C | 27.0% | 202.7hPa | 0V | 00:00:00 | 00:00:00 | 00:00:00 | |
| SQ9EZE-13 | 2026-08-31 11:42:19 | 49.12851 | 20.71625 | 86° | 106km/h | 12058m | 7.2m/s | -54.9°C | 29.7% | 205.6hPa | 0V | 00:00:00 | 00:00:00 | 00:00:00 | |
| HA6NAB-11 | 2026-08-31 11:42:17 | 49.12847 | 20.71543 | 88° | 108km/h | 12043m | 7.1m/s | 0°C | 0% | 0hPa | 0V | 00:00:00 | 00:00:00 | 00:00:00 | |
| GYPAP8-17 | 2026-08-31 11:42:13 | 49.12844 | 20.71377 | 90° | 106km/h | 12018m | 5.5m/s | -54.8°C | 30.6% | 206.8hPa | 0V | 00:00:00 | 00:00:00 | 00:00:00 | |
| HA6NAB-11 | 2026-08-31 11:42:11 | 49.12841 | 20.71294 | 87° | 108km/h | 12007m | 5.2m/s | 0°C | 0% | 0hPa | 0V | 00:00:00 | 00:00:00 | 00:00:00 | |
| SQ9EZE-14 | 2026-08-31 11:42:10 | 49.12839 | 20.71252 | 85° | 110km/h | 12000m | 8.9m/s | -54.7°C | 31.0% | 207.5hPa | 0V | 00:00:00 | 00:00:00 | 00:00:00 | |
| HA6NAB-11 | 2026-08-31 11:42:05 | 49.12827 | 20.71035 | 90° | 110km/h | 11970m | 4.0m/s | 0°C | 0% | 0hPa | 0V | 00:00:00 | 00:00:00 | 00:00:00 | |
| SQ9EZE-13 | 2026-08-31 11:42:03 | 49.12827 | 20.70951 | 90° | 110km/h | 11958m | 8.1m/s | -54.7°C | 33.7% | 208.8hPa | 0V | 00:00:00 | 00:00:00 | 00:00:00 | |
| SQ9EZE-14 | 2026-08-31 11:41:54 | 49.12820 | 20.70558 | 86° | 106km/h | 11910m | 3.8m/s | -54.4°C | 36.0% | 210.4hPa | 0V | 00:00:00 | 00:00:00 | 00:00:00 | |
| SQ9EZE-13 | 2026-08-31 11:41:48 | 49.12808 | 20.70304 | 86° | 113km/h | 11876m | 7.6m/s | -54.4°C | 38.0% | 211.4hPa | 0V | 00:00:00 | 00:00:00 | 00:00:00 | |
| SQ9EZE-15 | 2026-08-31 11:41:43 | 49.12799 | 20.70099 | 85° | 102km/h | 11846m | 3.8m/s | -54.3°C | 40.3% | 212.4hPa | 0V | 00:00:00 | 00:00:00 | 00:00:00 | |
| SQ9EZE-13 | 2026-08-31 11:41:34 | 49.12774 | 20.69678 | 85° | 111km/h | 11791m | 6.3m/s | -54.1°C | 42.7% | 214.3hPa | 0V | 00:00:00 | 00:00:00 | 00:00:00 | |
| SQ9EZE-15 | 2026-08-31 11:41:23 | 49.12732 | 20.69205 | 88° | 115km/h | 11727m | 3.5m/s | -54.1°C | 46.0% | 216.5hPa | 0V | 00:00:00 | 00:00:00 | 00:00:00 | |
| SQ9EZE-13 | 2026-08-31 11:41:17 | 49.12727 | 20.68979 | 88° | 117km/h | 11696m | 7.0m/s | -54.0°C | 45.0% | 217.5hPa | 0V | 00:00:00 | 00:00:00 | 00:00:00 | |
| GYPAP8-17 | 2026-08-31 11:41:10 | 49.12709 | 20.68679 | 84° | 106km/h | 11652m | 3.9m/s | -53.7°C | 45.4% | 219.0hPa | 0V | 00:00:00 | 00:00:00 | 00:00:00 | |
| SQ9EZE-13 | 2026-08-31 11:41:01 | 49.12676 | 20.68309 | 82° | 100km/h | 11602m | 4.0m/s | -53.4°C | 46.2% | 220.6hPa | 0V | 00:00:00 | 00:00:00 | 00:00:00 | |
| SQ9EZE-13 | 2026-08-31 11:40:46 | 49.12619 | 20.67701 | 85° | 99km/h | 11518m | 6.1m/s | -52.9°C | 43.5% | 223.4hPa | 0V | 00:00:00 | 00:00:00 | 00:00:00 | |
| OE3JTB-15 | 2026-08-31 11:40:45 | 49.12613 | 20.67623 | 84° | 108km/h | 11507m | 4.9m/s | 0°C | 0% | 0hPa | 0V | 00:00:00 | 00:00:00 | 00:00:00 | |
| HA6NAB-11 | 2026-08-31 11:40:34 | 49.12599 | 20.67207 | 88° | 110km/h | 11453m | 5.2m/s | 0°C | 0% | 0hPa | 0V | 00:00:00 | 00:00:00 | 00:00:00 | |
| SQ9EZE-13 | 2026-08-31 11:40:31 | 49.12586 | 20.67042 | 82° | 104km/h | 11432m | 5.3m/s | -52.2°C | 40.5% | 226.4hPa | 0V | 00:00:00 | 00:00:00 | 00:00:00 | |
| HA6NAB-11 | 2026-08-31 11:40:29 | 49.12582 | 20.67003 | 81° | 102km/h | 11425m | 7.7m/s | 0°C | 0% | 0hPa | 0V | 00:00:00 | 00:00:00 | 00:00:00 | |
| HA6NAB-11 | 2026-08-31 11:40:24 | 49.12561 | 20.66769 | 89° | 106km/h | 11392m | 3.0m/s | 0°C | 0% | 0hPa | 0V | 00:00:00 | 00:00:00 | 00:00:00 | |
| SQ9EZE-13 | 2026-08-31 11:40:15 | 49.12537 | 20.66434 | 82° | 102km/h | 11345m | 6.4m/s | -51.7°C | 33.7% | 229.4hPa | 0V | 00:00:00 | 00:00:00 | 00:00:00 | |
| OE3JTB-15 | 2026-08-31 11:40:14 | 49.12530 | 20.66358 | 84° | 104km/h | 11335m | 3.6m/s | 0°C | 0% | 0hPa | 0V | 00:00:00 | 00:00:00 | 00:00:00 | |
| SQ9EZE-15 | 2026-08-31 11:40:11 | 49.12525 | 20.66247 | 88° | 100km/h | 11321m | 5.0m/s | -51.5°C | 36.2% | 230.2hPa | 0V | 00:00:00 | 00:00:00 | 00:00:00 | |
| SQ9EZE-13 | 2026-08-31 11:39:59 | 49.12492 | 20.65764 | 91° | 113km/h | 11273m | 4.2m/s | -51.2°C | 34.7% | 232.1hPa | 0V | 00:00:00 | 00:00:00 | 00:00:00 | |
| SQ9EZE-15 | 2026-08-31 11:39:50 | 49.12473 | 20.65369 | 87° | 108km/h | 11221m | 6.0m/s | -50.9°C | 35.6% | 234.0hPa | 0V | 00:00:00 | 00:00:00 | 00:00:00 | |
| SQ9EZE-14 | 2026-08-31 11:39:45 | 49.12469 | 20.65200 | 90° | 108km/h | 11198m | 5.3m/s | -50.7°C | 35.7% | 234.8hPa | 0V | 00:00:00 | 00:00:00 | 00:00:00 | |
| SQ9EZE-13 | 2026-08-31 11:39:44 | 49.12466 | 20.65120 | 88° | 102km/h | 11188m | 4.0m/s | -50.7°C | 34.8% | 235.1hPa | 0V | 00:00:00 | 00:00:00 | 00:00:00 | |
| OE3JTB-15 | 2026-08-31 11:39:43 | 49.12465 | 20.65081 | 87° | 93km/h | 11183m | 5.9m/s | 0°C | 0% | 0hPa | 0V | 00:00:00 | 00:55:11 | 00:00:00 | |
| SQ9EZE-15 | 2026-08-31 11:39:29 | 49.12428 | 20.64531 | 84° | 106km/h | 11102m | 7.5m/s | -50.2°C | 34.5% | 238.3hPa | 0V | 00:00:00 | 00:00:00 | 00:00:00 | |
| SQ9EZE-13 | 2026-08-31 11:39:27 | 49.12424 | 20.64490 | 83° | 111km/h | 11096m | 5.1m/s | -50.1°C | 34.1% | 238.5hPa | 0V | 00:00:00 | 00:00:00 | 00:00:00 | |
| HA6NAB-11 | 2026-08-31 11:39:21 | 49.12402 | 20.64235 | 85° | 106km/h | 11065m | 6.0m/s | 0°C | 0% | 0hPa | 0V | 00:00:00 | 00:00:00 | 00:00:00 | |
| SQ9EZE-13 | 2026-08-31 11:39:12 | 49.12375 | 20.63885 | 87° | 106km/h | 11020m | 5.4m/s | -49.6°C | 33.5% | 241.3hPa | 0V | 00:00:00 | 00:00:00 | 00:00:00 | |
| SQ9EZE-13 | 2026-08-31 11:38:57 | 49.12332 | 20.63268 | 87° | 100km/h | 10957m | 5.5m/s | -49.2°C | 32.1% | 243.6hPa | 0V | 00:00:00 | 00:00:00 | 00:00:00 | |
| GYPAP8-17 | 2026-08-31 11:38:47 | 49.12300 | 20.62871 | 83° | 113km/h | 10914m | 6.6m/s | -48.8°C | 33.2% | 245.3hPa | 0V | 00:00:00 | 00:00:00 | 00:00:00 | |
| SQ9EZE-13 | 2026-08-31 11:38:43 | 49.12275 | 20.62667 | 81° | 106km/h | 10888m | 7.1m/s | -48.7°C | 32.5% | 246.3hPa | 0V | 00:00:00 | 00:00:00 | 00:00:00 | |
| SQ9EZE-13 | 2026-08-31 11:38:26 | 49.12218 | 20.62075 | 84° | 93km/h | 10791m | 6.8m/s | -48.0°C | 34.7% | 249.8hPa | 0V | 00:00:00 | 00:00:00 | 00:00:00 | |
| SQ9EZE-15 | 2026-08-31 11:38:17 | 49.12181 | 20.61709 | 79° | 97km/h | 10731m | 5.8m/s | -47.5°C | 35.7% | 252.2hPa | 0V | 00:00:00 | 00:00:00 | 00:00:00 | |
| SQ9EZE-13 | 2026-08-31 11:38:10 | 49.12152 | 20.61479 | 81° | 102km/h | 10690m | 4.4m/s | -47.3°C | 37.4% | 253.7hPa | 0V | 00:00:00 | 00:00:00 | 00:00:00 | |
| GYPAP8-17 | 2026-08-31 11:38:02 | 49.12110 | 20.61192 | 77° | 93km/h | 10646m | 6.2m/s | -47.0°C | 39.6% | 255.4hPa | 0V | 00:00:00 | 00:00:00 | 00:00:00 | |
| SQ9EZE-15 | 2026-08-31 11:37:56 | 49.12079 | 20.60930 | 83° | 91km/h | 10601m | 7.4m/s | -46.7°C | 40.7% | 257.3hPa | 0V | 00:00:00 | 00:00:00 | 00:00:00 | |
| SQ9EZE-13 | 2026-08-31 11:37:55 | 49.12079 | 20.60930 | 83° | 91km/h | 10601m | 7.4m/s | -46.7°C | 40.7% | 257.3hPa | 0V | 00:00:00 | 00:00:00 | 00:00:00 | |
| SQ9EZE-13 | 2026-08-31 11:37:36 | 49.11989 | 20.60267 | 77° | 99km/h | 10483m | 7.2m/s | -45.7°C | 35.7% | 261.8hPa | 0V | 00:00:00 | 00:00:00 | 00:00:00 | |
| SQ9EZE-14 | 2026-08-31 11:37:23 | 49.11930 | 20.59764 | 79° | 91km/h | 10393m | 5.5m/s | -44.9°C | 32.4% | 265.4hPa | 0V | 00:00:00 | 00:00:00 | 00:00:00 | |
| SQ9EZE-13 | 2026-08-31 11:37:21 | 49.11921 | 20.59697 | 80° | 89km/h | 10380m | 5.1m/s | -44.7°C | 32.2% | 265.8hPa | 0V | 00:00:00 | 00:00:00 | 00:00:00 | |
| GYPAP8-17 | 2026-08-31 11:37:18 | 49.11912 | 20.59630 | 79° | 88km/h | 10370m | 5.5m/s | -44.6°C | 31.7% | 266.3hPa | 0V | 00:00:00 | 00:00:00 | 00:00:00 | |
| SQ9EZE-14 | 2026-08-31 11:37:07 | 49.11863 | 20.59229 | 81° | 91km/h | 10314m | 6.2m/s | -44.1°C | 32.7% | 268.5hPa | 0V | 00:00:00 | 00:00:00 | 00:00:00 | |
| SQ9EZE-13 | 2026-08-31 11:37:05 | 49.11857 | 20.59160 | 86° | 89km/h | 10303m | 6.6m/s | -44.0°C | 31.9% | 269.0hPa | 0V | 00:00:00 | 00:00:00 | 00:00:00 | |
| HA6NAB-11 | 2026-08-31 11:36:55 | 49.11830 | 20.58832 | 80° | 88km/h | 10228m | 5.8m/s | 0°C | 0% | 0hPa | 0V | 00:00:00 | 00:00:00 | 00:00:00 | |
| SQ9EZE-13 | 2026-08-31 11:36:49 | 49.11805 | 20.58636 | 75° | 84km/h | 10193m | 8.2m/s | -43.2°C | 34.7% | 273.5hPa | 0V | 00:00:00 | 00:00:00 | 00:00:00 | |
| SQ9EZE-15 | 2026-08-31 11:36:41 | 49.11782 | 20.58393 | 85° | 80km/h | 10142m | 6.4m/s | -42.8°C | 35.4% | 275.5hPa | 0V | 00:00:00 | 00:00:00 | 00:00:00 | |
| GYPAP8-17 | 2026-08-31 11:36:34 | 49.11743 | 20.58134 | 80° | 86km/h | 10092m | 6.5m/s | -42.4°C | 37.9% | 277.6hPa | 0V | 00:00:00 | 00:00:00 | 00:00:00 | |
| SQ9EZE-15 | 2026-08-31 11:36:21 | 49.11691 | 20.57752 | 81° | 80km/h | 10022m | 5.0m/s | -42.0°C | 49.4% | 280.5hPa | 0V | 00:00:00 | 00:00:00 | 00:00:00 | |
| SQ9EZE-13 | 2026-08-31 11:36:17 | 49.11680 | 20.57633 | 86° | 82km/h | 10001m | 7.1m/s | -42.0°C | 52.6% | 281.4hPa | 0V | 00:00:00 | 00:00:00 | 00:00:00 | |
| SQ9EZE-13 | 2026-08-31 11:36:01 | 49.11617 | 20.57164 | 80° | 84km/h | 9917m | 6.6m/s | -41.3°C | 54.0% | 284.9hPa | 0V | 00:00:00 | 00:00:00 | 00:00:00 | |
| GYPAP8-17 | 2026-08-31 11:35:48 | 49.11566 | 20.56795 | 79° | 71km/h | 9831m | 5.9m/s | -40.6°C | 54.3% | 288.4hPa | 0V | 00:00:00 | 00:00:00 | 00:00:00 | |
| SQ9EZE-13 | 2026-08-31 11:35:46 | 49.11558 | 20.56737 | 82° | 80km/h | 9819m | 8.2m/s | -40.5°C | 53.6% | 289.0hPa | 0V | 00:00:00 | 00:00:00 | 00:00:00 | |
| SQ9EZE-13 | 2026-08-31 11:35:31 | 49.11499 | 20.56255 | 78° | 77km/h | 9714m | 6.8m/s | -39.6°C | 49.3% | 293.4hPa | 0V | 00:00:00 | 00:00:00 | 00:00:00 | |
| SQ9EZE-13 | 2026-08-31 11:35:15 | 49.11424 | 20.55790 | 75° | 82km/h | 9603m | 4.8m/s | -38.6°C | 45.8% | 298.0hPa | 0V | 00:00:00 | 00:00:00 | 00:00:00 | |
| SQ9EZE-15 | 2026-08-31 11:35:09 | 49.11399 | 20.55632 | 84° | 84km/h | 9572m | 5.9m/s | -38.3°C | 44.2% | 299.3hPa | 0V | 00:00:00 | 00:00:00 | 00:00:00 | |
| GYPAP8-17 | 2026-08-31 11:35:03 | 49.11383 | 20.55441 | 83° | 80km/h | 9531m | 7.3m/s | -37.9°C | 40.6% | 301.1hPa | 0V | 00:00:00 | 00:00:00 | 00:00:00 | |
| SQ9EZE-14 | 2026-08-31 11:35:02 | 49.11378 | 20.55381 | 85° | 77km/h | 9518m | 5.9m/s | -37.8°C | 38.5% | 301.6hPa | 0V | 00:00:00 | 00:00:00 | 00:00:00 | |
| SQ9EZE-13 | 2026-08-31 11:34:58 | 49.11372 | 20.55291 | 84° | 80km/h | 9499m | 5.2m/s | -37.6°C | 33.3% | 302.5hPa | 0V | 00:00:00 | 00:00:00 | 00:00:00 | |
| SQ9EZE-15 | 2026-08-31 11:34:48 | 49.11341 | 20.54986 | 86° | 75km/h | 9431m | 5.5m/s | -37.2°C | 24.6% | 305.5hPa | 0V | 00:00:00 | 00:00:00 | 00:00:00 | |
| SQ9EZE-14 | 2026-08-31 11:34:45 | 49.11336 | 20.54894 | 86° | 84km/h | 9412m | 5.9m/s | -37.0°C | 24.3% | 306.4hPa | 0V | 00:00:00 | 00:00:00 | 00:00:00 | |
| OM5KV | 2026-08-31 11:34:44 | 49.11334 | 20.54861 | 85° | 88km/h | 9407m | 3.6m/s | -36.9°C | 24.1% | 306.7hPa | 0V | 00:00:00 | 00:00:00 | 00:00:00 | |
| SQ9EZE-13 | 2026-08-31 11:34:43 | 49.11332 | 20.54827 | 86° | 89km/h | 9402m | 5.9m/s | -36.9°C | 23.7% | 306.9hPa | 0V | 00:00:00 | 00:00:00 | 00:00:00 | |
| HA6NAB-11 | 2026-08-31 11:34:28 | 49.11299 | 20.54336 | 83° | 86km/h | 9304m | 5.3m/s | 0°C | 0% | 0hPa | 0V | 00:00:00 | 00:00:00 | 00:00:00 | |
| SQ9EZE-13 | 2026-08-31 11:34:27 | 49.11297 | 20.54304 | 85° | 84km/h | 9298m | 5.6m/s | -36.1°C | 18.0% | 311.3hPa | 0V | 00:00:00 | 00:00:00 | 00:00:00 | |
| OM5KV | 2026-08-31 11:34:24 | 49.11290 | 20.54214 | 82° | 75km/h | 9280m | 6.5m/s | -36.0°C | 17.8% | 312.2hPa | 0V | 00:00:00 | 00:00:00 | 00:00:00 | |
| GYPAP8-17 | 2026-08-31 11:34:20 | 49.11272 | 20.54064 | 83° | 86km/h | 9248m | 5.8m/s | -35.8°C | 16.6% | 313.5hPa | 0V | 00:00:00 | 00:00:00 | 00:00:00 | |
| OM5KV | 2026-08-31 11:34:18 | 49.11269 | 20.54031 | 85° | 86km/h | 9242m | 6.2m/s | -35.7°C | 16.4% | 313.7hPa | 0V | 00:00:00 | 00:00:00 | 00:00:00 | |
| OM5KV | 2026-08-31 11:34:11 | 49.11263 | 20.53828 | 79° | 71km/h | 9198m | 5.3m/s | -35.3°C | 16.1% | 315.8hPa | 0V | 00:00:00 | 00:00:00 | 00:00:00 | |
| OM5KV | 2026-08-31 11:34:06 | 49.11240 | 20.53684 | 82° | 82km/h | 9169m | 7.8m/s | -35.1°C | 16.2% | 317.2hPa | 0V | 00:00:00 | 00:00:00 | 00:00:00 | |
| OM5KV | 2026-08-31 11:34:01 | 49.11234 | 20.53529 | 89° | 77km/h | 9139m | 4.8m/s | -34.8°C | 16.6% | 318.7hPa | 0V | 00:00:00 | 00:00:00 | 00:00:00 | |
| SQ9EZE-13 | 2026-08-31 11:33:56 | 49.11222 | 20.53371 | 78° | 88km/h | 9105m | 6.5m/s | -34.6°C | 16.0% | 320.1hPa | 0V | 00:00:00 | 00:00:00 | 00:00:00 | |
| OM5KV | 2026-08-31 11:33:49 | 49.11199 | 20.53157 | 88° | 73km/h | 9059m | 6.7m/s | -34.2°C | 16.2% | 322.3hPa | 0V | 00:00:00 | 00:00:00 | 00:00:00 | |
| SQ9EZE-13 | 2026-08-31 11:33:40 | 49.11171 | 20.52908 | 85° | 71km/h | 9001m | 6.4m/s | -33.7°C | 15.7% | 325.0hPa | 0V | 00:00:00 | 00:00:00 | 00:00:00 | |
| SQ9EZE-15 | 2026-08-31 11:33:39 | 49.11170 | 20.52881 | 87° | 69km/h | 8994m | 6.5m/s | -33.6°C | 15.7% | 325.4hPa | 0V | 00:00:00 | 00:00:00 | 00:00:00 | |
| OM5KV | 2026-08-31 11:33:37 | 49.11166 | 20.52827 | 84° | 71km/h | 8981m | 5.8m/s | -33.5°C | 15.7% | 326.0hPa | 0V | 00:00:00 | 00:00:00 | 00:00:00 | |
| GYPAP8-17 | 2026-08-31 11:33:35 | 49.11162 | 20.52772 | 82° | 69km/h | 8968m | 6.8m/s | -33.4°C | 15.5% | 326.5hPa | 0V | 00:00:00 | 00:00:00 | 00:00:00 | |
| OM5KV | 2026-08-31 11:33:32 | 49.11151 | 20.52692 | 77° | 73km/h | 8947m | 6.9m/s | -33.2°C | 15.4% | 327.5hPa | 0V | 00:00:00 | 00:00:00 | 00:00:00 | |
| OM5KV | 2026-08-31 11:33:27 | 49.11132 | 20.52512 | 86° | 71km/h | 8911m | 6.7m/s | -32.9°C | 15.0% | 329.1hPa | 0V | 00:00:00 | 00:00:00 | 00:00:00 | |
| SQ9EZE-13 | 2026-08-31 11:33:25 | 49.11130 | 20.52485 | 85° | 68km/h | 8904m | 6.4m/s | -32.9°C | 15.1% | 329.4hPa | 0V | 00:00:00 | 00:00:00 | 00:00:00 | |
| SQ9EZE-15 | 2026-08-31 11:33:18 | 49.11101 | 20.52306 | 75° | 68km/h | 8866m | 5.6m/s | -32.5°C | 14.9% | 331.3hPa | 0V | 00:00:00 | 00:00:00 | 00:00:00 | |
| OM5KV | 2026-08-31 11:33:16 | 49.11087 | 20.52230 | 77° | 69km/h | 8850m | 5.3m/s | -32.3°C | 14.8% | 332.0hPa | 0V | 00:00:00 | 00:00:00 | 00:00:00 | |
| OM5KV | 2026-08-31 11:33:10 | 49.11070 | 20.52088 | 83° | 86km/h | 8824m | 3.7m/s | -32.1°C | 14.4% | 333.3hPa | 0V | 00:00:00 | 00:00:00 | 00:00:00 | |
| OM5KV | 2026-08-31 11:32:58 | 49.11000 | 20.51747 | 75° | 80km/h | 8772m | 6.8m/s | -31.6°C | 13.9% | 335.8hPa | 0V | 00:00:00 | 00:00:00 | 00:00:00 | |
| SQ9EZE-13 | 2026-08-31 11:32:55 | 49.10986 | 20.51652 | 78° | 88km/h | 8750m | 8.1m/s | -31.4°C | 13.6% | 336.8hPa | 0V | 00:00:00 | 00:00:00 | 00:00:00 | |
| OE3JTB-15 | 2026-08-31 11:32:52 | 49.10966 | 20.51533 | 73° | 75km/h | 8726m | 4.8m/s | 0°C | 0% | 0hPa | 0V | 00:00:00 | 00:00:00 | 00:00:00 | |
| GYPAP8-17 | 2026-08-31 11:32:51 | 49.10966 | 20.51533 | 74° | 71km/h | 8726m | 4.8m/s | -31.2°C | 13.9% | 337.9hPa | 0V | 00:00:00 | 00:00:00 | 00:00:00 | |
| OM5KV | 2026-08-31 11:32:41 | 49.10897 | 20.51253 | 84° | 71km/h | 8663m | 6.3m/s | -30.7°C | 14.2% | 340.9hPa | 0V | 00:00:00 | 00:00:00 | 00:00:00 | |
| SQ9EZE-13 | 2026-08-31 11:32:40 | 49.10892 | 20.51200 | 83° | 71km/h | 8651m | 5.1m/s | -30.6°C | 15.1% | 341.5hPa | 0V | 00:00:00 | 00:00:00 | 00:00:00 | |
| SQ9EZE-14 | 2026-08-31 11:32:39 | 49.10892 | 20.51200 | 83° | 71km/h | 8651m | 5.1m/s | -30.6°C | 15.1% | 341.5hPa | 0V | 00:00:00 | 00:00:00 | 00:00:00 | |
| OM5KV | 2026-08-31 11:32:36 | 49.10881 | 20.51117 | 76° | 78km/h | 8632m | 6.9m/s | -30.6°C | 18.0% | 342.4hPa | 0V | 00:00:00 | 00:00:00 | 00:00:00 | |
| OM5KV | 2026-08-31 11:32:30 | 49.10837 | 20.50961 | 62° | 69km/h | 8588m | 6.0m/s | -30.7°C | 22.5% | 344.6hPa | 0V | 00:00:00 | 00:00:00 | 00:00:00 | |
| SQ9EZE-13 | 2026-08-31 11:32:24 | 49.10782 | 20.50799 | 67° | 82km/h | 8553m | 5.6m/s | -30.5°C | 23.2% | 346.4hPa | 0V | 00:00:00 | 00:00:00 | 00:00:00 | |
| SQ9EZE-14 | 2026-08-31 11:32:23 | 49.10774 | 20.50771 | 69° | 78km/h | 8548m | 3.8m/s | -30.4°C | 23.6% | 346.6hPa | 0V | 00:00:00 | 00:00:00 | 00:00:00 | |
| OM5KV | 2026-08-31 11:32:14 | 49.10718 | 20.50503 | 80° | 71km/h | 8489m | 7.5m/s | 0°C | 0% | 349.4hPa | 0V | 00:00:00 | 00:00:00 | 00:00:00 | |
| OE3JTB-15 | 2026-08-31 11:32:09 | 49.10686 | 20.50358 | 61° | 71km/h | 8458m | 3.9m/s | 0°C | 0% | 0hPa | 0V | 00:00:00 | 00:00:00 | 00:00:00 | |
| OM5KV | 2026-08-31 11:32:08 | 49.10686 | 20.50358 | 61° | 82km/h | 8458m | 4.0m/s | 0°C | 0% | 351.1hPa | 0V | 00:00:00 | 00:00:00 | 00:00:00 | |
| GYPAP8-17 | 2026-08-31 11:32:07 | 49.10675 | 20.50331 | 60° | 82km/h | 8452m | 7.3m/s | -29.6°C | 23.4% | 351.3hPa | 0V | 00:00:00 | 00:00:00 | 00:00:00 | |
| OM5KV | 2026-08-31 11:32:01 | 49.10629 | 20.50186 | 72° | 69km/h | 8416m | 5.5m/s | 0°C | 0% | 353.2hPa | 0V | 00:00:00 | 00:00:00 | 00:00:00 | |
| OM5KV | 2026-08-31 11:31:55 | 49.10587 | 20.50021 | 67° | 82km/h | 8380m | 7.8m/s | 0°C | 0% | 0hPa | 0V | 00:00:00 | 00:00:00 | 00:00:00 | |
| SQ9EZE-13 | 2026-08-31 11:31:54 | 49.10579 | 20.49993 | 66° | 78km/h | 8373m | 7.5m/s | -29.0°C | 22.7% | 355.2hPa | 0V | 00:00:00 | 00:00:00 | 00:00:00 | |
| OM5KV | 2026-08-31 11:31:50 | 49.10538 | 20.49863 | 69° | 69km/h | 8343m | 7.7m/s | 0°C | 0% | 0hPa | 0V | 00:00:00 | 00:00:00 | 00:00:00 | |
| SQ9EZE-15 | 2026-08-31 11:31:49 | 49.10532 | 20.49838 | 69° | 69km/h | 8336m | 6.8m/s | -28.7°C | 22.5% | 357.2hPa | 0V | 00:00:00 | 00:00:00 | 00:00:00 | |
| SQ9EZE-13 | 2026-08-31 11:31:39 | 49.10462 | 20.49579 | 64° | 73km/h | 8268m | 5.3m/s | -28.2°C | 23.5% | 360.4hPa | 0V | 00:00:00 | 00:00:00 | 00:00:00 | |
| OM5KV | 2026-08-31 11:31:38 | 49.10462 | 20.49579 | 64° | 73km/h | 8268m | 5.3m/s | 0°C | 0% | 0hPa | 0V | 00:00:00 | 00:00:00 | 00:00:00 | |
| OM5KV | 2026-08-31 11:31:32 | 49.10413 | 20.49413 | 71° | 78km/h | 8232m | 4.9m/s | 0°C | 0% | 0hPa | 0V | 00:00:00 | 00:00:00 | 00:00:00 | |
| SQ9EZE-13 | 2026-08-31 11:31:22 | 49.10362 | 20.49160 | 71° | 75km/h | 8178m | 4.7m/s | -27.5°C | 20.6% | 365.0hPa | 0V | 00:00:00 | 00:00:00 | 00:00:00 | |
| SQ9EZE-13 | 2026-08-31 11:31:06 | 49.10242 | 20.48744 | 71° | 64km/h | 8070m | 4.8m/s | -26.8°C | 20.1% | 370.5hPa | 0V | 00:00:00 | 00:00:00 | 00:00:00 | |
| OE3JTB-15 | 2026-08-31 11:31:02 | 49.10208 | 20.48625 | 66° | 71km/h | 8041m | 5.3m/s | 0°C | 0% | 0hPa | 0V | 00:00:00 | 00:46:30 | 00:00:00 | |
| SQ9EZE-13 | 2026-08-31 11:30:50 | 49.10150 | 20.48338 | 66° | 66km/h | 7974m | 7.1m/s | -26.0°C | 18.9% | 375.4hPa | 0V | 00:00:00 | 00:00:00 | 00:00:00 | |
| SQ9EZE-15 | 2026-08-31 11:30:39 | 49.10084 | 20.48064 | 75° | 71km/h | 7913m | 7.7m/s | -25.4°C | 18.3% | 378.8hPa | 0V | 00:00:00 | 00:00:00 | 00:00:00 | |
| GYPAP8-17 | 2026-08-31 11:30:38 | 49.10075 | 20.48012 | 78° | 69km/h | 7898m | 7.5m/s | -25.3°C | 18.1% | 379.4hPa | 0V | 00:00:00 | 00:00:00 | 00:00:00 | |
| SQ9EZE-13 | 2026-08-31 11:30:34 | 49.10064 | 20.47936 | 77° | 68km/h | 7879m | 6.2m/s | -25.1°C | 17.6% | 380.4hPa | 0V | 00:00:00 | 00:00:00 | 00:00:00 | |
| SQ9EZE-15 | 2026-08-31 11:30:19 | 49.09984 | 20.47562 | 74° | 60km/h | 7780m | 6.1m/s | -24.3°C | 16.0% | 385.6hPa | 0V | 00:00:00 | 00:00:00 | 00:00:00 | |
| SQ9EZE-14 | 2026-08-31 11:30:17 | 49.09980 | 20.47539 | 73° | 64km/h | 7774m | 6.2m/s | -24.3°C | 16.5% | 385.9hPa | 0V | 00:00:00 | 00:00:00 | 00:00:00 | |
| SQ9EZE-13 | 2026-08-31 11:30:04 | 49.09910 | 20.47219 | 66° | 62km/h | 7693m | 6.9m/s | -24.1°C | 33.5% | 390.1hPa | 0V | 00:00:00 | 00:00:00 | 00:00:00 | |
| SQ9EZE-14 | 2026-08-31 11:30:01 | 49.09890 | 20.47151 | 71° | 69km/h | 7674m | 5.4m/s | -24.0°C | 37.4% | 391.1hPa | 0V | 00:00:00 | 00:00:00 | 00:00:00 | |
| GYPAP8-17 | 2026-08-31 11:29:52 | 49.09836 | 20.46922 | 72° | 68km/h | 7619m | 5.0m/s | -23.8°C | 50.6% | 394.3hPa | 0V | 00:00:00 | 00:00:00 | 00:00:00 | |
| SQ9EZE-13 | 2026-08-31 11:29:49 | 49.09817 | 20.46827 | 76° | 64km/h | 7597m | 5.2m/s | -23.6°C | 50.4% | 395.4hPa | 0V | 00:00:00 | 00:00:00 | 00:00:00 | |
| SQ9EZE-13 | 2026-08-31 11:29:33 | 49.09725 | 20.46453 | 67° | 69km/h | 7531m | 4.1m/s | -22.9°C | 49.2% | 399.0hPa | 0V | 00:00:00 | 00:00:00 | 00:00:00 | |
| SQ9EZE-13 | 2026-08-31 11:29:18 | 49.09649 | 20.46104 | 76° | 64km/h | 7458m | 6.3m/s | -22.3°C | 52.8% | 403.1hPa | 0V | 00:00:00 | 00:00:00 | 00:00:00 | |
| GYPAP8-17 | 2026-08-31 11:29:07 | 49.09576 | 20.45819 | 59° | 73km/h | 7391m | 6.3m/s | -21.7°C | 51.0% | 406.5hPa | 0V | 00:00:00 | 00:00:00 | 00:00:00 | |
| SQ9EZE-13 | 2026-08-31 11:29:03 | 49.09530 | 20.45707 | 64° | 66km/h | 7368m | 4.2m/s | -21.4°C | 51.3% | 407.9hPa | 0V | 00:00:00 | 00:00:00 | 00:00:00 | |
| SQ9EZE-13 | 2026-08-31 11:28:46 | 49.09416 | 20.45343 | 67° | 64km/h | 7292m | 6.7m/s | -20.8°C | 50.7% | 412.2hPa | 0V | 00:00:00 | 00:00:00 | 00:00:00 | |
| SQ9EZE-13 | 2026-08-31 11:28:31 | 49.09293 | 20.44940 | 67° | 75km/h | 7219m | 8.8m/s | -20.2°C | 52.9% | 416.1hPa | 0V | 00:00:00 | 00:00:00 | 00:00:00 | |
| GYPAP8-17 | 2026-08-31 11:28:19 | 49.09206 | 20.44690 | 70° | 69km/h | 7147m | 5.3m/s | -19.7°C | 55.3% | 420.1hPa | 0V | 00:00:00 | 00:00:00 | 00:00:00 | |
| OE3JTB-15 | 2026-08-31 11:28:16 | 49.09181 | 20.44584 | 72° | 66km/h | 7127m | 3.3m/s | 0°C | 0% | 0hPa | 0V | 00:00:00 | 00:00:00 | 00:00:00 | |
| SQ9EZE-13 | 2026-08-31 11:28:14 | 49.09175 | 20.44558 | 74° | 68km/h | 7123m | 6.1m/s | -19.4°C | 54.3% | 421.7hPa | 0V | 00:00:00 | 00:00:00 | 00:00:00 | |
| SQ9EZE-13 | 2026-08-31 11:27:59 | 49.09080 | 20.44201 | 62° | 69km/h | 7034m | 5.2m/s | -18.8°C | 55.8% | 426.4hPa | 0V | 00:00:00 | 00:00:00 | 00:00:00 | |
| SQ9EZE-14 | 2026-08-31 11:27:55 | 49.09046 | 20.44117 | 57° | 60km/h | 7011m | 6.4m/s | -18.7°C | 55.7% | 427.7hPa | 0V | 00:00:00 | 00:00:00 | 00:00:00 | |
| SQ9EZE-13 | 2026-08-31 11:27:44 | 49.08963 | 20.43865 | 68° | 64km/h | 6950m | 7.2m/s | -18.3°C | 53.8% | 431.0hPa | 0V | 00:00:00 | 00:00:00 | 00:00:00 | |
| SQ9EZE-14 | 2026-08-31 11:27:39 | 49.08934 | 20.43741 | 74° | 69km/h | 6922m | 4.7m/s | -18.2°C | 51.3% | 432.7hPa | 0V | 00:00:00 | 00:00:00 | 00:00:00 | |
| GYPAP8-17 | 2026-08-31 11:27:30 | 49.08870 | 20.43532 | 60° | 55km/h | 6874m | 5.6m/s | -17.7°C | 35.2% | 435.7hPa | 0V | 00:00:00 | 00:00:00 | 00:00:00 | |
| SQ9EZE-13 | 2026-08-31 11:27:29 | 49.08857 | 20.43496 | 61° | 53km/h | 6862m | 4.5m/s | -17.6°C | 32.7% | 436.4hPa | 0V | 00:00:00 | 00:00:00 | 00:00:00 | |
| SQ9EZE-15 | 2026-08-31 11:27:14 | 49.08775 | 20.43201 | 62° | 47km/h | 6787m | 5.3m/s | -16.9°C | 27.0% | 440.9hPa | 0V | 00:00:00 | 00:00:00 | 00:00:00 | |
| SQ9EZE-13 | 2026-08-31 11:27:12 | 49.08762 | 20.43172 | 51° | 44km/h | 6778m | 4.5m/s | -16.8°C | 25.8% | 441.3hPa | 0V | 00:00:00 | 00:00:00 | 00:00:00 | |
| SQ9EZE-13 | 2026-08-31 11:26:58 | 49.08670 | 20.42871 | 65° | 60km/h | 6701m | 3.9m/s | -16.1°C | 24.6% | 446.1hPa | 0V | 00:00:00 | 00:00:00 | 00:00:00 | |
| SQ9EZE-15 | 2026-08-31 11:26:54 | 49.08649 | 20.42816 | 58° | 53km/h | 6683m | 5.5m/s | 0°C | 0% | 447.0hPa | 0V | 00:00:00 | 00:00:00 | 00:00:00 | |
| SQ9EZE-13 | 2026-08-31 11:26:42 | 49.08572 | 20.42584 | 67° | 64km/h | 6609m | 5.8m/s | -15.3°C | 13.9% | 451.2hPa | 0V | 00:00:00 | 00:00:00 | 00:00:00 | |
| SQ9EZE-13 | 2026-08-31 11:26:26 | 49.08488 | 20.42303 | 81° | 53km/h | 6528m | 5.8m/s | -14.8°C | 6.0% | 456.3hPa | 0V | 00:00:00 | 00:00:00 | 00:00:00 | |
| SQ9EZE-13 | 2026-08-31 11:26:10 | 49.08408 | 20.42002 | 67° | 58km/h | 6438m | 4.2m/s | -14.3°C | 6.4% | 462.0hPa | 0V | 00:00:00 | 00:00:00 | 00:00:00 | |
| GYPAP8-17 | 2026-08-31 11:25:57 | 49.08340 | 20.41807 | 65° | 46km/h | 6368m | 6.4m/s | -13.7°C | 6.1% | 466.2hPa | 0V | 00:00:00 | 00:00:00 | 00:00:00 | |
| SQ9EZE-13 | 2026-08-31 11:25:54 | 49.08324 | 20.41750 | 73° | 58km/h | 6353m | 4.6m/s | -13.5°C | 6.1% | 467.2hPa | 0V | 00:00:00 | 00:00:00 | 00:00:00 | |
| SQ9EZE-15 | 2026-08-31 11:25:44 | 49.08295 | 20.41560 | 73° | 55km/h | 6300m | 5.5m/s | 0°C | 0% | 470.3hPa | 0V | 00:00:00 | 00:00:00 | 00:00:00 | |
| SQ9EZE-13 | 2026-08-31 11:25:39 | 49.08270 | 20.41464 | 61° | 51km/h | 6263m | 6.4m/s | -12.8°C | 7.5% | 472.5hPa | 0V | 00:00:00 | 00:00:00 | 00:00:00 | |
| SQ9EZE-14 | 2026-08-31 11:25:34 | 49.08240 | 20.41360 | 77° | 47km/h | 6230m | 5.6m/s | -12.5°C | 7.3% | 474.6hPa | 0V | 00:00:00 | 00:00:00 | 00:00:00 | |
| SQ9EZE-15 | 2026-08-31 11:25:24 | 49.08167 | 20.41169 | 62° | 71km/h | 6185m | 4.6m/s | 0°C | 0% | 477.4hPa | 0V | 00:00:00 | 00:00:00 | 00:00:00 | |
| SQ9EZE-14 | 2026-08-31 11:25:17 | 49.08124 | 20.41032 | 53° | 46km/h | 6141m | 5.2m/s | -12.7°C | 26.1% | 480.1hPa | 0V | 00:00:00 | 00:00:00 | 00:00:00 | |
| SQ9EZE-13 | 2026-08-31 11:25:09 | 49.08050 | 20.40895 | 47° | 60km/h | 6105m | 4.8m/s | -12.3°C | 23.1% | 482.5hPa | 0V | 00:00:00 | 00:00:00 | 00:00:00 | |
| GYPAP8-17 | 2026-08-31 11:25:08 | 49.08039 | 20.40879 | 43° | 58km/h | 6100m | 4.5m/s | -12.3°C | 23.3% | 482.7hPa | 0V | 00:00:00 | 00:00:00 | 00:00:00 | |
| SQ9EZE-13 | 2026-08-31 11:24:54 | 49.07904 | 20.40657 | 37° | 58km/h | 6022m | 3.5m/s | -11.7°C | 15.2% | 487.7hPa | 0V | 00:00:00 | 00:00:00 | 00:00:00 | |
| SQ9EZE-13 | 2026-08-31 11:24:38 | 49.07739 | 20.40454 | 45° | 47km/h | 5941m | 6.6m/s | -11.1°C | 18.5% | 493.0hPa | 0V | 00:00:00 | 00:00:00 | 00:00:00 | |
| SQ9EZE-13 | 2026-08-31 11:24:23 | 49.07617 | 20.40249 | 46° | 46km/h | 5854m | 4.3m/s | -10.5°C | 6.1% | 498.7hPa | 0V | 00:00:00 | 00:00:00 | 00:00:00 | |
| GYPAP8-17 | 2026-08-31 11:24:20 | 49.07593 | 20.40210 | 50° | 44km/h | 5839m | 4.4m/s | -10.5°C | 6.0% | 499.7hPa | 0V | 00:00:00 | 00:00:00 | 00:00:00 | |
| SQ9EZE-15 | 2026-08-31 11:24:14 | 49.07540 | 20.40152 | 31° | 47km/h | 5814m | 4.6m/s | 0°C | 0% | 501.4hPa | 0V | 00:00:00 | 00:00:00 | 00:00:00 | |
| SQ9EZE-13 | 2026-08-31 11:24:07 | 49.07472 | 20.40080 | 43° | 49km/h | 5777m | 5.4m/s | -10.2°C | 5.4% | 503.8hPa | 0V | 00:00:00 | 00:00:00 | 00:00:00 | |
| SQ9EZE-15 | 2026-08-31 11:23:54 | 49.07397 | 20.39930 | 43° | 46km/h | 5701m | 3.3m/s | 0°C | 0% | 508.8hPa | 0V | 00:00:00 | 00:00:00 | 00:00:00 | |
| SQ9EZE-13 | 2026-08-31 11:23:51 | 49.07371 | 20.39889 | 48° | 51km/h | 5688m | 2.5m/s | -9.7°C | 5.2% | 509.6hPa | 0V | 00:00:00 | 00:00:00 | 00:00:00 | |
| SQ9EZE-13 | 2026-08-31 11:23:36 | 49.07266 | 20.39681 | 36° | 42km/h | 5606m | 3.9m/s | -9.4°C | 6.4% | 515.2hPa | 0V | 00:00:00 | 00:00:00 | 00:00:00 | |
| SQ9EZE-13 | 2026-08-31 11:23:20 | 49.07162 | 20.39541 | 36° | 44km/h | 5552m | 5.6m/s | -9.3°C | 7.3% | 518.7hPa | 0V | 00:00:00 | 00:00:00 | 00:00:00 | |
| SQ9EZE-14 | 2026-08-31 11:23:14 | 49.07107 | 20.39475 | 42° | 38km/h | 5514m | 5.0m/s | -9.1°C | 7.7% | 521.1hPa | 0V | 00:00:00 | 00:00:00 | 00:00:00 | |
| SQ9EZE-13 | 2026-08-31 11:23:05 | 49.07060 | 20.39365 | 40° | 46km/h | 5476m | 4.4m/s | -8.9°C | 7.8% | 523.7hPa | 0V | 00:00:00 | 00:00:00 | 00:00:00 | |
| SQ9EZE-14 | 2026-08-31 11:22:59 | 49.07018 | 20.39303 | 54° | 33km/h | 5444m | 6.4m/s | -8.6°C | 0% | 526.0hPa | 0V | 00:00:00 | 00:00:00 | 00:00:00 | |
| GYPAP8-17 | 2026-08-31 11:22:52 | 49.06964 | 20.39216 | 47° | 51km/h | 5413m | 3.4m/s | 0°C | 0% | 528.1hPa | 0V | 00:00:00 | 00:00:00 | 00:00:00 | |
| SQ9EZE-13 | 2026-08-31 11:22:49 | 49.06940 | 20.39174 | 48° | 47km/h | 5403m | 4.0m/s | -8.4°C | 8.0% | 528.7hPa | 0V | 00:00:00 | 00:00:00 | 00:00:00 | |
| SQ9EZE-15 | 2026-08-31 11:22:39 | 49.06885 | 20.39007 | 75° | 37km/h | 5361m | 4.2m/s | 0°C | 0% | 531.9hPa | 0V | 00:00:00 | 00:00:00 | 00:00:00 | |
| SQ9EZE-13 | 2026-08-31 11:22:33 | 49.06867 | 20.38915 | 58° | 47km/h | 5321m | 5.5m/s | -8.1°C | 15.9% | 534.6hPa | 0V | 00:00:00 | 00:00:00 | 00:00:00 | |
| SQ9EZE-13 | 2026-08-31 11:22:18 | 49.06782 | 20.38723 | 81° | 20km/h | 5249m | 4.8m/s | -8.3°C | 9.0% | 539.2hPa | 0V | 00:00:00 | 00:00:00 | 00:00:00 | |
| GYPAP8-17 | 2026-08-31 11:22:08 | 49.06740 | 20.38601 | 56° | 37km/h | 5194m | 4.8m/s | 0°C | 0% | 543.2hPa | 0V | 00:00:00 | 00:00:00 | 00:00:00 | |
| SQ9EZE-13 | 2026-08-31 11:22:02 | 49.06704 | 20.38556 | 37° | 26km/h | 5167m | 1.6m/s | -7.7°C | 9.8% | 545.2hPa | 0V | 00:00:00 | 00:00:00 | 00:00:00 | |
| SQ9EZE-13 | 2026-08-31 11:21:46 | 49.06614 | 20.38443 | 45° | 38km/h | 5106m | 4.3m/s | -7.4°C | 9.3% | 549.5hPa | 0V | 00:00:00 | 00:00:00 | 00:00:00 | |
| SQ9EZE-13 | 2026-08-31 11:21:30 | 49.06544 | 20.38276 | 52° | 26km/h | 5037m | 4.5m/s | -6.9°C | 8.9% | 554.5hPa | 0V | 00:00:00 | 00:00:00 | 00:00:00 | |
| GYPAP8-17 | 2026-08-31 11:21:23 | 49.06521 | 20.38210 | 51° | 16km/h | 5011m | 4.5m/s | 0°C | 0% | 556.3hPa | 0V | 00:00:00 | 00:00:00 | 00:00:00 | |
| SQ9EZE-13 | 2026-08-31 11:21:15 | 49.06474 | 20.38163 | 49° | 38km/h | 4981m | 4.8m/s | -6.4°C | 7.8% | 558.3hPa | 0V | 00:00:00 | 00:00:00 | 00:00:00 | |
| SQ9EZE-13 | 2026-08-31 11:21:00 | 49.06414 | 20.38059 | 79° | 13km/h | 4914m | 4.2m/s | -5.9°C | 7.3% | 563.2hPa | 0V | 00:00:00 | 00:00:00 | 00:00:00 | |
| SQ9EZE-14 | 2026-08-31 11:20:56 | 49.06402 | 20.38037 | 32° | 27km/h | 4900m | 5.7m/s | -5.8°C | 0% | 564.4hPa | 0V | 00:00:00 | 00:00:00 | 00:00:00 | |
| SQ9EZE-15 | 2026-08-31 11:20:51 | 49.06369 | 20.37982 | 62° | 42km/h | 4875m | 4.3m/s | 0°C | 0% | 566.2hPa | 0V | 00:00:00 | 00:00:00 | 00:00:00 | |
| SQ9EZE-13 | 2026-08-31 11:20:44 | 49.06331 | 20.37886 | 47° | 37km/h | 4841m | 4.8m/s | -5.6°C | 5.6% | 568.4hPa | 0V | 00:00:00 | 00:00:00 | 00:00:00 | |
| SQ9EZE-14 | 2026-08-31 11:20:41 | 49.06310 | 20.37861 | 34° | 35km/h | 4830m | 2.9m/s | -5.5°C | 0% | 0hPa | 0V | 00:00:00 | 00:00:00 | 00:00:00 | |
| SQ9EZE-15 | 2026-08-31 11:20:30 | 49.06242 | 20.37773 | 57° | 35km/h | 4783m | 4.1m/s | 0°C | 0% | 572.6hPa | 0V | 00:00:00 | 00:00:00 | 00:00:00 | |
| SQ9EZE-13 | 2026-08-31 11:20:29 | 49.06237 | 20.37762 | 55° | 31km/h | 4778m | 5.5m/s | -5.4°C | 5.7% | 572.9hPa | 0V | 00:00:00 | 00:00:00 | 00:00:00 | |
| SQ9EZE-13 | 2026-08-31 11:20:13 | 49.06183 | 20.37615 | 52° | 15km/h | 4688m | 5.3m/s | -5.9°C | 11.4% | 579.4hPa | 0V | 00:00:00 | 00:00:00 | 00:00:00 | |
| SQ9EZE-13 | 2026-08-31 11:19:58 | 49.06164 | 20.37475 | 94° | 24km/h | 4614m | 4.6m/s | -5.3°C | 15.4% | 585.0hPa | 0V | 00:00:00 | 00:00:00 | 00:00:00 | |
| GYPAP8-17 | 2026-08-31 11:19:48 | 49.06147 | 20.37386 | 97° | 37km/h | 4560m | 6.8m/s | 0°C | 0% | 589.0hPa | 0V | 00:00:00 | 00:00:00 | 00:00:00 | |
| SQ9EZE-13 | 2026-08-31 11:19:43 | 49.06153 | 20.37321 | 86° | 26km/h | 4532m | 5.2m/s | -5.4°C | 34.6% | 591.2hPa | 0V | 00:00:00 | 00:00:00 | 00:00:00 | |
| SQ9EZE-13 | 2026-08-31 11:19:27 | 49.06118 | 20.37138 | 41° | 24km/h | 4423m | 7.4m/s | -4.1°C | 23.6% | 599.2hPa | 0V | 00:00:00 | 00:00:00 | 00:00:00 | |
| SQ9EZE-15 | 2026-08-31 11:19:21 | 49.06109 | 20.37096 | 82° | 31km/h | 4379m | 6.6m/s | 0°C | 0% | 602.7hPa | 0V | 00:00:00 | 00:00:00 | 00:00:00 | |
| SQ9EZE-13 | 2026-08-31 11:19:11 | 49.06063 | 20.37026 | 38° | 29km/h | 4313m | 7.4m/s | -3.9°C | 43.6% | 607.8hPa | 0V | 00:00:00 | 00:00:00 | 00:00:00 | |
| GYPAP8-17 | 2026-08-31 11:19:04 | 49.06044 | 20.36954 | 96° | 16km/h | 4267m | 7.1m/s | 0°C | 0% | 0hPa | 0V | 00:00:00 | 00:00:00 | 00:00:00 | |
| SQ9EZE-15 | 2026-08-31 11:19:00 | 49.06031 | 20.36928 | 42° | 33km/h | 4242m | 6.9m/s | 0°C | 0% | 0hPa | 0V | 00:00:00 | 00:00:00 | 00:00:00 | |
| SQ9EZE-13 | 2026-08-31 11:18:56 | 49.06009 | 20.36882 | 65° | 40km/h | 4219m | 4.9m/s | -4.2°C | 79.5% | 615.4hPa | 0V | 00:00:00 | 00:00:00 | 00:00:00 | |
| SQ9EZE-13 | 2026-08-31 11:18:40 | 49.05971 | 20.36715 | 89° | 20km/h | 4124m | 5.8m/s | -3.6°C | 0% | 622.5hPa | 0V | 00:00:00 | 00:00:00 | 00:00:00 | |
| SQ9EZE-14 | 2026-08-31 11:18:39 | 49.05971 | 20.36707 | 82° | 16km/h | 4118m | 6.0m/s | -3.6°C | 0% | 0hPa | 0V | 00:00:00 | 00:00:00 | 00:00:00 | |
| SQ9EZE-13 | 2026-08-31 11:18:25 | 49.05933 | 20.36580 | 46° | 24km/h | 4037m | 5.6m/s | 0°C | 0% | 629.3hPa | 0V | 00:00:00 | 00:00:00 | 00:00:00 | |
| SQ9EZE-14 | 2026-08-31 11:18:23 | 49.05925 | 20.36571 | 21° | 15km/h | 4025m | 6.9m/s | 0°C | 0% | 0hPa | 0V | 00:00:00 | 00:00:00 | 00:00:00 | |
| GYPAP8-17 | 2026-08-31 11:18:18 | 49.05914 | 20.36535 | 74° | 33km/h | 3990m | 6.2m/s | 0°C | 0% | 0hPa | 0V | 00:00:00 | 00:00:00 | 00:00:00 | |
| SQ9EZE-13 | 2026-08-31 11:18:09 | 49.05897 | 20.36457 | 47° | 29km/h | 3941m | 5.9m/s | 0°C | 0% | 0hPa | 0V | 00:00:00 | 00:00:00 | 00:00:00 | |
| GYPAP8-17 | 2026-08-31 11:17:37 | 49.05776 | 20.36146 | 44° | 40km/h | 3744m | 6.6m/s | 0°C | 0% | 0hPa | 0V | 00:00:00 | 00:00:00 | 00:00:00 |